<?xml version="1.0" encoding="utf-8"?>
<gpx xmlns:xsi="http://www.w3.org/2001/XMLSchema-instance" xmlns:xsd="http://www.w3.org/2001/XMLSchema" version="1.1" creator="Shapelink.com" xmlns="http://www.topografix.com/GPX/1/1" xmlns:gpxtpx="http://www.garmin.com/xmlschemas/TrackPointExtension/v1">
  <metadata>
    <name>Laufen 7.39 km, 2019-08-22</name>
    <desc></desc>
    <author><name>Peter Andersson</name></author> 
    <time>2019-08-22T16:14:50Z</time>
  </metadata>
  <trk>
    <name>Laufen 7.39 km, 2019-08-22</name>
    <trkseg>
      <trkpt lat="58.373529560762" lon="15.641558808384">
        <ele>21.2</ele>
        <time>2019-08-22T16:14:50Z</time>
      </trkpt>
      <trkpt lat="58.37356996152" lon="15.641500051265">
        <ele>22.8</ele>
        <time>2019-08-22T16:14:52Z</time>
      </trkpt>
      <trkpt lat="58.37369149907" lon="15.641233590664">
        <ele>23</ele>
        <time>2019-08-22T16:14:59Z</time>
      </trkpt>
      <trkpt lat="58.373738940624" lon="15.640974589954">
        <ele>22.6</ele>
        <time>2019-08-22T16:15:05Z</time>
      </trkpt>
      <trkpt lat="58.373766265618" lon="15.640753978346">
        <ele>22.2</ele>
        <time>2019-08-22T16:15:10Z</time>
      </trkpt>
      <trkpt lat="58.373812114611" lon="15.640578377541">
        <ele>22.4</ele>
        <time>2019-08-22T16:15:15Z</time>
      </trkpt>
      <trkpt lat="58.373848827333" lon="15.640498749491">
        <ele>22.8</ele>
        <time>2019-08-22T16:15:17Z</time>
      </trkpt>
      <trkpt lat="58.373884198951" lon="15.640442842218">
        <ele>23</ele>
        <time>2019-08-22T16:15:19Z</time>
      </trkpt>
      <trkpt lat="58.373975142566" lon="15.640259278608">
        <ele>23.6</ele>
        <time>2019-08-22T16:15:24Z</time>
      </trkpt>
      <trkpt lat="58.37398151281" lon="15.640225751008">
        <ele>23.6</ele>
        <time>2019-08-22T16:15:25Z</time>
      </trkpt>
      <trkpt lat="58.373996348773" lon="15.64015349903">
        <ele>24</ele>
        <time>2019-08-22T16:15:27Z</time>
      </trkpt>
      <trkpt lat="58.374022667939" lon="15.640043444683">
        <ele>24.2</ele>
        <time>2019-08-22T16:15:30Z</time>
      </trkpt>
      <trkpt lat="58.374106319301" lon="15.639807075103">
        <ele>23.8</ele>
        <time>2019-08-22T16:15:36Z</time>
      </trkpt>
      <trkpt lat="58.37421117687" lon="15.639565844021">
        <ele>23.6</ele>
        <time>2019-08-22T16:15:42Z</time>
      </trkpt>
      <trkpt lat="58.374279237898" lon="15.639354871598">
        <ele>23.4</ele>
        <time>2019-08-22T16:15:48Z</time>
      </trkpt>
      <trkpt lat="58.374312765498" lon="15.639311034261">
        <ele>23.2</ele>
        <time>2019-08-22T16:15:50Z</time>
      </trkpt>
      <trkpt lat="58.374464896983" lon="15.63902864805">
        <ele>24.2</ele>
        <time>2019-08-22T16:15:56Z</time>
      </trkpt>
      <trkpt lat="58.374598085374" lon="15.638834607065">
        <ele>24.4</ele>
        <time>2019-08-22T16:16:02Z</time>
      </trkpt>
      <trkpt lat="58.374705625151" lon="15.638704939072">
        <ele>23.8</ele>
        <time>2019-08-22T16:16:07Z</time>
      </trkpt>
      <trkpt lat="58.374765304279" lon="15.638645176125">
        <ele>24.2</ele>
        <time>2019-08-22T16:16:10Z</time>
      </trkpt>
      <trkpt lat="58.374828755262" lon="15.638586754282">
        <ele>24.4</ele>
        <time>2019-08-22T16:16:13Z</time>
      </trkpt>
      <trkpt lat="58.374916178479" lon="15.638551215026">
        <ele>24.4</ele>
        <time>2019-08-22T16:16:18Z</time>
      </trkpt>
      <trkpt lat="58.374976779616" lon="15.638639644071">
        <ele>24</ele>
        <time>2019-08-22T16:16:22Z</time>
      </trkpt>
      <trkpt lat="58.375001673859" lon="15.638675686241">
        <ele>23.8</ele>
        <time>2019-08-22T16:16:23Z</time>
      </trkpt>
      <trkpt lat="58.375169144221" lon="15.638755565748">
        <ele>24</ele>
        <time>2019-08-22T16:16:28Z</time>
      </trkpt>
      <trkpt lat="58.375291687599" lon="15.638725977641">
        <ele>22.6</ele>
        <time>2019-08-22T16:16:32Z</time>
      </trkpt>
      <trkpt lat="58.37530166206" lon="15.638719188302">
        <ele>22.4</ele>
        <time>2019-08-22T16:16:33Z</time>
      </trkpt>
      <trkpt lat="58.375297722567" lon="15.638719439759">
        <ele>21.6</ele>
        <time>2019-08-22T16:16:35Z</time>
      </trkpt>
      <trkpt lat="58.375260423112" lon="15.638743831088">
        <ele>20.8</ele>
        <time>2019-08-22T16:16:38Z</time>
      </trkpt>
      <trkpt lat="58.375163025434" lon="15.638749363142">
        <ele>22</ele>
        <time>2019-08-22T16:16:43Z</time>
      </trkpt>
      <trkpt lat="58.375148524747" lon="15.638724971813">
        <ele>22.4</ele>
        <time>2019-08-22T16:16:44Z</time>
      </trkpt>
      <trkpt lat="58.375134946069" lon="15.638707537461">
        <ele>22.6</ele>
        <time>2019-08-22T16:16:45Z</time>
      </trkpt>
      <trkpt lat="58.375105106505" lon="15.638660766459">
        <ele>23.4</ele>
        <time>2019-08-22T16:16:47Z</time>
      </trkpt>
      <trkpt lat="58.375085241402" lon="15.638572253595">
        <ele>23.6</ele>
        <time>2019-08-22T16:16:49Z</time>
      </trkpt>
      <trkpt lat="58.375078871158" lon="15.638525650231">
        <ele>24.2</ele>
        <time>2019-08-22T16:16:50Z</time>
      </trkpt>
      <trkpt lat="58.375081637185" lon="15.638417942816">
        <ele>24</ele>
        <time>2019-08-22T16:16:53Z</time>
      </trkpt>
      <trkpt lat="58.37508792361" lon="15.638388187071">
        <ele>23.8</ele>
        <time>2019-08-22T16:16:54Z</time>
      </trkpt>
      <trkpt lat="58.375090521999" lon="15.638353234548">
        <ele>23.8</ele>
        <time>2019-08-22T16:16:55Z</time>
      </trkpt>
      <trkpt lat="58.375100077365" lon="15.638194565181">
        <ele>24.4</ele>
        <time>2019-08-22T16:16:58Z</time>
      </trkpt>
      <trkpt lat="58.375126564169" lon="15.637933888091">
        <ele>24.8</ele>
        <time>2019-08-22T16:17:04Z</time>
      </trkpt>
      <trkpt lat="58.375128743463" lon="15.637882926139">
        <ele>25</ele>
        <time>2019-08-22T16:17:05Z</time>
      </trkpt>
      <trkpt lat="58.375146680729" lon="15.637722999487">
        <ele>24.8</ele>
        <time>2019-08-22T16:17:08Z</time>
      </trkpt>
      <trkpt lat="58.375157996294" lon="15.637628367836">
        <ele>24.4</ele>
        <time>2019-08-22T16:17:10Z</time>
      </trkpt>
      <trkpt lat="58.375191188618" lon="15.637443463122">
        <ele>24.2</ele>
        <time>2019-08-22T16:17:13Z</time>
      </trkpt>
      <trkpt lat="58.375241982932" lon="15.637222097143">
        <ele>24</ele>
        <time>2019-08-22T16:17:18Z</time>
      </trkpt>
      <trkpt lat="58.375327394493" lon="15.636979860233">
        <ele>23</ele>
        <time>2019-08-22T16:17:24Z</time>
      </trkpt>
      <trkpt lat="58.375410207665" lon="15.636811048767">
        <ele>21.8</ele>
        <time>2019-08-22T16:17:28Z</time>
      </trkpt>
      <trkpt lat="58.375431078596" lon="15.636783891411">
        <ele>21.4</ele>
        <time>2019-08-22T16:17:29Z</time>
      </trkpt>
      <trkpt lat="58.375458319771" lon="15.636719183143">
        <ele>21.6</ele>
        <time>2019-08-22T16:17:31Z</time>
      </trkpt>
      <trkpt lat="58.375531829034" lon="15.636619438533">
        <ele>20.8</ele>
        <time>2019-08-22T16:17:34Z</time>
      </trkpt>
      <trkpt lat="58.375577678027" lon="15.636503935951">
        <ele>20.6</ele>
        <time>2019-08-22T16:17:36Z</time>
      </trkpt>
      <trkpt lat="58.375621934459" lon="15.636383990962">
        <ele>19.6</ele>
        <time>2019-08-22T16:17:38Z</time>
      </trkpt>
      <trkpt lat="58.375643895037" lon="15.636332023182">
        <ele>19.6</ele>
        <time>2019-08-22T16:17:39Z</time>
      </trkpt>
      <trkpt lat="58.375658311905" lon="15.636293214985">
        <ele>19.6</ele>
        <time>2019-08-22T16:17:40Z</time>
      </trkpt>
      <trkpt lat="58.375749590796" lon="15.636108226452">
        <ele>18.4</ele>
        <time>2019-08-22T16:17:44Z</time>
      </trkpt>
      <trkpt lat="58.375764091483" lon="15.636055420482">
        <ele>18.2</ele>
        <time>2019-08-22T16:17:45Z</time>
      </trkpt>
      <trkpt lat="58.375830308493" lon="15.635840592385">
        <ele>18.2</ele>
        <time>2019-08-22T16:17:49Z</time>
      </trkpt>
      <trkpt lat="58.375863500817" lon="15.635748223847">
        <ele>18.2</ele>
        <time>2019-08-22T16:17:51Z</time>
      </trkpt>
      <trkpt lat="58.375905577955" lon="15.635580669666">
        <ele>18.4</ele>
        <time>2019-08-22T16:17:54Z</time>
      </trkpt>
      <trkpt lat="58.375950588758" lon="15.635365087198">
        <ele>18.6</ele>
        <time>2019-08-22T16:17:59Z</time>
      </trkpt>
      <trkpt lat="58.375993671724" lon="15.635164340693">
        <ele>19</ele>
        <time>2019-08-22T16:18:04Z</time>
      </trkpt>
      <trkpt lat="58.375994593733" lon="15.635092340172">
        <ele>19.2</ele>
        <time>2019-08-22T16:18:05Z</time>
      </trkpt>
      <trkpt lat="58.375971543508" lon="15.634697552682">
        <ele>19.2</ele>
        <time>2019-08-22T16:18:11Z</time>
      </trkpt>
      <trkpt lat="58.375937512994" lon="15.634450957184">
        <ele>19.2</ele>
        <time>2019-08-22T16:18:16Z</time>
      </trkpt>
      <trkpt lat="58.375926365067" lon="15.634391026599">
        <ele>19.8</ele>
        <time>2019-08-22T16:18:17Z</time>
      </trkpt>
      <trkpt lat="58.375875319296" lon="15.63415876415">
        <ele>20.4</ele>
        <time>2019-08-22T16:18:22Z</time>
      </trkpt>
      <trkpt lat="58.375855454193" lon="15.634071089476">
        <ele>21</ele>
        <time>2019-08-22T16:18:24Z</time>
      </trkpt>
      <trkpt lat="58.375825195534" lon="15.63392993828">
        <ele>21</ele>
        <time>2019-08-22T16:18:27Z</time>
      </trkpt>
      <trkpt lat="58.37577523941" lon="15.633650401915">
        <ele>21.4</ele>
        <time>2019-08-22T16:18:32Z</time>
      </trkpt>
      <trkpt lat="58.375715476463" lon="15.633302301608">
        <ele>21.4</ele>
        <time>2019-08-22T16:18:37Z</time>
      </trkpt>
      <trkpt lat="58.375686894184" lon="15.633093173203">
        <ele>21.2</ele>
        <time>2019-08-22T16:18:41Z</time>
      </trkpt>
      <trkpt lat="58.375620593355" lon="15.632858899098">
        <ele>20.8</ele>
        <time>2019-08-22T16:18:46Z</time>
      </trkpt>
      <trkpt lat="58.375542306409" lon="15.632769464225">
        <ele>20.8</ele>
        <time>2019-08-22T16:18:49Z</time>
      </trkpt>
      <trkpt lat="58.375516154881" lon="15.63273300296">
        <ele>20.6</ele>
        <time>2019-08-22T16:18:50Z</time>
      </trkpt>
      <trkpt lat="58.37540643581" lon="15.632650776521">
        <ele>20.4</ele>
        <time>2019-08-22T16:18:53Z</time>
      </trkpt>
      <trkpt lat="58.375393527684" lon="15.632615153446">
        <ele>20.4</ele>
        <time>2019-08-22T16:18:54Z</time>
      </trkpt>
      <trkpt lat="58.375367376156" lon="15.632482803245">
        <ele>20.4</ele>
        <time>2019-08-22T16:18:58Z</time>
      </trkpt>
      <trkpt lat="58.375309038132" lon="15.632398648969">
        <ele>20.4</ele>
        <time>2019-08-22T16:19:02Z</time>
      </trkpt>
      <trkpt lat="58.375288670115" lon="15.632356990926">
        <ele>20</ele>
        <time>2019-08-22T16:19:03Z</time>
      </trkpt>
      <trkpt lat="58.375264614062" lon="15.632280045084">
        <ele>20.4</ele>
        <time>2019-08-22T16:19:05Z</time>
      </trkpt>
      <trkpt lat="58.375259836379" lon="15.63223679448">
        <ele>20.2</ele>
        <time>2019-08-22T16:19:06Z</time>
      </trkpt>
      <trkpt lat="58.375234355403" lon="15.632049710472">
        <ele>20.4</ele>
        <time>2019-08-22T16:19:10Z</time>
      </trkpt>
      <trkpt lat="58.37520107926" lon="15.6318830783">
        <ele>20.4</ele>
        <time>2019-08-22T16:19:14Z</time>
      </trkpt>
      <trkpt lat="58.375155230267" lon="15.631706555486">
        <ele>20.2</ele>
        <time>2019-08-22T16:19:18Z</time>
      </trkpt>
      <trkpt lat="58.375145088168" lon="15.631663053425">
        <ele>19.8</ele>
        <time>2019-08-22T16:19:22Z</time>
      </trkpt>
      <trkpt lat="58.375145255806" lon="15.631642014856">
        <ele>19.8</ele>
        <time>2019-08-22T16:19:23Z</time>
      </trkpt>
      <trkpt lat="58.375147016005" lon="15.631599267166">
        <ele>19.6</ele>
        <time>2019-08-22T16:19:26Z</time>
      </trkpt>
      <trkpt lat="58.375135029888" lon="15.631521064039">
        <ele>20</ele>
        <time>2019-08-22T16:19:33Z</time>
      </trkpt>
      <trkpt lat="58.375149614394" lon="15.631498097633">
        <ele>20.2</ele>
        <time>2019-08-22T16:19:39Z</time>
      </trkpt>
      <trkpt lat="58.37516671347" lon="15.631376392445">
        <ele>20.2</ele>
        <time>2019-08-22T16:19:42Z</time>
      </trkpt>
      <trkpt lat="58.375232846661" lon="15.631262650062">
        <ele>20.6</ele>
        <time>2019-08-22T16:19:46Z</time>
      </trkpt>
      <trkpt lat="58.37524382695" lon="15.631230715023">
        <ele>20.8</ele>
        <time>2019-08-22T16:19:47Z</time>
      </trkpt>
      <trkpt lat="58.375256148343" lon="15.631195008129">
        <ele>21</ele>
        <time>2019-08-22T16:19:49Z</time>
      </trkpt>
      <trkpt lat="58.375262937682" lon="15.631185285125">
        <ele>20.8</ele>
        <time>2019-08-22T16:19:50Z</time>
      </trkpt>
      <trkpt lat="58.3752731636" lon="15.631198696165">
        <ele>20.4</ele>
        <time>2019-08-22T16:19:55Z</time>
      </trkpt>
      <trkpt lat="58.375266877175" lon="15.631207664798">
        <ele>20.4</ele>
        <time>2019-08-22T16:19:56Z</time>
      </trkpt>
      <trkpt lat="58.375267966822" lon="15.631208251531">
        <ele>20.2</ele>
        <time>2019-08-22T16:20:01Z</time>
      </trkpt>
      <trkpt lat="58.37533016052" lon="15.631140358141">
        <ele>20.2</ele>
        <time>2019-08-22T16:20:06Z</time>
      </trkpt>
      <trkpt lat="58.375385145784" lon="15.631045223576">
        <ele>20.4</ele>
        <time>2019-08-22T16:20:10Z</time>
      </trkpt>
      <trkpt lat="58.375433090252" lon="15.630922177284">
        <ele>21</ele>
        <time>2019-08-22T16:20:15Z</time>
      </trkpt>
      <trkpt lat="58.375439041401" lon="15.630889152598">
        <ele>21</ele>
        <time>2019-08-22T16:20:16Z</time>
      </trkpt>
      <trkpt lat="58.375444657274" lon="15.630869874228">
        <ele>21.4</ele>
        <time>2019-08-22T16:20:19Z</time>
      </trkpt>
      <trkpt lat="58.375436191555" lon="15.630795526775">
        <ele>21.4</ele>
        <time>2019-08-22T16:20:27Z</time>
      </trkpt>
      <trkpt lat="58.37542990513" lon="15.630764597564">
        <ele>22.6</ele>
        <time>2019-08-22T16:20:29Z</time>
      </trkpt>
      <trkpt lat="58.375409201837" lon="15.630668121895">
        <ele>23.4</ele>
        <time>2019-08-22T16:20:32Z</time>
      </trkpt>
      <trkpt lat="58.375388917639" lon="15.630578770841">
        <ele>23.6</ele>
        <time>2019-08-22T16:20:34Z</time>
      </trkpt>
      <trkpt lat="58.375296884377" lon="15.630390681005">
        <ele>23.2</ele>
        <time>2019-08-22T16:20:38Z</time>
      </trkpt>
      <trkpt lat="58.375269224107" lon="15.630302587236">
        <ele>23</ele>
        <time>2019-08-22T16:20:40Z</time>
      </trkpt>
      <trkpt lat="58.375238630172" lon="15.630168644474">
        <ele>23</ele>
        <time>2019-08-22T16:20:43Z</time>
      </trkpt>
      <trkpt lat="58.375205856943" lon="15.63004911858">
        <ele>23</ele>
        <time>2019-08-22T16:20:47Z</time>
      </trkpt>
      <trkpt lat="58.375169563316" lon="15.629885922987">
        <ele>23.2</ele>
        <time>2019-08-22T16:20:51Z</time>
      </trkpt>
      <trkpt lat="58.375160594683" lon="15.629852646844">
        <ele>23.6</ele>
        <time>2019-08-22T16:20:55Z</time>
      </trkpt>
      <trkpt lat="58.375144166159" lon="15.629801936349">
        <ele>23.6</ele>
        <time>2019-08-22T16:21:02Z</time>
      </trkpt>
      <trkpt lat="58.375136873906" lon="15.629715016046">
        <ele>23.8</ele>
        <time>2019-08-22T16:21:06Z</time>
      </trkpt>
      <trkpt lat="58.37512312759" lon="15.629630358856">
        <ele>24.4</ele>
        <time>2019-08-22T16:21:11Z</time>
      </trkpt>
      <trkpt lat="58.375110806197" lon="15.629615606712">
        <ele>24.4</ele>
        <time>2019-08-22T16:21:12Z</time>
      </trkpt>
      <trkpt lat="58.375051210888" lon="15.629490632583">
        <ele>25</ele>
        <time>2019-08-22T16:21:15Z</time>
      </trkpt>
      <trkpt lat="58.37502003022" lon="15.629335735071">
        <ele>25.4</ele>
        <time>2019-08-22T16:21:18Z</time>
      </trkpt>
      <trkpt lat="58.3750300885" lon="15.629292819743">
        <ele>24.8</ele>
        <time>2019-08-22T16:21:20Z</time>
      </trkpt>
      <trkpt lat="58.375036207287" lon="15.629289802259">
        <ele>25</ele>
        <time>2019-08-22T16:21:21Z</time>
      </trkpt>
      <trkpt lat="58.375076272769" lon="15.629240432868">
        <ele>24.8</ele>
        <time>2019-08-22T16:21:26Z</time>
      </trkpt>
      <trkpt lat="58.375113404586" lon="15.629192404581">
        <ele>24.8</ele>
        <time>2019-08-22T16:21:28Z</time>
      </trkpt>
      <trkpt lat="58.375127402359" lon="15.6291589608">
        <ele>25</ele>
        <time>2019-08-22T16:21:29Z</time>
      </trkpt>
      <trkpt lat="58.375152883335" lon="15.629131216711">
        <ele>25.2</ele>
        <time>2019-08-22T16:21:30Z</time>
      </trkpt>
      <trkpt lat="58.375213987386" lon="15.629024431305">
        <ele>26.2</ele>
        <time>2019-08-22T16:21:33Z</time>
      </trkpt>
      <trkpt lat="58.375238546353" lon="15.629000878166">
        <ele>26.4</ele>
        <time>2019-08-22T16:21:34Z</time>
      </trkpt>
      <trkpt lat="58.375344661207" lon="15.628928039455">
        <ele>26.6</ele>
        <time>2019-08-22T16:21:38Z</time>
      </trkpt>
      <trkpt lat="58.375384894327" lon="15.62888403448">
        <ele>26.6</ele>
        <time>2019-08-22T16:21:41Z</time>
      </trkpt>
      <trkpt lat="58.375386989802" lon="15.628868360327">
        <ele>26</ele>
        <time>2019-08-22T16:21:42Z</time>
      </trkpt>
      <trkpt lat="58.375386654526" lon="15.628863415006">
        <ele>25.8</ele>
        <time>2019-08-22T16:21:44Z</time>
      </trkpt>
      <trkpt lat="58.375396796625" lon="15.628831899062">
        <ele>25.6</ele>
        <time>2019-08-22T16:21:46Z</time>
      </trkpt>
      <trkpt lat="58.375445411645" lon="15.628766855518">
        <ele>26.4</ele>
        <time>2019-08-22T16:21:50Z</time>
      </trkpt>
      <trkpt lat="58.375451530432" lon="15.628588740143">
        <ele>26.2</ele>
        <time>2019-08-22T16:21:54Z</time>
      </trkpt>
      <trkpt lat="58.375468545689" lon="15.628459491245">
        <ele>27.4</ele>
        <time>2019-08-22T16:21:58Z</time>
      </trkpt>
      <trkpt lat="58.37547768196" lon="15.62842889731">
        <ele>27.8</ele>
        <time>2019-08-22T16:21:59Z</time>
      </trkpt>
      <trkpt lat="58.375494697217" lon="15.628354382219">
        <ele>28.6</ele>
        <time>2019-08-22T16:22:01Z</time>
      </trkpt>
      <trkpt lat="58.375507521524" lon="15.628292356159">
        <ele>29.8</ele>
        <time>2019-08-22T16:22:03Z</time>
      </trkpt>
      <trkpt lat="58.375511963931" lon="15.628251368668">
        <ele>31</ele>
        <time>2019-08-22T16:22:05Z</time>
      </trkpt>
      <trkpt lat="58.375522273668" lon="15.628216751421">
        <ele>31.6</ele>
        <time>2019-08-22T16:22:08Z</time>
      </trkpt>
      <trkpt lat="58.375518166537" lon="15.628160592691">
        <ele>31.6</ele>
        <time>2019-08-22T16:22:10Z</time>
      </trkpt>
      <trkpt lat="58.375519926736" lon="15.628137793923">
        <ele>32.2</ele>
        <time>2019-08-22T16:22:12Z</time>
      </trkpt>
      <trkpt lat="58.37552294422" lon="15.628126729815">
        <ele>32.4</ele>
        <time>2019-08-22T16:22:13Z</time>
      </trkpt>
      <trkpt lat="58.375528979188" lon="15.628114911336">
        <ele>32.6</ele>
        <time>2019-08-22T16:22:14Z</time>
      </trkpt>
      <trkpt lat="58.375552616146" lon="15.62805422638">
        <ele>33.2</ele>
        <time>2019-08-22T16:22:17Z</time>
      </trkpt>
      <trkpt lat="58.37555563363" lon="15.628040563883">
        <ele>33.2</ele>
        <time>2019-08-22T16:22:18Z</time>
      </trkpt>
      <trkpt lat="58.375566362462" lon="15.627873596435">
        <ele>33.6</ele>
        <time>2019-08-22T16:22:23Z</time>
      </trkpt>
      <trkpt lat="58.375570218136" lon="15.62781115128">
        <ele>33.8</ele>
        <time>2019-08-22T16:22:25Z</time>
      </trkpt>
      <trkpt lat="58.375574744362" lon="15.627685255142">
        <ele>33.8</ele>
        <time>2019-08-22T16:22:28Z</time>
      </trkpt>
      <trkpt lat="58.375576253104" lon="15.627640914891">
        <ele>33.8</ele>
        <time>2019-08-22T16:22:29Z</time>
      </trkpt>
      <trkpt lat="58.375586981936" lon="15.627597245192">
        <ele>34</ele>
        <time>2019-08-22T16:22:31Z</time>
      </trkpt>
      <trkpt lat="58.375606930858" lon="15.627578385917">
        <ele>34</ele>
        <time>2019-08-22T16:22:33Z</time>
      </trkpt>
      <trkpt lat="58.375639536449" lon="15.627518287694">
        <ele>33.8</ele>
        <time>2019-08-22T16:22:38Z</time>
      </trkpt>
      <trkpt lat="58.375680859216" lon="15.627360037422">
        <ele>34.4</ele>
        <time>2019-08-22T16:22:42Z</time>
      </trkpt>
      <trkpt lat="58.375679601931" lon="15.627315278076">
        <ele>34.2</ele>
        <time>2019-08-22T16:22:43Z</time>
      </trkpt>
      <trkpt lat="58.375688402926" lon="15.627201368055">
        <ele>33.2</ele>
        <time>2019-08-22T16:22:47Z</time>
      </trkpt>
      <trkpt lat="58.375758810886" lon="15.627010009278">
        <ele>33</ele>
        <time>2019-08-22T16:22:52Z</time>
      </trkpt>
      <trkpt lat="58.375817484186" lon="15.62688914228">
        <ele>33</ele>
        <time>2019-08-22T16:22:56Z</time>
      </trkpt>
      <trkpt lat="58.375833745072" lon="15.626862571657">
        <ele>32.8</ele>
        <time>2019-08-22T16:22:57Z</time>
      </trkpt>
      <trkpt lat="58.375853693994" lon="15.626839186156">
        <ele>32.8</ele>
        <time>2019-08-22T16:22:59Z</time>
      </trkpt>
      <trkpt lat="58.375857801125" lon="15.626837928871">
        <ele>32</ele>
        <time>2019-08-22T16:23:01Z</time>
      </trkpt>
      <trkpt lat="58.375861656799" lon="15.626830217523">
        <ele>32</ele>
        <time>2019-08-22T16:23:02Z</time>
      </trkpt>
      <trkpt lat="58.375873391459" lon="15.626795684095">
        <ele>31.2</ele>
        <time>2019-08-22T16:23:08Z</time>
      </trkpt>
      <trkpt lat="58.375870206337" lon="15.626762240314">
        <ele>31.2</ele>
        <time>2019-08-22T16:23:09Z</time>
      </trkpt>
      <trkpt lat="58.375875906029" lon="15.626646821551">
        <ele>31.2</ele>
        <time>2019-08-22T16:23:13Z</time>
      </trkpt>
      <trkpt lat="58.375865093378" lon="15.626607594259">
        <ele>31.2</ele>
        <time>2019-08-22T16:23:15Z</time>
      </trkpt>
      <trkpt lat="58.375858304039" lon="15.626593680305">
        <ele>31</ele>
        <time>2019-08-22T16:23:16Z</time>
      </trkpt>
      <trkpt lat="58.375886383404" lon="15.626623519869">
        <ele>30.8</ele>
        <time>2019-08-22T16:23:17Z</time>
      </trkpt>
      <trkpt lat="58.375888059784" lon="15.626621927308">
        <ele>30.8</ele>
        <time>2019-08-22T16:23:18Z</time>
      </trkpt>
      <trkpt lat="58.375902728109" lon="15.626625782982">
        <ele>30.6</ele>
        <time>2019-08-22T16:23:25Z</time>
      </trkpt>
      <trkpt lat="58.375953857699" lon="15.626460491914">
        <ele>30.6</ele>
        <time>2019-08-22T16:23:30Z</time>
      </trkpt>
      <trkpt lat="58.376001383072" lon="15.626357059268">
        <ele>30.2</ele>
        <time>2019-08-22T16:23:34Z</time>
      </trkpt>
      <trkpt lat="58.376009764972" lon="15.626335685423">
        <ele>29.8</ele>
        <time>2019-08-22T16:23:35Z</time>
      </trkpt>
      <trkpt lat="58.376012111904" lon="15.626223284144">
        <ele>29.4</ele>
        <time>2019-08-22T16:23:38Z</time>
      </trkpt>
      <trkpt lat="58.375994761371" lon="15.626105937544">
        <ele>28.8</ele>
        <time>2019-08-22T16:23:41Z</time>
      </trkpt>
      <trkpt lat="58.375988307308" lon="15.626079618378">
        <ele>28.4</ele>
        <time>2019-08-22T16:23:42Z</time>
      </trkpt>
      <trkpt lat="58.375978751942" lon="15.626050700823">
        <ele>27.8</ele>
        <time>2019-08-22T16:23:44Z</time>
      </trkpt>
      <trkpt lat="58.375966765825" lon="15.625992865713">
        <ele>27.2</ele>
        <time>2019-08-22T16:23:47Z</time>
      </trkpt>
      <trkpt lat="58.375962323418" lon="15.625932432214">
        <ele>26.4</ele>
        <time>2019-08-22T16:23:51Z</time>
      </trkpt>
      <trkpt lat="58.375932064759" lon="15.625824389523">
        <ele>25.8</ele>
        <time>2019-08-22T16:23:55Z</time>
      </trkpt>
      <trkpt lat="58.375917312615" lon="15.625795639606">
        <ele>25.4</ele>
        <time>2019-08-22T16:23:56Z</time>
      </trkpt>
      <trkpt lat="58.375897866607" lon="15.625752221364">
        <ele>23.6</ele>
        <time>2019-08-22T16:23:59Z</time>
      </trkpt>
      <trkpt lat="58.375913205484" lon="15.625771583553">
        <ele>23.4</ele>
        <time>2019-08-22T16:24:01Z</time>
      </trkpt>
      <trkpt lat="58.375901135548" lon="15.625760854721">
        <ele>23</ele>
        <time>2019-08-22T16:24:08Z</time>
      </trkpt>
      <trkpt lat="58.375886048128" lon="15.625764542757">
        <ele>22.8</ele>
        <time>2019-08-22T16:24:13Z</time>
      </trkpt>
      <trkpt lat="58.375910858552" lon="15.625766135318">
        <ele>23</ele>
        <time>2019-08-22T16:24:22Z</time>
      </trkpt>
      <trkpt lat="58.375920497737" lon="15.625802680402">
        <ele>23</ele>
        <time>2019-08-22T16:24:27Z</time>
      </trkpt>
      <trkpt lat="58.375908260163" lon="15.625768566069">
        <ele>23</ele>
        <time>2019-08-22T16:24:32Z</time>
      </trkpt>
      <trkpt lat="58.375902476652" lon="15.625737636858">
        <ele>22.8</ele>
        <time>2019-08-22T16:24:39Z</time>
      </trkpt>
      <trkpt lat="58.375904572127" lon="15.625745767301">
        <ele>22.6</ele>
        <time>2019-08-22T16:24:47Z</time>
      </trkpt>
      <trkpt lat="58.375906919059" lon="15.62555139104">
        <ele>23.2</ele>
        <time>2019-08-22T16:24:52Z</time>
      </trkpt>
      <trkpt lat="58.375951510767" lon="15.625382244298">
        <ele>23</ele>
        <time>2019-08-22T16:24:57Z</time>
      </trkpt>
      <trkpt lat="58.375958048649" lon="15.62522114418">
        <ele>22.8</ele>
        <time>2019-08-22T16:25:00Z</time>
      </trkpt>
      <trkpt lat="58.375967017282" lon="15.625108156168">
        <ele>22.8</ele>
        <time>2019-08-22T16:25:02Z</time>
      </trkpt>
      <trkpt lat="58.375967017282" lon="15.624926017481">
        <ele>23</ele>
        <time>2019-08-22T16:25:06Z</time>
      </trkpt>
      <trkpt lat="58.375968274567" lon="15.624875055529">
        <ele>23.2</ele>
        <time>2019-08-22T16:25:07Z</time>
      </trkpt>
      <trkpt lat="58.375954109156" lon="15.624820656998">
        <ele>23</ele>
        <time>2019-08-22T16:25:09Z</time>
      </trkpt>
      <trkpt lat="58.375942709772" lon="15.624795092203">
        <ele>22.8</ele>
        <time>2019-08-22T16:25:11Z</time>
      </trkpt>
      <trkpt lat="58.375938518822" lon="15.624787967588">
        <ele>22.4</ele>
        <time>2019-08-22T16:25:12Z</time>
      </trkpt>
      <trkpt lat="58.375933238225" lon="15.624811185451">
        <ele>22</ele>
        <time>2019-08-22T16:25:16Z</time>
      </trkpt>
      <trkpt lat="58.375936758623" lon="15.624795762755">
        <ele>22</ele>
        <time>2019-08-22T16:25:19Z</time>
      </trkpt>
      <trkpt lat="58.375927957628" lon="15.624759217671">
        <ele>21.8</ele>
        <time>2019-08-22T16:25:22Z</time>
      </trkpt>
      <trkpt lat="58.375929298732" lon="15.624783022267">
        <ele>22</ele>
        <time>2019-08-22T16:25:26Z</time>
      </trkpt>
      <trkpt lat="58.375898118064" lon="15.62489173551">
        <ele>22.6</ele>
        <time>2019-08-22T16:25:30Z</time>
      </trkpt>
      <trkpt lat="58.375887305413" lon="15.624880671402">
        <ele>22.6</ele>
        <time>2019-08-22T16:25:31Z</time>
      </trkpt>
      <trkpt lat="58.375868110862" lon="15.624881761049">
        <ele>22.2</ele>
        <time>2019-08-22T16:25:36Z</time>
      </trkpt>
      <trkpt lat="58.375871379803" lon="15.624841947024">
        <ele>21.6</ele>
        <time>2019-08-22T16:25:41Z</time>
      </trkpt>
      <trkpt lat="58.375878085323" lon="15.624806575406">
        <ele>21.8</ele>
        <time>2019-08-22T16:25:46Z</time>
      </trkpt>
      <trkpt lat="58.375908930715" lon="15.624814538211">
        <ele>21.6</ele>
        <time>2019-08-22T16:25:50Z</time>
      </trkpt>
      <trkpt lat="58.376013369189" lon="15.624821830464">
        <ele>22.6</ele>
        <time>2019-08-22T16:25:55Z</time>
      </trkpt>
      <trkpt lat="58.376095176533" lon="15.624776149109">
        <ele>23.6</ele>
        <time>2019-08-22T16:26:00Z</time>
      </trkpt>
      <trkpt lat="58.376160387715" lon="15.62476852158">
        <ele>25</ele>
        <time>2019-08-22T16:26:04Z</time>
      </trkpt>
      <trkpt lat="58.376179163171" lon="15.624776484385">
        <ele>24.8</ele>
        <time>2019-08-22T16:26:06Z</time>
      </trkpt>
      <trkpt lat="58.376198441541" lon="15.624786039751">
        <ele>24.8</ele>
        <time>2019-08-22T16:26:07Z</time>
      </trkpt>
      <trkpt lat="58.376251750425" lon="15.624714542144">
        <ele>25</ele>
        <time>2019-08-22T16:26:11Z</time>
      </trkpt>
      <trkpt lat="58.376336575253" lon="15.624732311772">
        <ele>25.2</ele>
        <time>2019-08-22T16:26:15Z</time>
      </trkpt>
      <trkpt lat="58.376412934362" lon="15.624796768583">
        <ele>25.8</ele>
        <time>2019-08-22T16:26:20Z</time>
      </trkpt>
      <trkpt lat="58.376435565492" lon="15.624821830464">
        <ele>25.4</ele>
        <time>2019-08-22T16:26:28Z</time>
      </trkpt>
      <trkpt lat="58.376429279067" lon="15.624815544039">
        <ele>24.6</ele>
        <time>2019-08-22T16:26:33Z</time>
      </trkpt>
      <trkpt lat="58.37642567485" lon="15.624835073866">
        <ele>24.6</ele>
        <time>2019-08-22T16:26:39Z</time>
      </trkpt>
      <trkpt lat="58.376403295177" lon="15.624796349488">
        <ele>24.6</ele>
        <time>2019-08-22T16:26:44Z</time>
      </trkpt>
      <trkpt lat="58.376461381744" lon="15.624727869365">
        <ele>24.8</ele>
        <time>2019-08-22T16:26:50Z</time>
      </trkpt>
      <trkpt lat="58.376486359806" lon="15.624666932952">
        <ele>25.2</ele>
        <time>2019-08-22T16:26:52Z</time>
      </trkpt>
      <trkpt lat="58.376513517162" lon="15.624522596634">
        <ele>25.6</ele>
        <time>2019-08-22T16:26:56Z</time>
      </trkpt>
      <trkpt lat="58.376557354499" lon="15.624348001657">
        <ele>25.4</ele>
        <time>2019-08-22T16:27:00Z</time>
      </trkpt>
      <trkpt lat="58.376559617612" lon="15.62433769192">
        <ele>25.6</ele>
        <time>2019-08-22T16:27:01Z</time>
      </trkpt>
      <trkpt lat="58.376587026425" lon="15.624271558729">
        <ele>25.4</ele>
        <time>2019-08-22T16:27:03Z</time>
      </trkpt>
      <trkpt lat="58.376675204013" lon="15.624156726699">
        <ele>24.2</ele>
        <time>2019-08-22T16:27:09Z</time>
      </trkpt>
      <trkpt lat="58.376698589514" lon="15.624138286519">
        <ele>24.4</ele>
        <time>2019-08-22T16:27:10Z</time>
      </trkpt>
      <trkpt lat="58.376728680535" lon="15.624109620421">
        <ele>23.8</ele>
        <time>2019-08-22T16:27:12Z</time>
      </trkpt>
      <trkpt lat="58.376760028841" lon="15.624072991518">
        <ele>23.2</ele>
        <time>2019-08-22T16:27:14Z</time>
      </trkpt>
      <trkpt lat="58.376776625003" lon="15.624070728405">
        <ele>22.8</ele>
        <time>2019-08-22T16:27:15Z</time>
      </trkpt>
      <trkpt lat="58.376785425998" lon="15.624048181094">
        <ele>23</ele>
        <time>2019-08-22T16:27:16Z</time>
      </trkpt>
      <trkpt lat="58.376855833958" lon="15.624017419521">
        <ele>22.2</ele>
        <time>2019-08-22T16:27:19Z</time>
      </trkpt>
      <trkpt lat="58.376885422065" lon="15.624041643212">
        <ele>21.6</ele>
        <time>2019-08-22T16:27:20Z</time>
      </trkpt>
      <trkpt lat="58.376936635474" lon="15.624122612366">
        <ele>20</ele>
        <time>2019-08-22T16:27:23Z</time>
      </trkpt>
      <trkpt lat="58.377013497497" lon="15.624181704761">
        <ele>18.6</ele>
        <time>2019-08-22T16:27:27Z</time>
      </trkpt>
      <trkpt lat="58.377027998184" lon="15.624183045865">
        <ele>18.6</ele>
        <time>2019-08-22T16:27:28Z</time>
      </trkpt>
      <trkpt lat="58.377113912659" lon="15.624233253446">
        <ele>18.2</ele>
        <time>2019-08-22T16:27:32Z</time>
      </trkpt>
      <trkpt lat="58.377220698065" lon="15.624214394171">
        <ele>17.4</ele>
        <time>2019-08-22T16:27:36Z</time>
      </trkpt>
      <trkpt lat="58.377284065229" lon="15.624233169627">
        <ele>17.4</ele>
        <time>2019-08-22T16:27:38Z</time>
      </trkpt>
      <trkpt lat="58.377370147342" lon="15.624209365031">
        <ele>16.8</ele>
        <time>2019-08-22T16:27:41Z</time>
      </trkpt>
      <trkpt lat="58.377393281386" lon="15.624187572091">
        <ele>16.6</ele>
        <time>2019-08-22T16:27:42Z</time>
      </trkpt>
      <trkpt lat="58.377490259969" lon="15.624230906514">
        <ele>16.4</ele>
        <time>2019-08-22T16:27:45Z</time>
      </trkpt>
      <trkpt lat="58.377549184726" lon="15.624317072446">
        <ele>16.6</ele>
        <time>2019-08-22T16:27:47Z</time>
      </trkpt>
      <trkpt lat="58.377611378424" lon="15.624398795971">
        <ele>16.8</ele>
        <time>2019-08-22T16:27:49Z</time>
      </trkpt>
      <trkpt lat="58.377749679774" lon="15.624472221415">
        <ele>17</ele>
        <time>2019-08-22T16:27:55Z</time>
      </trkpt>
      <trkpt lat="58.3778631707" lon="15.624320844301">
        <ele>16.8</ele>
        <time>2019-08-22T16:28:01Z</time>
      </trkpt>
      <trkpt lat="58.377907091856" lon="15.624206179909">
        <ele>17.4</ele>
        <time>2019-08-22T16:28:03Z</time>
      </trkpt>
      <trkpt lat="58.377920838172" lon="15.624169551006">
        <ele>17.6</ele>
        <time>2019-08-22T16:28:04Z</time>
      </trkpt>
      <trkpt lat="58.377944139854" lon="15.624147925704">
        <ele>17.4</ele>
        <time>2019-08-22T16:28:05Z</time>
      </trkpt>
      <trkpt lat="58.378091577475" lon="15.623980287704">
        <ele>18.4</ele>
        <time>2019-08-22T16:28:11Z</time>
      </trkpt>
      <trkpt lat="58.378163577996" lon="15.623891439564">
        <ele>19</ele>
        <time>2019-08-22T16:28:14Z</time>
      </trkpt>
      <trkpt lat="58.378185622393" lon="15.623857744326">
        <ele>18.8</ele>
        <time>2019-08-22T16:28:15Z</time>
      </trkpt>
      <trkpt lat="58.378283439166" lon="15.623683484625">
        <ele>19.4</ele>
        <time>2019-08-22T16:28:20Z</time>
      </trkpt>
      <trkpt lat="58.378317804956" lon="15.623607796068">
        <ele>19.6</ele>
        <time>2019-08-22T16:28:22Z</time>
      </trkpt>
      <trkpt lat="58.378388380554" lon="15.623493969866">
        <ele>19.6</ele>
        <time>2019-08-22T16:28:25Z</time>
      </trkpt>
      <trkpt lat="58.378471612821" lon="15.623381987682">
        <ele>20</ele>
        <time>2019-08-22T16:28:29Z</time>
      </trkpt>
      <trkpt lat="58.378587031584" lon="15.623243770151">
        <ele>20.8</ele>
        <time>2019-08-22T16:28:33Z</time>
      </trkpt>
      <trkpt lat="58.378618547528" lon="15.623213930587">
        <ele>20.8</ele>
        <time>2019-08-22T16:28:34Z</time>
      </trkpt>
      <trkpt lat="58.378744611304" lon="15.62306364312">
        <ele>21</ele>
        <time>2019-08-22T16:28:39Z</time>
      </trkpt>
      <trkpt lat="58.378828346485" lon="15.622927604883">
        <ele>21.2</ele>
        <time>2019-08-22T16:28:44Z</time>
      </trkpt>
      <trkpt lat="58.378895569323" lon="15.623007568209">
        <ele>20.8</ele>
        <time>2019-08-22T16:28:49Z</time>
      </trkpt>
      <trkpt lat="58.378904370318" lon="15.623018045584">
        <ele>20.4</ele>
        <time>2019-08-22T16:28:54Z</time>
      </trkpt>
      <trkpt lat="58.378914428598" lon="15.623028355321">
        <ele>20.4</ele>
        <time>2019-08-22T16:29:00Z</time>
      </trkpt>
      <trkpt lat="58.378905795241" lon="15.623070767735">
        <ele>19.8</ele>
        <time>2019-08-22T16:29:07Z</time>
      </trkpt>
      <trkpt lat="58.378904454137" lon="15.623096164892">
        <ele>19.8</ele>
        <time>2019-08-22T16:29:08Z</time>
      </trkpt>
      <trkpt lat="58.378922810498" lon="15.62319607714">
        <ele>20.4</ele>
        <time>2019-08-22T16:29:12Z</time>
      </trkpt>
      <trkpt lat="58.378935383348" lon="15.623238992468">
        <ele>21</ele>
        <time>2019-08-22T16:29:14Z</time>
      </trkpt>
      <trkpt lat="58.37894108304" lon="15.623330774273">
        <ele>21.4</ele>
        <time>2019-08-22T16:29:16Z</time>
      </trkpt>
      <trkpt lat="58.378989111327" lon="15.6234676507">
        <ele>22</ele>
        <time>2019-08-22T16:29:20Z</time>
      </trkpt>
      <trkpt lat="58.379006042765" lon="15.623693794362">
        <ele>22.6</ele>
        <time>2019-08-22T16:29:26Z</time>
      </trkpt>
      <trkpt lat="58.379009730801" lon="15.623879788723">
        <ele>23.2</ele>
        <time>2019-08-22T16:29:31Z</time>
      </trkpt>
      <trkpt lat="58.37900897643" lon="15.623926895001">
        <ele>23.2</ele>
        <time>2019-08-22T16:29:32Z</time>
      </trkpt>
      <trkpt lat="58.37898885987" lon="15.623990429803">
        <ele>23.6</ele>
        <time>2019-08-22T16:29:34Z</time>
      </trkpt>
      <trkpt lat="58.378992715544" lon="15.62402001791">
        <ele>24.2</ele>
        <time>2019-08-22T16:29:36Z</time>
      </trkpt>
      <trkpt lat="58.378995816847" lon="15.624029573276">
        <ele>24.4</ele>
        <time>2019-08-22T16:29:37Z</time>
      </trkpt>
      <trkpt lat="58.379002522367" lon="15.624065363989">
        <ele>24.6</ele>
        <time>2019-08-22T16:29:41Z</time>
      </trkpt>
      <trkpt lat="58.379033116302" lon="15.624151949016">
        <ele>24.8</ele>
        <time>2019-08-22T16:29:45Z</time>
      </trkpt>
      <trkpt lat="58.379042336392" lon="15.624155301776">
        <ele>25</ele>
        <time>2019-08-22T16:29:46Z</time>
      </trkpt>
      <trkpt lat="58.379037307252" lon="15.624230738876">
        <ele>25.4</ele>
        <time>2019-08-22T16:29:49Z</time>
      </trkpt>
      <trkpt lat="58.379041582021" lon="15.624296285334">
        <ele>26.2</ele>
        <time>2019-08-22T16:29:53Z</time>
      </trkpt>
      <trkpt lat="58.379038564537" lon="15.624327466002">
        <ele>26.2</ele>
        <time>2019-08-22T16:29:54Z</time>
      </trkpt>
      <trkpt lat="58.379047030256" lon="15.624369291683">
        <ele>26</ele>
        <time>2019-08-22T16:29:55Z</time>
      </trkpt>
      <trkpt lat="58.379050299197" lon="15.624484626627">
        <ele>26.2</ele>
        <time>2019-08-22T16:29:58Z</time>
      </trkpt>
      <trkpt lat="58.379059100192" lon="15.624518908598">
        <ele>26.4</ele>
        <time>2019-08-22T16:29:59Z</time>
      </trkpt>
      <trkpt lat="58.379064129332" lon="15.624537767873">
        <ele>26.4</ele>
        <time>2019-08-22T16:30:00Z</time>
      </trkpt>
      <trkpt lat="58.379068739377" lon="15.624625023452">
        <ele>26</ele>
        <time>2019-08-22T16:30:04Z</time>
      </trkpt>
      <trkpt lat="58.379082485693" lon="15.624642541623">
        <ele>25.2</ele>
        <time>2019-08-22T16:30:09Z</time>
      </trkpt>
      <trkpt lat="58.379105200642" lon="15.624550759818">
        <ele>25</ele>
        <time>2019-08-22T16:30:16Z</time>
      </trkpt>
      <trkpt lat="58.379112157619" lon="15.624447997724">
        <ele>25.2</ele>
        <time>2019-08-22T16:30:18Z</time>
      </trkpt>
      <trkpt lat="58.379138644423" lon="15.624394185926">
        <ele>25.4</ele>
        <time>2019-08-22T16:30:20Z</time>
      </trkpt>
      <trkpt lat="58.379178542267" lon="15.624345654725">
        <ele>25.6</ele>
        <time>2019-08-22T16:30:23Z</time>
      </trkpt>
      <trkpt lat="58.379217769559" lon="15.624317994455">
        <ele>25.4</ele>
        <time>2019-08-22T16:30:25Z</time>
      </trkpt>
      <trkpt lat="58.379249788417" lon="15.624270804358">
        <ele>25.2</ele>
        <time>2019-08-22T16:30:28Z</time>
      </trkpt>
      <trkpt lat="58.379261523077" lon="15.624249179056">
        <ele>25.4</ele>
        <time>2019-08-22T16:30:29Z</time>
      </trkpt>
      <trkpt lat="58.379300918007" lon="15.624178352001">
        <ele>24.2</ele>
        <time>2019-08-22T16:30:34Z</time>
      </trkpt>
      <trkpt lat="58.379313574676" lon="15.624157564889">
        <ele>24</ele>
        <time>2019-08-22T16:30:39Z</time>
      </trkpt>
      <trkpt lat="58.379293206659" lon="15.62403510533">
        <ele>23.8</ele>
        <time>2019-08-22T16:30:43Z</time>
      </trkpt>
      <trkpt lat="58.379258421774" lon="15.623901665482">
        <ele>23.6</ele>
        <time>2019-08-22T16:30:46Z</time>
      </trkpt>
      <trkpt lat="58.379253308815" lon="15.623841399621">
        <ele>24.2</ele>
        <time>2019-08-22T16:30:47Z</time>
      </trkpt>
      <trkpt lat="58.379267222769" lon="15.623699242597">
        <ele>24.4</ele>
        <time>2019-08-22T16:30:50Z</time>
      </trkpt>
      <trkpt lat="58.379279376524" lon="15.623667642834">
        <ele>24.8</ele>
        <time>2019-08-22T16:30:51Z</time>
      </trkpt>
      <trkpt lat="58.379277281049" lon="15.623530347312">
        <ele>25</ele>
        <time>2019-08-22T16:30:54Z</time>
      </trkpt>
      <trkpt lat="58.379277448687" lon="15.623472512202">
        <ele>24.8</ele>
        <time>2019-08-22T16:30:55Z</time>
      </trkpt>
      <trkpt lat="58.379283567474" lon="15.623255923906">
        <ele>23.8</ele>
        <time>2019-08-22T16:31:00Z</time>
      </trkpt>
      <trkpt lat="58.379316256884" lon="15.622979069749">
        <ele>24.2</ele>
        <time>2019-08-22T16:31:06Z</time>
      </trkpt>
      <trkpt lat="58.379298068161" lon="15.622842444779">
        <ele>23.4</ele>
        <time>2019-08-22T16:31:09Z</time>
      </trkpt>
      <trkpt lat="58.37928474094" lon="15.622798104528">
        <ele>22.8</ele>
        <time>2019-08-22T16:31:10Z</time>
      </trkpt>
      <trkpt lat="58.379240400689" lon="15.62266382649">
        <ele>22.2</ele>
        <time>2019-08-22T16:31:14Z</time>
      </trkpt>
      <trkpt lat="58.379215590265" lon="15.622608422131">
        <ele>21.6</ele>
        <time>2019-08-22T16:31:17Z</time>
      </trkpt>
      <trkpt lat="58.379224055984" lon="15.62263029889">
        <ele>20.8</ele>
        <time>2019-08-22T16:31:18Z</time>
      </trkpt>
      <trkpt lat="58.379223217794" lon="15.622571709409">
        <ele>20.6</ele>
        <time>2019-08-22T16:31:19Z</time>
      </trkpt>
      <trkpt lat="58.379212572781" lon="15.622549162098">
        <ele>20.4</ele>
        <time>2019-08-22T16:31:20Z</time>
      </trkpt>
      <trkpt lat="58.379207795098" lon="15.622540109646">
        <ele>20</ele>
        <time>2019-08-22T16:31:21Z</time>
      </trkpt>
      <trkpt lat="58.379208298012" lon="15.622527285339">
        <ele>20.2</ele>
        <time>2019-08-22T16:31:28Z</time>
      </trkpt>
      <trkpt lat="58.379213746247" lon="15.622514963946">
        <ele>20</ele>
        <time>2019-08-22T16:31:33Z</time>
      </trkpt>
      <trkpt lat="58.379297062333" lon="15.622434832982">
        <ele>20</ele>
        <time>2019-08-22T16:31:37Z</time>
      </trkpt>
      <trkpt lat="58.379426981783" lon="15.622288233551">
        <ele>20.6</ele>
        <time>2019-08-22T16:31:42Z</time>
      </trkpt>
      <trkpt lat="58.379547178229" lon="15.622149932201">
        <ele>20.2</ele>
        <time>2019-08-22T16:31:47Z</time>
      </trkpt>
      <trkpt lat="58.379688916158" lon="15.622008948643">
        <ele>20</ele>
        <time>2019-08-22T16:31:52Z</time>
      </trkpt>
      <trkpt lat="58.379863175859" lon="15.621856398063">
        <ele>20</ele>
        <time>2019-08-22T16:31:58Z</time>
      </trkpt>
      <trkpt lat="58.379990161644" lon="15.621648610762">
        <ele>19.6</ele>
        <time>2019-08-22T16:32:03Z</time>
      </trkpt>
      <trkpt lat="58.380124020587" lon="15.621509555041">
        <ele>20.6</ele>
        <time>2019-08-22T16:32:08Z</time>
      </trkpt>
      <trkpt lat="58.380303477066" lon="15.621331858761">
        <ele>20.2</ele>
        <time>2019-08-22T16:32:14Z</time>
      </trkpt>
      <trkpt lat="58.380335244467" lon="15.621305539595">
        <ele>20.4</ele>
        <time>2019-08-22T16:32:15Z</time>
      </trkpt>
      <trkpt lat="58.38051436567" lon="15.621135554663">
        <ele>19.8</ele>
        <time>2019-08-22T16:32:21Z</time>
      </trkpt>
      <trkpt lat="58.380575302083" lon="15.621077551915">
        <ele>19.8</ele>
        <time>2019-08-22T16:32:23Z</time>
      </trkpt>
      <trkpt lat="58.38063422684" lon="15.621020471176">
        <ele>19.2</ele>
        <time>2019-08-22T16:32:25Z</time>
      </trkpt>
      <trkpt lat="58.38076749905" lon="15.620913182856">
        <ele>20.4</ele>
        <time>2019-08-22T16:32:29Z</time>
      </trkpt>
      <trkpt lat="58.380876379931" lon="15.620782676673">
        <ele>19.4</ele>
        <time>2019-08-22T16:32:33Z</time>
      </trkpt>
      <trkpt lat="58.380958187275" lon="15.620687793565">
        <ele>19.8</ele>
        <time>2019-08-22T16:32:36Z</time>
      </trkpt>
      <trkpt lat="58.381091710942" lon="15.620555694821">
        <ele>19.4</ele>
        <time>2019-08-22T16:32:41Z</time>
      </trkpt>
      <trkpt lat="58.381210650103" lon="15.62044262299">
        <ele>19.8</ele>
        <time>2019-08-22T16:32:45Z</time>
      </trkpt>
      <trkpt lat="58.381325817409" lon="15.620331562815">
        <ele>19.8</ele>
        <time>2019-08-22T16:32:49Z</time>
      </trkpt>
      <trkpt lat="58.381443750742" lon="15.620146406644">
        <ele>19.6</ele>
        <time>2019-08-22T16:32:54Z</time>
      </trkpt>
      <trkpt lat="58.381467052424" lon="15.620051858812">
        <ele>20</ele>
        <time>2019-08-22T16:32:56Z</time>
      </trkpt>
      <trkpt lat="58.381485408785" lon="15.619954125858">
        <ele>20.2</ele>
        <time>2019-08-22T16:32:58Z</time>
      </trkpt>
      <trkpt lat="58.381492868676" lon="15.619822949123">
        <ele>20.4</ele>
        <time>2019-08-22T16:33:00Z</time>
      </trkpt>
      <trkpt lat="58.381505190069" lon="15.61967316457">
        <ele>20.8</ele>
        <time>2019-08-22T16:33:03Z</time>
      </trkpt>
      <trkpt lat="58.381508375191" lon="15.61962371136">
        <ele>20.8</ele>
        <time>2019-08-22T16:33:04Z</time>
      </trkpt>
      <trkpt lat="58.381517930557" lon="15.619403518847">
        <ele>21.6</ele>
        <time>2019-08-22T16:33:08Z</time>
      </trkpt>
      <trkpt lat="58.381522875878" lon="15.619349707049">
        <ele>21.6</ele>
        <time>2019-08-22T16:33:09Z</time>
      </trkpt>
      <trkpt lat="58.381541064601" lon="15.619062291698">
        <ele>22.6</ele>
        <time>2019-08-22T16:33:15Z</time>
      </trkpt>
      <trkpt lat="58.381545507008" lon="15.619025159881">
        <ele>22.8</ele>
        <time>2019-08-22T16:33:16Z</time>
      </trkpt>
      <trkpt lat="58.381544836456" lon="15.618787952111">
        <ele>23</ele>
        <time>2019-08-22T16:33:21Z</time>
      </trkpt>
      <trkpt lat="58.381528072656" lon="15.618570190349">
        <ele>23.6</ele>
        <time>2019-08-22T16:33:25Z</time>
      </trkpt>
      <trkpt lat="58.381520109851" lon="15.618473295585">
        <ele>23.6</ele>
        <time>2019-08-22T16:33:27Z</time>
      </trkpt>
      <trkpt lat="58.381502759318" lon="15.618192418116">
        <ele>23.6</ele>
        <time>2019-08-22T16:33:32Z</time>
      </trkpt>
      <trkpt lat="58.381444086018" lon="15.618001059339">
        <ele>24</ele>
        <time>2019-08-22T16:33:36Z</time>
      </trkpt>
      <trkpt lat="58.381368565099" lon="15.617786482699">
        <ele>24</ele>
        <time>2019-08-22T16:33:40Z</time>
      </trkpt>
      <trkpt lat="58.381285081375" lon="15.617518345718">
        <ele>23.8</ele>
        <time>2019-08-22T16:33:45Z</time>
      </trkpt>
      <trkpt lat="58.381167399499" lon="15.617195977844">
        <ele>23.4</ele>
        <time>2019-08-22T16:33:52Z</time>
      </trkpt>
      <trkpt lat="58.381098165005" lon="15.616946364862">
        <ele>23</ele>
        <time>2019-08-22T16:33:57Z</time>
      </trkpt>
      <trkpt lat="58.381039826981" lon="15.616698092984">
        <ele>23.4</ele>
        <time>2019-08-22T16:34:02Z</time>
      </trkpt>
      <trkpt lat="58.380998168938" lon="15.616547051146">
        <ele>23.8</ele>
        <time>2019-08-22T16:34:06Z</time>
      </trkpt>
      <trkpt lat="58.380937316344" lon="15.61628603878">
        <ele>23.8</ele>
        <time>2019-08-22T16:34:10Z</time>
      </trkpt>
      <trkpt lat="58.38087814013" lon="15.615946823287">
        <ele>23.8</ele>
        <time>2019-08-22T16:34:15Z</time>
      </trkpt>
      <trkpt lat="58.380823322504" lon="15.615648427647">
        <ele>24.4</ele>
        <time>2019-08-22T16:34:20Z</time>
      </trkpt>
      <trkpt lat="58.380775461855" lon="15.615352798034">
        <ele>23.8</ele>
        <time>2019-08-22T16:34:25Z</time>
      </trkpt>
      <trkpt lat="58.380754674743" lon="15.615029089056">
        <ele>24.2</ele>
        <time>2019-08-22T16:34:30Z</time>
      </trkpt>
      <trkpt lat="58.380701449678" lon="15.614815769701">
        <ele>24.2</ele>
        <time>2019-08-22T16:34:34Z</time>
      </trkpt>
      <trkpt lat="58.380610338425" lon="15.614539418458">
        <ele>24.2</ele>
        <time>2019-08-22T16:34:38Z</time>
      </trkpt>
      <trkpt lat="58.380541439207" lon="15.614395836511">
        <ele>24.6</ele>
        <time>2019-08-22T16:34:41Z</time>
      </trkpt>
      <trkpt lat="58.380518137525" lon="15.614332804623">
        <ele>24.8</ele>
        <time>2019-08-22T16:34:42Z</time>
      </trkpt>
      <trkpt lat="58.380422248589" lon="15.614135578516">
        <ele>25</ele>
        <time>2019-08-22T16:34:47Z</time>
      </trkpt>
      <trkpt lat="58.38031236188" lon="15.613957379322">
        <ele>25</ele>
        <time>2019-08-22T16:34:52Z</time>
      </trkpt>
      <trkpt lat="58.380209851243" lon="15.613823939474">
        <ele>25.2</ele>
        <time>2019-08-22T16:34:57Z</time>
      </trkpt>
      <trkpt lat="58.380110525728" lon="15.613614391974">
        <ele>25.4</ele>
        <time>2019-08-22T16:35:02Z</time>
      </trkpt>
      <trkpt lat="58.380026119995" lon="15.613432504744">
        <ele>25.6</ele>
        <time>2019-08-22T16:35:06Z</time>
      </trkpt>
      <trkpt lat="58.379950515257" lon="15.613217257552">
        <ele>25.4</ele>
        <time>2019-08-22T16:35:10Z</time>
      </trkpt>
      <trkpt lat="58.379902067875" lon="15.612984156913">
        <ele>25.4</ele>
        <time>2019-08-22T16:35:15Z</time>
      </trkpt>
      <trkpt lat="58.379871893035" lon="15.61271283481">
        <ele>25.4</ele>
        <time>2019-08-22T16:35:20Z</time>
      </trkpt>
      <trkpt lat="58.379839790358" lon="15.612311006524">
        <ele>25.4</ele>
        <time>2019-08-22T16:35:27Z</time>
      </trkpt>
      <trkpt lat="58.379851105923" lon="15.612099028273">
        <ele>25.6</ele>
        <time>2019-08-22T16:35:32Z</time>
      </trkpt>
      <trkpt lat="58.379855632149" lon="15.61194505277">
        <ele>25.6</ele>
        <time>2019-08-22T16:35:35Z</time>
      </trkpt>
      <trkpt lat="58.379857308529" lon="15.611907669496">
        <ele>25.8</ele>
        <time>2019-08-22T16:35:36Z</time>
      </trkpt>
      <trkpt lat="58.379882286591" lon="15.611676161418">
        <ele>26.2</ele>
        <time>2019-08-22T16:35:41Z</time>
      </trkpt>
      <trkpt lat="58.379889830301" lon="15.611439959476">
        <ele>26.2</ele>
        <time>2019-08-22T16:35:46Z</time>
      </trkpt>
      <trkpt lat="58.379900978228" lon="15.611206104466">
        <ele>25.8</ele>
        <time>2019-08-22T16:35:50Z</time>
      </trkpt>
      <trkpt lat="58.379879688202" lon="15.610942242254">
        <ele>26</ele>
        <time>2019-08-22T16:35:55Z</time>
      </trkpt>
      <trkpt lat="58.379847250249" lon="15.610677206576">
        <ele>25.8</ele>
        <time>2019-08-22T16:36:00Z</time>
      </trkpt>
      <trkpt lat="58.379787571121" lon="15.610376128728">
        <ele>26</ele>
        <time>2019-08-22T16:36:05Z</time>
      </trkpt>
      <trkpt lat="58.379733759323" lon="15.61021251404">
        <ele>26</ele>
        <time>2019-08-22T16:36:09Z</time>
      </trkpt>
      <trkpt lat="58.379721605568" lon="15.610181333372">
        <ele>26</ele>
        <time>2019-08-22T16:36:10Z</time>
      </trkpt>
      <trkpt lat="58.379648431581" lon="15.610115703095">
        <ele>26.2</ele>
        <time>2019-08-22T16:36:13Z</time>
      </trkpt>
      <trkpt lat="58.379619765483" lon="15.610103130245">
        <ele>26</ele>
        <time>2019-08-22T16:36:14Z</time>
      </trkpt>
      <trkpt lat="58.379572826843" lon="15.6100985202">
        <ele>25.6</ele>
        <time>2019-08-22T16:36:16Z</time>
      </trkpt>
      <trkpt lat="58.379548184057" lon="15.610108829937">
        <ele>25.2</ele>
        <time>2019-08-22T16:36:18Z</time>
      </trkpt>
      <trkpt lat="58.379427736154" lon="15.61016389902">
        <ele>25</ele>
        <time>2019-08-22T16:36:23Z</time>
      </trkpt>
      <trkpt lat="58.379339558566" lon="15.610229194021">
        <ele>24.6</ele>
        <time>2019-08-22T16:36:28Z</time>
      </trkpt>
      <trkpt lat="58.379260936344" lon="15.61024436526">
        <ele>24.4</ele>
        <time>2019-08-22T16:36:32Z</time>
      </trkpt>
      <trkpt lat="58.379238053757" lon="15.61024604164">
        <ele>24.4</ele>
        <time>2019-08-22T16:36:33Z</time>
      </trkpt>
      <trkpt lat="58.379126825944" lon="15.610219135741">
        <ele>23.8</ele>
        <time>2019-08-22T16:36:37Z</time>
      </trkpt>
      <trkpt lat="58.378975113554" lon="15.610244784355">
        <ele>23.8</ele>
        <time>2019-08-22T16:36:43Z</time>
      </trkpt>
      <trkpt lat="58.378950219311" lon="15.610275881204">
        <ele>23.6</ele>
        <time>2019-08-22T16:36:44Z</time>
      </trkpt>
      <trkpt lat="58.378837650394" lon="15.610357269453">
        <ele>23.4</ele>
        <time>2019-08-22T16:36:48Z</time>
      </trkpt>
      <trkpt lat="58.378786688442" lon="15.61041367964">
        <ele>23.6</ele>
        <time>2019-08-22T16:36:50Z</time>
      </trkpt>
      <trkpt lat="58.378744695123" lon="15.610456930244">
        <ele>23.6</ele>
        <time>2019-08-22T16:36:52Z</time>
      </trkpt>
      <trkpt lat="58.378676801733" lon="15.610508311291">
        <ele>23.6</ele>
        <time>2019-08-22T16:36:56Z</time>
      </trkpt>
      <trkpt lat="58.378668419833" lon="15.610516525553">
        <ele>23.4</ele>
        <time>2019-08-22T16:36:57Z</time>
      </trkpt>
      <trkpt lat="58.378639586097" lon="15.610620125837">
        <ele>23.2</ele>
        <time>2019-08-22T16:37:02Z</time>
      </trkpt>
      <trkpt lat="58.378586277213" lon="15.6107355446">
        <ele>24</ele>
        <time>2019-08-22T16:37:06Z</time>
      </trkpt>
      <trkpt lat="58.378533974157" lon="15.610895806528">
        <ele>24</ele>
        <time>2019-08-22T16:37:10Z</time>
      </trkpt>
      <trkpt lat="58.378424674181" lon="15.611049111479">
        <ele>24.2</ele>
        <time>2019-08-22T16:37:15Z</time>
      </trkpt>
      <trkpt lat="58.37838955402" lon="15.611131002642">
        <ele>24.6</ele>
        <time>2019-08-22T16:37:17Z</time>
      </trkpt>
      <trkpt lat="58.378350578185" lon="15.611204847181">
        <ele>24.6</ele>
        <time>2019-08-22T16:37:20Z</time>
      </trkpt>
      <trkpt lat="58.378347057787" lon="15.61120996014">
        <ele>24.6</ele>
        <time>2019-08-22T16:37:21Z</time>
      </trkpt>
      <trkpt lat="58.378345213769" lon="15.611237368953">
        <ele>24.4</ele>
        <time>2019-08-22T16:37:25Z</time>
      </trkpt>
      <trkpt lat="58.378346890149" lon="15.611263855757">
        <ele>24.4</ele>
        <time>2019-08-22T16:37:26Z</time>
      </trkpt>
      <trkpt lat="58.378346219597" lon="15.611241895179">
        <ele>24.2</ele>
        <time>2019-08-22T16:37:29Z</time>
      </trkpt>
      <trkpt lat="58.378270782497" lon="15.611187580467">
        <ele>25.2</ele>
        <time>2019-08-22T16:37:34Z</time>
      </trkpt>
      <trkpt lat="58.378186879678" lon="15.611167463907">
        <ele>25.8</ele>
        <time>2019-08-22T16:37:37Z</time>
      </trkpt>
      <trkpt lat="58.378175899389" lon="15.611165619889">
        <ele>25.8</ele>
        <time>2019-08-22T16:37:38Z</time>
      </trkpt>
      <trkpt lat="58.378134241346" lon="15.611184479164">
        <ele>26</ele>
        <time>2019-08-22T16:37:42Z</time>
      </trkpt>
      <trkpt lat="58.378130972405" lon="15.611162099491">
        <ele>26.6</ele>
        <time>2019-08-22T16:37:48Z</time>
      </trkpt>
      <trkpt lat="58.378130804767" lon="15.611156148342">
        <ele>26.6</ele>
        <time>2019-08-22T16:37:50Z</time>
      </trkpt>
      <trkpt lat="58.378120159754" lon="15.611170732848">
        <ele>26.8</ele>
        <time>2019-08-22T16:37:53Z</time>
      </trkpt>
      <trkpt lat="58.378128960749" lon="15.611222113895">
        <ele>27</ele>
        <time>2019-08-22T16:37:55Z</time>
      </trkpt>
      <trkpt lat="58.378120997944" lon="15.611295120244">
        <ele>26.8</ele>
        <time>2019-08-22T16:38:00Z</time>
      </trkpt>
      <trkpt lat="58.378085877783" lon="15.611390590085">
        <ele>26.4</ele>
        <time>2019-08-22T16:38:05Z</time>
      </trkpt>
      <trkpt lat="58.378079507539" lon="15.611404923134">
        <ele>26.2</ele>
        <time>2019-08-22T16:38:06Z</time>
      </trkpt>
      <trkpt lat="58.378066599413" lon="15.611440713847">
        <ele>26.2</ele>
        <time>2019-08-22T16:38:09Z</time>
      </trkpt>
      <trkpt lat="58.378049332699" lon="15.611538698258">
        <ele>26</ele>
        <time>2019-08-22T16:38:12Z</time>
      </trkpt>
      <trkpt lat="58.378042962455" lon="15.611622433439">
        <ele>26</ele>
        <time>2019-08-22T16:38:14Z</time>
      </trkpt>
      <trkpt lat="58.378029216139" lon="15.611703318774">
        <ele>26.4</ele>
        <time>2019-08-22T16:38:17Z</time>
      </trkpt>
      <trkpt lat="58.377969034097" lon="15.611840614296">
        <ele>25.6</ele>
        <time>2019-08-22T16:38:21Z</time>
      </trkpt>
      <trkpt lat="58.377950174822" lon="15.611851929861">
        <ele>25.6</ele>
        <time>2019-08-22T16:38:22Z</time>
      </trkpt>
      <trkpt lat="58.377862667786" lon="15.611954440498">
        <ele>25.4</ele>
        <time>2019-08-22T16:38:28Z</time>
      </trkpt>
      <trkpt lat="58.377829978376" lon="15.612030715788">
        <ele>25.8</ele>
        <time>2019-08-22T16:38:30Z</time>
      </trkpt>
      <trkpt lat="58.377780441347" lon="15.6121101762">
        <ele>26</ele>
        <time>2019-08-22T16:38:33Z</time>
      </trkpt>
      <trkpt lat="58.377749260679" lon="15.612107493992">
        <ele>26.2</ele>
        <time>2019-08-22T16:38:34Z</time>
      </trkpt>
      <trkpt lat="58.377686480248" lon="15.612139680488">
        <ele>26</ele>
        <time>2019-08-22T16:38:37Z</time>
      </trkpt>
      <trkpt lat="58.377583969611" lon="15.612235988519">
        <ele>25.6</ele>
        <time>2019-08-22T16:38:42Z</time>
      </trkpt>
      <trkpt lat="58.377510627986" lon="15.612243532229">
        <ele>25.4</ele>
        <time>2019-08-22T16:38:46Z</time>
      </trkpt>
      <trkpt lat="58.377500653525" lon="15.612251997948">
        <ele>25.4</ele>
        <time>2019-08-22T16:38:47Z</time>
      </trkpt>
      <trkpt lat="58.377489421779" lon="15.612178488685">
        <ele>25.2</ele>
        <time>2019-08-22T16:38:53Z</time>
      </trkpt>
      <trkpt lat="58.377476010739" lon="15.612011437418">
        <ele>25.8</ele>
        <time>2019-08-22T16:38:57Z</time>
      </trkpt>
      <trkpt lat="58.377454301618" lon="15.611963828226">
        <ele>26.2</ele>
        <time>2019-08-22T16:38:59Z</time>
      </trkpt>
      <trkpt lat="58.377429742651" lon="15.611949159901">
        <ele>26.6</ele>
        <time>2019-08-22T16:39:01Z</time>
      </trkpt>
      <trkpt lat="58.377430413203" lon="15.611958631448">
        <ele>27.2</ele>
        <time>2019-08-22T16:39:02Z</time>
      </trkpt>
      <trkpt lat="58.377416666887" lon="15.611952680299">
        <ele>27.2</ele>
        <time>2019-08-22T16:39:03Z</time>
      </trkpt>
      <trkpt lat="58.377411889204" lon="15.611945388046">
        <ele>27.4</ele>
        <time>2019-08-22T16:39:06Z</time>
      </trkpt>
      <trkpt lat="58.377386072952" lon="15.611937592879">
        <ele>27.4</ele>
        <time>2019-08-22T16:39:08Z</time>
      </trkpt>
      <trkpt lat="58.377358999415" lon="15.611956619792">
        <ele>27.6</ele>
        <time>2019-08-22T16:39:10Z</time>
      </trkpt>
      <trkpt lat="58.377339050493" lon="15.611979837655">
        <ele>28.2</ele>
        <time>2019-08-22T16:39:13Z</time>
      </trkpt>
      <trkpt lat="58.377323292521" lon="15.611981849311">
        <ele>28.2</ele>
        <time>2019-08-22T16:39:14Z</time>
      </trkpt>
      <trkpt lat="58.377307115454" lon="15.611972629221">
        <ele>28.2</ele>
        <time>2019-08-22T16:39:15Z</time>
      </trkpt>
      <trkpt lat="58.377236958951" lon="15.611866095272">
        <ele>28.6</ele>
        <time>2019-08-22T16:39:20Z</time>
      </trkpt>
      <trkpt lat="58.377187757198" lon="15.611895348103">
        <ele>29</ele>
        <time>2019-08-22T16:39:24Z</time>
      </trkpt>
      <trkpt lat="58.377174010882" lon="15.611886128013">
        <ele>28.8</ele>
        <time>2019-08-22T16:39:27Z</time>
      </trkpt>
      <trkpt lat="58.377164623154" lon="15.6118671011">
        <ele>28.8</ele>
        <time>2019-08-22T16:39:29Z</time>
      </trkpt>
      <trkpt lat="58.377126485509" lon="15.611820749193">
        <ele>29</ele>
        <time>2019-08-22T16:39:32Z</time>
      </trkpt>
      <trkpt lat="58.377119444713" lon="15.611811696741">
        <ele>29.2</ele>
        <time>2019-08-22T16:39:33Z</time>
      </trkpt>
      <trkpt lat="58.377123803301" lon="15.61178579667">
        <ele>29.4</ele>
        <time>2019-08-22T16:39:34Z</time>
      </trkpt>
      <trkpt lat="58.377123384206" lon="15.611758890771">
        <ele>29.4</ele>
        <time>2019-08-22T16:39:35Z</time>
      </trkpt>
      <trkpt lat="58.377097316497" lon="15.611687644621">
        <ele>29.8</ele>
        <time>2019-08-22T16:39:39Z</time>
      </trkpt>
      <trkpt lat="58.377102261818" lon="15.611622936353">
        <ele>29.8</ele>
        <time>2019-08-22T16:39:43Z</time>
      </trkpt>
      <trkpt lat="58.377080468878" lon="15.6115988803">
        <ele>30.4</ele>
        <time>2019-08-22T16:39:48Z</time>
      </trkpt>
      <trkpt lat="58.377079714507" lon="15.611597706834">
        <ele>30.8</ele>
        <time>2019-08-22T16:39:50Z</time>
      </trkpt>
      <trkpt lat="58.377084576009" lon="15.611610950236">
        <ele>31</ele>
        <time>2019-08-22T16:39:57Z</time>
      </trkpt>
      <trkpt lat="58.377076613204" lon="15.611556803162">
        <ele>31</ele>
        <time>2019-08-22T16:40:07Z</time>
      </trkpt>
      <trkpt lat="58.377075523557" lon="15.611553198945">
        <ele>30.6</ele>
        <time>2019-08-22T16:40:11Z</time>
      </trkpt>
      <trkpt lat="58.377033614057" lon="15.61139855289">
        <ele>30.4</ele>
        <time>2019-08-22T16:40:15Z</time>
      </trkpt>
      <trkpt lat="58.376978796431" lon="15.611252372554">
        <ele>31</ele>
        <time>2019-08-22T16:40:21Z</time>
      </trkpt>
      <trkpt lat="58.37697217473" lon="15.611237285134">
        <ele>30.8</ele>
        <time>2019-08-22T16:40:22Z</time>
      </trkpt>
      <trkpt lat="58.376965301572" lon="15.611246337586">
        <ele>30.8</ele>
        <time>2019-08-22T16:40:23Z</time>
      </trkpt>
      <trkpt lat="58.376960607708" lon="15.611247846328">
        <ele>31</ele>
        <time>2019-08-22T16:40:25Z</time>
      </trkpt>
      <trkpt lat="58.376962367907" lon="15.611221946257">
        <ele>30.8</ele>
        <time>2019-08-22T16:40:27Z</time>
      </trkpt>
      <trkpt lat="58.376938814768" lon="15.611212642348">
        <ele>30.4</ele>
        <time>2019-08-22T16:40:30Z</time>
      </trkpt>
      <trkpt lat="58.376932612162" lon="15.611212307072">
        <ele>30.4</ele>
        <time>2019-08-22T16:40:31Z</time>
      </trkpt>
      <trkpt lat="58.376850469542" lon="15.611167715364">
        <ele>30.8</ele>
        <time>2019-08-22T16:40:35Z</time>
      </trkpt>
      <trkpt lat="58.376750641113" lon="15.611152041211">
        <ele>31</ele>
        <time>2019-08-22T16:40:39Z</time>
      </trkpt>
      <trkpt lat="58.376670845425" lon="15.611138965447">
        <ele>30.6</ele>
        <time>2019-08-22T16:40:44Z</time>
      </trkpt>
      <trkpt lat="58.376653411073" lon="15.611149191365">
        <ele>30.4</ele>
        <time>2019-08-22T16:40:47Z</time>
      </trkpt>
      <trkpt lat="58.376627846278" lon="15.61112446476">
        <ele>30.2</ele>
        <time>2019-08-22T16:40:49Z</time>
      </trkpt>
      <trkpt lat="58.376614854333" lon="15.611131337918">
        <ele>30</ele>
        <time>2019-08-22T16:40:50Z</time>
      </trkpt>
      <trkpt lat="58.376576968145" lon="15.611037125362">
        <ele>30.2</ele>
        <time>2019-08-22T16:40:53Z</time>
      </trkpt>
      <trkpt lat="58.376529442772" lon="15.610930423775">
        <ele>29.8</ele>
        <time>2019-08-22T16:40:57Z</time>
      </trkpt>
      <trkpt lat="58.3765220667" lon="15.610923634436">
        <ele>29.4</ele>
        <time>2019-08-22T16:40:59Z</time>
      </trkpt>
      <trkpt lat="58.376530197143" lon="15.610905278075">
        <ele>28.8</ele>
        <time>2019-08-22T16:41:01Z</time>
      </trkpt>
      <trkpt lat="58.376529191315" lon="15.61088222785">
        <ele>28.4</ele>
        <time>2019-08-22T16:41:08Z</time>
      </trkpt>
      <trkpt lat="58.376520725596" lon="15.61088474242">
        <ele>28.4</ele>
        <time>2019-08-22T16:41:10Z</time>
      </trkpt>
      <trkpt lat="58.376509996764" lon="15.610903350238">
        <ele>28.2</ele>
        <time>2019-08-22T16:41:14Z</time>
      </trkpt>
      <trkpt lat="58.376497004819" lon="15.610891196483">
        <ele>28</ele>
        <time>2019-08-22T16:41:19Z</time>
      </trkpt>
      <trkpt lat="58.37649524462" lon="15.610919275848">
        <ele>28.2</ele>
        <time>2019-08-22T16:41:25Z</time>
      </trkpt>
      <trkpt lat="58.376454424767" lon="15.610969986343">
        <ele>28.2</ele>
        <time>2019-08-22T16:41:30Z</time>
      </trkpt>
      <trkpt lat="58.37631754834" lon="15.6109618559">
        <ele>28.4</ele>
        <time>2019-08-22T16:41:35Z</time>
      </trkpt>
      <trkpt lat="58.376223754879" lon="15.61082355455">
        <ele>27.6</ele>
        <time>2019-08-22T16:41:39Z</time>
      </trkpt>
      <trkpt lat="58.376185365777" lon="15.610795726642">
        <ele>27.2</ele>
        <time>2019-08-22T16:41:41Z</time>
      </trkpt>
      <trkpt lat="58.376170445995" lon="15.610761193214">
        <ele>27.2</ele>
        <time>2019-08-22T16:41:42Z</time>
      </trkpt>
      <trkpt lat="58.376153849833" lon="15.610666310106">
        <ele>26.8</ele>
        <time>2019-08-22T16:41:44Z</time>
      </trkpt>
      <trkpt lat="58.376145048838" lon="15.610537145027">
        <ele>26.4</ele>
        <time>2019-08-22T16:41:47Z</time>
      </trkpt>
      <trkpt lat="58.376131553979" lon="15.61049666045">
        <ele>26</ele>
        <time>2019-08-22T16:41:48Z</time>
      </trkpt>
      <trkpt lat="58.376118562034" lon="15.61046983837">
        <ele>26</ele>
        <time>2019-08-22T16:41:49Z</time>
      </trkpt>
      <trkpt lat="58.376089476841" lon="15.610396748202">
        <ele>25.4</ele>
        <time>2019-08-22T16:41:52Z</time>
      </trkpt>
      <trkpt lat="58.376080089113" lon="15.610392557252">
        <ele>25.2</ele>
        <time>2019-08-22T16:41:53Z</time>
      </trkpt>
      <trkpt lat="58.376063995865" lon="15.61040110679">
        <ele>24.8</ele>
        <time>2019-08-22T16:41:54Z</time>
      </trkpt>
      <trkpt lat="58.375986295652" lon="15.610310330813">
        <ele>24.2</ele>
        <time>2019-08-22T16:41:57Z</time>
      </trkpt>
      <trkpt lat="58.375878252961" lon="15.610254842635">
        <ele>24.2</ele>
        <time>2019-08-22T16:42:01Z</time>
      </trkpt>
      <trkpt lat="58.375832320149" lon="15.610212262583">
        <ele>23.8</ele>
        <time>2019-08-22T16:42:03Z</time>
      </trkpt>
      <trkpt lat="58.375820334032" lon="15.61021335223">
        <ele>23.6</ele>
        <time>2019-08-22T16:42:05Z</time>
      </trkpt>
      <trkpt lat="58.375817484186" lon="15.610173202929">
        <ele>23</ele>
        <time>2019-08-22T16:42:08Z</time>
      </trkpt>
      <trkpt lat="58.375812706503" lon="15.610136071112">
        <ele>22.8</ele>
        <time>2019-08-22T16:42:09Z</time>
      </trkpt>
      <trkpt lat="58.375797786721" lon="15.610041188004">
        <ele>22.8</ele>
        <time>2019-08-22T16:42:13Z</time>
      </trkpt>
      <trkpt lat="58.375815723987" lon="15.610087791368">
        <ele>23.2</ele>
        <time>2019-08-22T16:42:18Z</time>
      </trkpt>
      <trkpt lat="58.375802732042" lon="15.610105980091">
        <ele>23</ele>
        <time>2019-08-22T16:42:23Z</time>
      </trkpt>
      <trkpt lat="58.375762582741" lon="15.610112685611">
        <ele>22.8</ele>
        <time>2019-08-22T16:42:28Z</time>
      </trkpt>
      <trkpt lat="58.375668202547" lon="15.610202204303">
        <ele>23.2</ele>
        <time>2019-08-22T16:42:32Z</time>
      </trkpt>
      <trkpt lat="58.375513305035" lon="15.610277306127">
        <ele>23.2</ele>
        <time>2019-08-22T16:42:37Z</time>
      </trkpt>
      <trkpt lat="58.375380032825" lon="15.610331117925">
        <ele>23</ele>
        <time>2019-08-22T16:42:42Z</time>
      </trkpt>
      <trkpt lat="58.37525388523" lon="15.610372943606">
        <ele>22.8</ele>
        <time>2019-08-22T16:42:47Z</time>
      </trkpt>
      <trkpt lat="58.375163779805" lon="15.61044385448">
        <ele>22.2</ele>
        <time>2019-08-22T16:42:54Z</time>
      </trkpt>
      <trkpt lat="58.375147938014" lon="15.610451062914">
        <ele>22</ele>
        <time>2019-08-22T16:43:00Z</time>
      </trkpt>
      <trkpt lat="58.375122959952" lon="15.610446704326">
        <ele>21.8</ele>
        <time>2019-08-22T16:43:09Z</time>
      </trkpt>
      <trkpt lat="58.375133102051" lon="15.610474532234">
        <ele>22</ele>
        <time>2019-08-22T16:43:18Z</time>
      </trkpt>
      <trkpt lat="58.375164953271" lon="15.610454331855">
        <ele>21.8</ele>
        <time>2019-08-22T16:43:23Z</time>
      </trkpt>
      <trkpt lat="58.375296130006" lon="15.610431113992">
        <ele>21.8</ele>
        <time>2019-08-22T16:43:27Z</time>
      </trkpt>
      <trkpt lat="58.375437113564" lon="15.610371937778">
        <ele>22.6</ele>
        <time>2019-08-22T16:43:32Z</time>
      </trkpt>
      <trkpt lat="58.375560411313" lon="15.610301278361">
        <ele>22.6</ele>
        <time>2019-08-22T16:43:37Z</time>
      </trkpt>
      <trkpt lat="58.375683541424" lon="15.610254088264">
        <ele>23</ele>
        <time>2019-08-22T16:43:42Z</time>
      </trkpt>
      <trkpt lat="58.375823435335" lon="15.610283676371">
        <ele>23</ele>
        <time>2019-08-22T16:43:48Z</time>
      </trkpt>
      <trkpt lat="58.375828129199" lon="15.61027202553">
        <ele>23.2</ele>
        <time>2019-08-22T16:43:50Z</time>
      </trkpt>
      <trkpt lat="58.375865512473" lon="15.610271941711">
        <ele>22.8</ele>
        <time>2019-08-22T16:43:52Z</time>
      </trkpt>
      <trkpt lat="58.376003059452" lon="15.610312510107">
        <ele>23.4</ele>
        <time>2019-08-22T16:43:57Z</time>
      </trkpt>
      <trkpt lat="58.376057541802" lon="15.61038601937">
        <ele>23.8</ele>
        <time>2019-08-22T16:43:59Z</time>
      </trkpt>
      <trkpt lat="58.376052764119" lon="15.610365232258">
        <ele>23.8</ele>
        <time>2019-08-22T16:44:01Z</time>
      </trkpt>
      <trkpt lat="58.376059804915" lon="15.610398676039">
        <ele>24.2</ele>
        <time>2019-08-22T16:44:02Z</time>
      </trkpt>
      <trkpt lat="58.376085956443" lon="15.610457516977">
        <ele>24.4</ele>
        <time>2019-08-22T16:44:05Z</time>
      </trkpt>
      <trkpt lat="58.376110347772" lon="15.610523901625">
        <ele>24.8</ele>
        <time>2019-08-22T16:44:08Z</time>
      </trkpt>
      <trkpt lat="58.376105653908" lon="15.610509987671">
        <ele>25</ele>
        <time>2019-08-22T16:44:09Z</time>
      </trkpt>
      <trkpt lat="58.37610045713" lon="15.610539072864">
        <ele>25</ele>
        <time>2019-08-22T16:44:10Z</time>
      </trkpt>
      <trkpt lat="58.376129877599" lon="15.610668070305">
        <ele>25.4</ele>
        <time>2019-08-22T16:44:14Z</time>
      </trkpt>
      <trkpt lat="58.376160052439" lon="15.610701094991">
        <ele>25.8</ele>
        <time>2019-08-22T16:44:16Z</time>
      </trkpt>
      <trkpt lat="58.376179414628" lon="15.610727749433">
        <ele>26.2</ele>
        <time>2019-08-22T16:44:17Z</time>
      </trkpt>
      <trkpt lat="58.376212942228" lon="15.610801593972">
        <ele>26.8</ele>
        <time>2019-08-22T16:44:19Z</time>
      </trkpt>
      <trkpt lat="58.376260970515" lon="15.610891783216">
        <ele>27.4</ele>
        <time>2019-08-22T16:44:22Z</time>
      </trkpt>
      <trkpt lat="58.376269520053" lon="15.610919694943">
        <ele>27.4</ele>
        <time>2019-08-22T16:44:23Z</time>
      </trkpt>
      <trkpt lat="58.376306148956" lon="15.61100879454">
        <ele>27.6</ele>
        <time>2019-08-22T16:44:25Z</time>
      </trkpt>
      <trkpt lat="58.376354512519" lon="15.611149778098">
        <ele>28</ele>
        <time>2019-08-22T16:44:29Z</time>
      </trkpt>
      <trkpt lat="58.376378317115" lon="15.611278104987">
        <ele>28.2</ele>
        <time>2019-08-22T16:44:32Z</time>
      </trkpt>
      <trkpt lat="58.376381334599" lon="15.61131221932">
        <ele>28.4</ele>
        <time>2019-08-22T16:44:33Z</time>
      </trkpt>
      <trkpt lat="58.376380328771" lon="15.611342310341">
        <ele>28.4</ele>
        <time>2019-08-22T16:44:34Z</time>
      </trkpt>
      <trkpt lat="58.376426764497" lon="15.611576416808">
        <ele>28.6</ele>
        <time>2019-08-22T16:44:39Z</time>
      </trkpt>
      <trkpt lat="58.376452161654" lon="15.611716813633">
        <ele>28.6</ele>
        <time>2019-08-22T16:44:42Z</time>
      </trkpt>
      <trkpt lat="58.376446461962" lon="15.611768027042">
        <ele>28.8</ele>
        <time>2019-08-22T16:44:43Z</time>
      </trkpt>
      <trkpt lat="58.376413604914" lon="15.612002552604">
        <ele>28.6</ele>
        <time>2019-08-22T16:44:49Z</time>
      </trkpt>
      <trkpt lat="58.376415281294" lon="15.612062650827">
        <ele>28.4</ele>
        <time>2019-08-22T16:44:54Z</time>
      </trkpt>
      <trkpt lat="58.376431123085" lon="15.612081426283">
        <ele>28</ele>
        <time>2019-08-22T16:44:55Z</time>
      </trkpt>
      <trkpt lat="58.376450401455" lon="15.612104392689">
        <ele>28</ele>
        <time>2019-08-22T16:44:59Z</time>
      </trkpt>
      <trkpt lat="58.376455598233" lon="15.612104811784">
        <ele>28</ele>
        <time>2019-08-22T16:45:00Z</time>
      </trkpt>
      <trkpt lat="58.376514103895" lon="15.612196006856">
        <ele>28.4</ele>
        <time>2019-08-22T16:45:04Z</time>
      </trkpt>
      <trkpt lat="58.376587194063" lon="15.612305558289">
        <ele>28.4</ele>
        <time>2019-08-22T16:45:10Z</time>
      </trkpt>
      <trkpt lat="58.376660619507" lon="15.612344953219">
        <ele>27.8</ele>
        <time>2019-08-22T16:45:14Z</time>
      </trkpt>
      <trkpt lat="58.376696494039" lon="15.612343528296">
        <ele>27.2</ele>
        <time>2019-08-22T16:45:16Z</time>
      </trkpt>
      <trkpt lat="58.376730189277" lon="15.612396082809">
        <ele>26.8</ele>
        <time>2019-08-22T16:45:18Z</time>
      </trkpt>
      <trkpt lat="58.376738403539" lon="15.612360711191">
        <ele>26.4</ele>
        <time>2019-08-22T16:45:21Z</time>
      </trkpt>
      <trkpt lat="58.376739409367" lon="15.612347719246">
        <ele>26.4</ele>
        <time>2019-08-22T16:45:22Z</time>
      </trkpt>
      <trkpt lat="58.376759693565" lon="15.612355933508">
        <ele>26.4</ele>
        <time>2019-08-22T16:45:24Z</time>
      </trkpt>
      <trkpt lat="58.376809733508" lon="15.612345288495">
        <ele>26.6</ele>
        <time>2019-08-22T16:45:27Z</time>
      </trkpt>
      <trkpt lat="58.376867065704" lon="15.612282172788">
        <ele>27</ele>
        <time>2019-08-22T16:45:31Z</time>
      </trkpt>
      <trkpt lat="58.376938144216" lon="15.612232803397">
        <ele>27</ele>
        <time>2019-08-22T16:45:34Z</time>
      </trkpt>
      <trkpt lat="58.376965720667" lon="15.612200449263">
        <ele>27</ele>
        <time>2019-08-22T16:45:35Z</time>
      </trkpt>
      <trkpt lat="58.377060436137" lon="15.612228025714">
        <ele>27.4</ele>
        <time>2019-08-22T16:45:39Z</time>
      </trkpt>
      <trkpt lat="58.377158336729" lon="15.612244118962">
        <ele>26.8</ele>
        <time>2019-08-22T16:45:44Z</time>
      </trkpt>
      <trkpt lat="58.377223799368" lon="15.612291644335">
        <ele>27</ele>
        <time>2019-08-22T16:45:47Z</time>
      </trkpt>
      <trkpt lat="58.377254393303" lon="15.612295248552">
        <ele>26.6</ele>
        <time>2019-08-22T16:45:49Z</time>
      </trkpt>
      <trkpt lat="58.377255566769" lon="15.612278736209">
        <ele>26.4</ele>
        <time>2019-08-22T16:45:51Z</time>
      </trkpt>
      <trkpt lat="58.3772596739" lon="15.612264570798">
        <ele>25.8</ele>
        <time>2019-08-22T16:45:52Z</time>
      </trkpt>
      <trkpt lat="58.377255818226" lon="15.612247471722">
        <ele>25.8</ele>
        <time>2019-08-22T16:45:53Z</time>
      </trkpt>
      <trkpt lat="58.377230840164" lon="15.612108080725">
        <ele>25.6</ele>
        <time>2019-08-22T16:45:58Z</time>
      </trkpt>
      <trkpt lat="58.37720602974" lon="15.612166418749">
        <ele>25.8</ele>
        <time>2019-08-22T16:46:02Z</time>
      </trkpt>
      <trkpt lat="58.377194630356" lon="15.612281250779">
        <ele>25.6</ele>
        <time>2019-08-22T16:46:04Z</time>
      </trkpt>
      <trkpt lat="58.377179710574" lon="15.612315365112">
        <ele>25.6</ele>
        <time>2019-08-22T16:46:05Z</time>
      </trkpt>
      <trkpt lat="58.377176860728" lon="15.612355095318">
        <ele>25.8</ele>
        <time>2019-08-22T16:46:06Z</time>
      </trkpt>
      <trkpt lat="58.377146434431" lon="15.612478560705">
        <ele>26</ele>
        <time>2019-08-22T16:46:10Z</time>
      </trkpt>
      <trkpt lat="58.377130508821" lon="15.612497336161">
        <ele>25.8</ele>
        <time>2019-08-22T16:46:11Z</time>
      </trkpt>
      <trkpt lat="58.377069991503" lon="15.612699842865">
        <ele>25.8</ele>
        <time>2019-08-22T16:46:17Z</time>
      </trkpt>
      <trkpt lat="58.377057921567" lon="15.61284275426">
        <ele>25.6</ele>
        <time>2019-08-22T16:46:20Z</time>
      </trkpt>
      <trkpt lat="58.377058256843" lon="15.612946941277">
        <ele>25.4</ele>
        <time>2019-08-22T16:46:22Z</time>
      </trkpt>
      <trkpt lat="58.377065716734" lon="15.613150453809">
        <ele>25.6</ele>
        <time>2019-08-22T16:46:26Z</time>
      </trkpt>
      <trkpt lat="58.377058005386" lon="15.613170654188">
        <ele>25.8</ele>
        <time>2019-08-22T16:46:30Z</time>
      </trkpt>
      <trkpt lat="58.377021879397" lon="15.613175767147">
        <ele>25.8</ele>
        <time>2019-08-22T16:46:34Z</time>
      </trkpt>
      <trkpt lat="58.377039984301" lon="15.613198649734">
        <ele>25.6</ele>
        <time>2019-08-22T16:46:35Z</time>
      </trkpt>
      <trkpt lat="58.377086587665" lon="15.613220694131">
        <ele>26</ele>
        <time>2019-08-22T16:46:37Z</time>
      </trkpt>
      <trkpt lat="58.377104105836" lon="15.613252377713">
        <ele>26</ele>
        <time>2019-08-22T16:46:38Z</time>
      </trkpt>
      <trkpt lat="58.377151715028" lon="15.613427559423">
        <ele>26</ele>
        <time>2019-08-22T16:46:43Z</time>
      </trkpt>
      <trkpt lat="58.377119109437" lon="15.613568459162">
        <ele>24.8</ele>
        <time>2019-08-22T16:46:47Z</time>
      </trkpt>
      <trkpt lat="58.377121121093" lon="15.613619588752">
        <ele>24</ele>
        <time>2019-08-22T16:46:48Z</time>
      </trkpt>
      <trkpt lat="58.377124809129" lon="15.613755291713">
        <ele>23.6</ele>
        <time>2019-08-22T16:46:51Z</time>
      </trkpt>
      <trkpt lat="58.377100166343" lon="15.61381924561">
        <ele>23.4</ele>
        <time>2019-08-22T16:46:53Z</time>
      </trkpt>
      <trkpt lat="58.37708030124" lon="15.613881104032">
        <ele>22.4</ele>
        <time>2019-08-22T16:46:55Z</time>
      </trkpt>
      <trkpt lat="58.377078708679" lon="15.613968946344">
        <ele>21.6</ele>
        <time>2019-08-22T16:46:58Z</time>
      </trkpt>
      <trkpt lat="58.377077702851" lon="15.613959307159">
        <ele>21.2</ele>
        <time>2019-08-22T16:47:00Z</time>
      </trkpt>
      <trkpt lat="58.377077367575" lon="15.614009598559">
        <ele>21</ele>
        <time>2019-08-22T16:47:01Z</time>
      </trkpt>
      <trkpt lat="58.377057418653" lon="15.614089729523">
        <ele>21.2</ele>
        <time>2019-08-22T16:47:03Z</time>
      </trkpt>
      <trkpt lat="58.377003271579" lon="15.61422660595">
        <ele>21.4</ele>
        <time>2019-08-22T16:47:07Z</time>
      </trkpt>
      <trkpt lat="58.377008887452" lon="15.614281758852">
        <ele>21.4</ele>
        <time>2019-08-22T16:47:10Z</time>
      </trkpt>
      <trkpt lat="58.377012324031" lon="15.61430958676">
        <ele>21.2</ele>
        <time>2019-08-22T16:47:12Z</time>
      </trkpt>
      <trkpt lat="58.377014754782" lon="15.614304054706">
        <ele>20.8</ele>
        <time>2019-08-22T16:47:16Z</time>
      </trkpt>
      <trkpt lat="58.377026154166" lon="15.614478482045">
        <ele>20.8</ele>
        <time>2019-08-22T16:47:20Z</time>
      </trkpt>
      <trkpt lat="58.3770668902" lon="15.614757934591">
        <ele>21.4</ele>
        <time>2019-08-22T16:47:25Z</time>
      </trkpt>
      <trkpt lat="58.377125814957" lon="15.615043589743">
        <ele>21</ele>
        <time>2019-08-22T16:47:30Z</time>
      </trkpt>
      <trkpt lat="58.377166215715" lon="15.615378195191">
        <ele>21</ele>
        <time>2019-08-22T16:47:36Z</time>
      </trkpt>
      <trkpt lat="58.377220949522" lon="15.615603584482">
        <ele>21.2</ele>
        <time>2019-08-22T16:47:41Z</time>
      </trkpt>
      <trkpt lat="58.377289932559" lon="15.615747669343">
        <ele>21.2</ele>
        <time>2019-08-22T16:47:45Z</time>
      </trkpt>
      <trkpt lat="58.377308456558" lon="15.615772647405">
        <ele>21.2</ele>
        <time>2019-08-22T16:47:46Z</time>
      </trkpt>
      <trkpt lat="58.37736444765" lon="15.615930897677">
        <ele>21.4</ele>
        <time>2019-08-22T16:47:51Z</time>
      </trkpt>
      <trkpt lat="58.377385653857" lon="15.616063415516">
        <ele>21</ele>
        <time>2019-08-22T16:47:57Z</time>
      </trkpt>
      <trkpt lat="58.377388838979" lon="15.61608571137">
        <ele>20.6</ele>
        <time>2019-08-22T16:48:03Z</time>
      </trkpt>
      <trkpt lat="58.37739462249" lon="15.61611085707">
        <ele>20.6</ele>
        <time>2019-08-22T16:48:08Z</time>
      </trkpt>
      <trkpt lat="58.377392275558" lon="15.616138852616">
        <ele>20.6</ele>
        <time>2019-08-22T16:48:14Z</time>
      </trkpt>
      <trkpt lat="58.377384145115" lon="15.616293331033">
        <ele>20.6</ele>
        <time>2019-08-22T16:48:20Z</time>
      </trkpt>
      <trkpt lat="58.377390934454" lon="15.616368265219">
        <ele>20.8</ele>
        <time>2019-08-22T16:48:24Z</time>
      </trkpt>
      <trkpt lat="58.377390096264" lon="15.616389219969">
        <ele>20.6</ele>
        <time>2019-08-22T16:48:31Z</time>
      </trkpt>
      <trkpt lat="58.377386911142" lon="15.616518552686">
        <ele>20.4</ele>
        <time>2019-08-22T16:48:36Z</time>
      </trkpt>
      <trkpt lat="58.377391102092" lon="15.616739918665">
        <ele>20.6</ele>
        <time>2019-08-22T16:48:40Z</time>
      </trkpt>
      <trkpt lat="58.377401495648" lon="15.616865730984">
        <ele>20.8</ele>
        <time>2019-08-22T16:48:44Z</time>
      </trkpt>
      <trkpt lat="58.377408787901" lon="15.616899342403">
        <ele>20.4</ele>
        <time>2019-08-22T16:48:46Z</time>
      </trkpt>
      <trkpt lat="58.377418427086" lon="15.616973438399">
        <ele>20.6</ele>
        <time>2019-08-22T16:48:50Z</time>
      </trkpt>
      <trkpt lat="58.377423623864" lon="15.617003613239">
        <ele>20.6</ele>
        <time>2019-08-22T16:48:51Z</time>
      </trkpt>
      <trkpt lat="58.377421360751" lon="15.617039487771">
        <ele>20.6</ele>
        <time>2019-08-22T16:48:52Z</time>
      </trkpt>
      <trkpt lat="58.377427479538" lon="15.617199330604">
        <ele>21</ele>
        <time>2019-08-22T16:48:55Z</time>
      </trkpt>
      <trkpt lat="58.377449859211" lon="15.617222632286">
        <ele>21</ele>
        <time>2019-08-22T16:48:56Z</time>
      </trkpt>
      <trkpt lat="58.377483135354" lon="15.617312067159">
        <ele>21</ele>
        <time>2019-08-22T16:48:58Z</time>
      </trkpt>
      <trkpt lat="58.377552034572" lon="15.617425641904">
        <ele>20.4</ele>
        <time>2019-08-22T16:49:02Z</time>
      </trkpt>
      <trkpt lat="58.377554213866" lon="15.617424636076">
        <ele>20.2</ele>
        <time>2019-08-22T16:49:03Z</time>
      </trkpt>
      <trkpt lat="58.377554884418" lon="15.617444752636">
        <ele>19.8</ele>
        <time>2019-08-22T16:49:07Z</time>
      </trkpt>
      <trkpt lat="58.377525883044" lon="15.617412817597">
        <ele>19.8</ele>
        <time>2019-08-22T16:49:14Z</time>
      </trkpt>
      <trkpt lat="58.377447344641" lon="15.617496217502">
        <ele>19.8</ele>
        <time>2019-08-22T16:49:18Z</time>
      </trkpt>
      <trkpt lat="58.377385653857" lon="15.617653042851">
        <ele>20.4</ele>
        <time>2019-08-22T16:49:22Z</time>
      </trkpt>
      <trkpt lat="58.377282891763" lon="15.617830655312">
        <ele>19.8</ele>
        <time>2019-08-22T16:49:27Z</time>
      </trkpt>
      <trkpt lat="58.377115840496" lon="15.618037436785">
        <ele>19.8</ele>
        <time>2019-08-22T16:49:33Z</time>
      </trkpt>
      <trkpt lat="58.377014000411" lon="15.618185796415">
        <ele>20.2</ele>
        <time>2019-08-22T16:49:38Z</time>
      </trkpt>
      <trkpt lat="58.376973599653" lon="15.618300544626">
        <ele>19.6</ele>
        <time>2019-08-22T16:49:43Z</time>
      </trkpt>
      <trkpt lat="58.376986172503" lon="15.618315715865">
        <ele>19.2</ele>
        <time>2019-08-22T16:49:48Z</time>
      </trkpt>
      <trkpt lat="58.376994554403" lon="15.618361145763">
        <ele>19.4</ele>
        <time>2019-08-22T16:49:50Z</time>
      </trkpt>
      <trkpt lat="58.376988603254" lon="15.618462482934">
        <ele>19.2</ele>
        <time>2019-08-22T16:49:52Z</time>
      </trkpt>
      <trkpt lat="58.377006456701" lon="15.618699690704">
        <ele>19.8</ele>
        <time>2019-08-22T16:49:56Z</time>
      </trkpt>
      <trkpt lat="58.376985753408" lon="15.618974617024">
        <ele>19.8</ele>
        <time>2019-08-22T16:50:01Z</time>
      </trkpt>
      <trkpt lat="58.376976449499" lon="15.619210651328">
        <ele>20</ele>
        <time>2019-08-22T16:50:06Z</time>
      </trkpt>
      <trkpt lat="58.377010312375" lon="15.619396813327">
        <ele>19.8</ele>
        <time>2019-08-22T16:50:11Z</time>
      </trkpt>
      <trkpt lat="58.377013329859" lon="15.619596134909">
        <ele>19.4</ele>
        <time>2019-08-22T16:50:16Z</time>
      </trkpt>
      <trkpt lat="58.3769830712" lon="15.619800820907">
        <ele>19.6</ele>
        <time>2019-08-22T16:50:21Z</time>
      </trkpt>
      <trkpt lat="58.376936551655" lon="15.619888495581">
        <ele>19.6</ele>
        <time>2019-08-22T16:50:25Z</time>
      </trkpt>
      <trkpt lat="58.376885422065" lon="15.619880365138">
        <ele>19.6</ele>
        <time>2019-08-22T16:50:27Z</time>
      </trkpt>
      <trkpt lat="58.376837896692" lon="15.619881370966">
        <ele>19.4</ele>
        <time>2019-08-22T16:50:30Z</time>
      </trkpt>
      <trkpt lat="58.376827251679" lon="15.619866618822">
        <ele>19.4</ele>
        <time>2019-08-22T16:50:31Z</time>
      </trkpt>
      <trkpt lat="58.376808140947" lon="15.619888076486">
        <ele>19</ele>
        <time>2019-08-22T16:50:33Z</time>
      </trkpt>
      <trkpt lat="58.376780564496" lon="15.619906432847">
        <ele>19</ele>
        <time>2019-08-22T16:50:35Z</time>
      </trkpt>
      <trkpt lat="58.376761872859" lon="15.619923531923">
        <ele>18.8</ele>
        <time>2019-08-22T16:50:37Z</time>
      </trkpt>
      <trkpt lat="58.376716862056" lon="15.619907354856">
        <ele>18.8</ele>
        <time>2019-08-22T16:50:40Z</time>
      </trkpt>
      <trkpt lat="58.376661960611" lon="15.619910707616">
        <ele>19.2</ele>
        <time>2019-08-22T16:50:45Z</time>
      </trkpt>
      <trkpt lat="58.376600102189" lon="15.619850777031">
        <ele>19.6</ele>
        <time>2019-08-22T16:50:49Z</time>
      </trkpt>
      <trkpt lat="58.376486695082" lon="15.619775507569">
        <ele>19.8</ele>
        <time>2019-08-22T16:50:54Z</time>
      </trkpt>
      <trkpt lat="58.376398936589" lon="15.619751870611">
        <ele>19.6</ele>
        <time>2019-08-22T16:50:58Z</time>
      </trkpt>
      <trkpt lat="58.376392398707" lon="15.619731251137">
        <ele>19.8</ele>
        <time>2019-08-22T16:50:59Z</time>
      </trkpt>
      <trkpt lat="58.376378233296" lon="15.619728652748">
        <ele>20</ele>
        <time>2019-08-22T16:51:02Z</time>
      </trkpt>
      <trkpt lat="58.376363732609" lon="15.61972177959">
        <ele>20.2</ele>
        <time>2019-08-22T16:51:03Z</time>
      </trkpt>
      <trkpt lat="58.376292318821" lon="15.619696047157">
        <ele>20</ele>
        <time>2019-08-22T16:51:09Z</time>
      </trkpt>
      <trkpt lat="58.376270442062" lon="15.61967819371">
        <ele>20</ele>
        <time>2019-08-22T16:51:11Z</time>
      </trkpt>
      <trkpt lat="58.376231382408" lon="15.619664363575">
        <ele>20.4</ele>
        <time>2019-08-22T16:51:14Z</time>
      </trkpt>
      <trkpt lat="58.376220234481" lon="15.619661513729">
        <ele>20.4</ele>
        <time>2019-08-22T16:51:15Z</time>
      </trkpt>
      <trkpt lat="58.376193328582" lon="15.619630668337">
        <ele>21.2</ele>
        <time>2019-08-22T16:51:18Z</time>
      </trkpt>
      <trkpt lat="58.376196765161" lon="15.619633015269">
        <ele>21.2</ele>
        <time>2019-08-22T16:51:20Z</time>
      </trkpt>
      <trkpt lat="58.376178241162" lon="15.619623376084">
        <ele>20.4</ele>
        <time>2019-08-22T16:51:27Z</time>
      </trkpt>
      <trkpt lat="58.376108587573" lon="15.619653550924">
        <ele>20.6</ele>
        <time>2019-08-22T16:51:32Z</time>
      </trkpt>
      <trkpt lat="58.376018565967" lon="15.619738794847">
        <ele>21.4</ele>
        <time>2019-08-22T16:51:36Z</time>
      </trkpt>
      <trkpt lat="58.37594036284" lon="15.619856057628">
        <ele>21.6</ele>
        <time>2019-08-22T16:51:41Z</time>
      </trkpt>
      <trkpt lat="58.375885209938" lon="15.620005255448">
        <ele>21.2</ele>
        <time>2019-08-22T16:51:46Z</time>
      </trkpt>
      <trkpt lat="58.375845312094" lon="15.620053199916">
        <ele>21.6</ele>
        <time>2019-08-22T16:51:49Z</time>
      </trkpt>
      <trkpt lat="58.375846737017" lon="15.620055043934">
        <ele>21.6</ele>
        <time>2019-08-22T16:51:50Z</time>
      </trkpt>
      <trkpt lat="58.375819244385" lon="15.620068287336">
        <ele>21.6</ele>
        <time>2019-08-22T16:51:55Z</time>
      </trkpt>
      <trkpt lat="58.375763253293" lon="15.620078680892">
        <ele>21.6</ele>
        <time>2019-08-22T16:52:00Z</time>
      </trkpt>
      <trkpt lat="58.375713464807" lon="15.620086811335">
        <ele>21.6</ele>
        <time>2019-08-22T16:52:05Z</time>
      </trkpt>
      <trkpt lat="58.375709441495" lon="15.620100976746">
        <ele>21.6</ele>
        <time>2019-08-22T16:52:06Z</time>
      </trkpt>
      <trkpt lat="58.375669543651" lon="15.620189657248">
        <ele>21.6</ele>
        <time>2019-08-22T16:52:09Z</time>
      </trkpt>
      <trkpt lat="58.375602404632" lon="15.620278002474">
        <ele>22.4</ele>
        <time>2019-08-22T16:52:14Z</time>
      </trkpt>
      <trkpt lat="58.375577007475" lon="15.62025151567">
        <ele>22.8</ele>
        <time>2019-08-22T16:52:18Z</time>
      </trkpt>
      <trkpt lat="58.375563596435" lon="15.620234919508">
        <ele>22.8</ele>
        <time>2019-08-22T16:52:19Z</time>
      </trkpt>
      <trkpt lat="58.375491847371" lon="15.620252102403">
        <ele>23.6</ele>
        <time>2019-08-22T16:52:23Z</time>
      </trkpt>
      <trkpt lat="58.375471563173" lon="15.620270207307">
        <ele>23.8</ele>
        <time>2019-08-22T16:52:24Z</time>
      </trkpt>
      <trkpt lat="58.375447758577" lon="15.620278170112">
        <ele>24.6</ele>
        <time>2019-08-22T16:52:26Z</time>
      </trkpt>
      <trkpt lat="58.375451614251" lon="15.620277415741">
        <ele>25</ele>
        <time>2019-08-22T16:52:28Z</time>
      </trkpt>
      <trkpt lat="58.375454045002" lon="15.62029761612">
        <ele>25.2</ele>
        <time>2019-08-22T16:52:30Z</time>
      </trkpt>
      <trkpt lat="58.37542068504" lon="15.620310775703">
        <ele>25</ele>
        <time>2019-08-22T16:52:33Z</time>
      </trkpt>
      <trkpt lat="58.37536201174" lon="15.620336759593">
        <ele>25.6</ele>
        <time>2019-08-22T16:52:37Z</time>
      </trkpt>
      <trkpt lat="58.375346253768" lon="15.620354026307">
        <ele>26</ele>
        <time>2019-08-22T16:52:38Z</time>
      </trkpt>
      <trkpt lat="58.375335692574" lon="15.620375483971">
        <ele>26.8</ele>
        <time>2019-08-22T16:52:42Z</time>
      </trkpt>
      <trkpt lat="58.375330831072" lon="15.620369868098">
        <ele>27</ele>
        <time>2019-08-22T16:52:43Z</time>
      </trkpt>
      <trkpt lat="58.375331753081" lon="15.620402808965">
        <ele>27</ele>
        <time>2019-08-22T16:52:52Z</time>
      </trkpt>
      <trkpt lat="58.375335608755" lon="15.620428457579">
        <ele>27</ele>
        <time>2019-08-22T16:52:58Z</time>
      </trkpt>
      <trkpt lat="58.375355641496" lon="15.620479754807">
        <ele>27</ele>
        <time>2019-08-22T16:53:02Z</time>
      </trkpt>
      <trkpt lat="58.375376931522" lon="15.620564831092">
        <ele>26.4</ele>
        <time>2019-08-22T16:53:09Z</time>
      </trkpt>
      <trkpt lat="58.375392018942" lon="15.620630209912">
        <ele>26.8</ele>
        <time>2019-08-22T16:53:15Z</time>
      </trkpt>
      <trkpt lat="58.375404675611" lon="15.620646219341">
        <ele>27.2</ele>
        <time>2019-08-22T16:53:23Z</time>
      </trkpt>
      <trkpt lat="58.375456140477" lon="15.620723165183">
        <ele>27.2</ele>
        <time>2019-08-22T16:53:30Z</time>
      </trkpt>
      <trkpt lat="58.375461001979" lon="15.620737498232">
        <ele>27.2</ele>
        <time>2019-08-22T16:53:36Z</time>
      </trkpt>
      <trkpt lat="58.375398640643" lon="15.620817880653">
        <ele>27.2</ele>
        <time>2019-08-22T16:53:43Z</time>
      </trkpt>
      <trkpt lat="58.375383720861" lon="15.62089189283">
        <ele>27.4</ele>
        <time>2019-08-22T16:53:47Z</time>
      </trkpt>
      <trkpt lat="58.375378188807" lon="15.62089189283">
        <ele>27.8</ele>
        <time>2019-08-22T16:53:48Z</time>
      </trkpt>
      <trkpt lat="58.375376680065" lon="15.620938747651">
        <ele>28</ele>
        <time>2019-08-22T16:53:49Z</time>
      </trkpt>
      <trkpt lat="58.375354803306" lon="15.621016531683">
        <ele>28.2</ele>
        <time>2019-08-22T16:53:52Z</time>
      </trkpt>
      <trkpt lat="58.375357150238" lon="15.621044527229">
        <ele>28</ele>
        <time>2019-08-22T16:53:53Z</time>
      </trkpt>
      <trkpt lat="58.375349187433" lon="15.621153911024">
        <ele>27.4</ele>
        <time>2019-08-22T16:53:56Z</time>
      </trkpt>
      <trkpt lat="58.375337285135" lon="15.621165729503">
        <ele>27.2</ele>
        <time>2019-08-22T16:53:58Z</time>
      </trkpt>
      <trkpt lat="58.37531758767" lon="15.621198502732">
        <ele>27.4</ele>
        <time>2019-08-22T16:54:00Z</time>
      </trkpt>
      <trkpt lat="58.375279450025" lon="15.621297492971">
        <ele>28.4</ele>
        <time>2019-08-22T16:54:04Z</time>
      </trkpt>
      <trkpt lat="58.375275929627" lon="15.621325739974">
        <ele>28.8</ele>
        <time>2019-08-22T16:54:05Z</time>
      </trkpt>
      <trkpt lat="58.375275175256" lon="15.621366140732">
        <ele>28.8</ele>
        <time>2019-08-22T16:54:07Z</time>
      </trkpt>
      <trkpt lat="58.375268218279" lon="15.621397824314">
        <ele>28.8</ele>
        <time>2019-08-22T16:54:08Z</time>
      </trkpt>
      <trkpt lat="58.375258998189" lon="15.621430932819">
        <ele>28.6</ele>
        <time>2019-08-22T16:54:09Z</time>
      </trkpt>
      <trkpt lat="58.375225889684" lon="15.621505028815">
        <ele>27.8</ele>
        <time>2019-08-22T16:54:13Z</time>
      </trkpt>
      <trkpt lat="58.375218597431" lon="15.62150880067">
        <ele>27.6</ele>
        <time>2019-08-22T16:54:14Z</time>
      </trkpt>
      <trkpt lat="58.375220189992" lon="15.621544926659">
        <ele>27.4</ele>
        <time>2019-08-22T16:54:15Z</time>
      </trkpt>
      <trkpt lat="58.375243072579" lon="15.621638301025">
        <ele>27.4</ele>
        <time>2019-08-22T16:54:18Z</time>
      </trkpt>
      <trkpt lat="58.375246928253" lon="15.621671996263">
        <ele>26.4</ele>
        <time>2019-08-22T16:54:20Z</time>
      </trkpt>
      <trkpt lat="58.375242569665" lon="15.621716336514">
        <ele>25.2</ele>
        <time>2019-08-22T16:54:22Z</time>
      </trkpt>
      <trkpt lat="58.375258159999" lon="15.621736704531">
        <ele>24.6</ele>
        <time>2019-08-22T16:54:23Z</time>
      </trkpt>
      <trkpt lat="58.375263524415" lon="15.621739973472">
        <ele>23.8</ele>
        <time>2019-08-22T16:54:25Z</time>
      </trkpt>
      <trkpt lat="58.375278947111" lon="15.62177199233">
        <ele>22.6</ele>
        <time>2019-08-22T16:54:28Z</time>
      </trkpt>
      <trkpt lat="58.37527986912" lon="15.621781966791">
        <ele>22.2</ele>
        <time>2019-08-22T16:54:34Z</time>
      </trkpt>
      <trkpt lat="58.375276600179" lon="15.621777608203">
        <ele>22.2</ele>
        <time>2019-08-22T16:54:40Z</time>
      </trkpt>
      <trkpt lat="58.375269978478" lon="15.621825971766">
        <ele>22.4</ele>
        <time>2019-08-22T16:54:45Z</time>
      </trkpt>
      <trkpt lat="58.375257992361" lon="15.621853380579">
        <ele>22.4</ele>
        <time>2019-08-22T16:54:50Z</time>
      </trkpt>
      <trkpt lat="58.375285317355" lon="15.621836030046">
        <ele>22.4</ele>
        <time>2019-08-22T16:54:59Z</time>
      </trkpt>
      <trkpt lat="58.3752815455" lon="15.621826726137">
        <ele>22.2</ele>
        <time>2019-08-22T16:55:05Z</time>
      </trkpt>
      <trkpt lat="58.375285065898" lon="15.621821277902">
        <ele>22.4</ele>
        <time>2019-08-22T16:55:11Z</time>
      </trkpt>
      <trkpt lat="58.375296297644" lon="15.621852374751">
        <ele>22.4</ele>
        <time>2019-08-22T16:55:18Z</time>
      </trkpt>
      <trkpt lat="58.37531758767" lon="15.621853632036">
        <ele>22.4</ele>
        <time>2019-08-22T16:55:23Z</time>
      </trkpt>
      <trkpt lat="58.375291268504" lon="15.621889674206">
        <ele>22.2</ele>
        <time>2019-08-22T16:55:28Z</time>
      </trkpt>
      <trkpt lat="58.375271738677" lon="15.621890428577">
        <ele>22.2</ele>
        <time>2019-08-22T16:55:34Z</time>
      </trkpt>
      <trkpt lat="58.375264027329" lon="15.62188850074">
        <ele>22.2</ele>
        <time>2019-08-22T16:55:38Z</time>
      </trkpt>
      <trkpt lat="58.375262686225" lon="15.621914987544">
        <ele>22.4</ele>
        <time>2019-08-22T16:55:43Z</time>
      </trkpt>
      <trkpt lat="58.375251286841" lon="15.622028143194">
        <ele>22.6</ele>
        <time>2019-08-22T16:55:46Z</time>
      </trkpt>
      <trkpt lat="58.375260674569" lon="15.622047337745">
        <ele>22.6</ele>
        <time>2019-08-22T16:55:47Z</time>
      </trkpt>
      <trkpt lat="58.375256902714" lon="15.622046583374">
        <ele>21.8</ele>
        <time>2019-08-22T16:55:52Z</time>
      </trkpt>
      <trkpt lat="58.375268721193" lon="15.622023533149">
        <ele>21.4</ele>
        <time>2019-08-22T16:55:54Z</time>
      </trkpt>
      <trkpt lat="58.375262518587" lon="15.621998555087">
        <ele>21.4</ele>
        <time>2019-08-22T16:55:56Z</time>
      </trkpt>
      <trkpt lat="58.375266541899" lon="15.621986233694">
        <ele>21.4</ele>
        <time>2019-08-22T16:55:57Z</time>
      </trkpt>
      <trkpt lat="58.375275761989" lon="15.621978941441">
        <ele>21.6</ele>
        <time>2019-08-22T16:56:02Z</time>
      </trkpt>
      <trkpt lat="58.375271319582" lon="15.621977097423">
        <ele>21.6</ele>
        <time>2019-08-22T16:56:08Z</time>
      </trkpt>
      <trkpt lat="58.375308199942" lon="15.621876263166">
        <ele>21.6</ele>
        <time>2019-08-22T16:56:14Z</time>
      </trkpt>
      <trkpt lat="58.375293950712" lon="15.621785990103">
        <ele>22.4</ele>
        <time>2019-08-22T16:56:18Z</time>
      </trkpt>
      <trkpt lat="58.375287245192" lon="15.621784313723">
        <ele>23.2</ele>
        <time>2019-08-22T16:56:19Z</time>
      </trkpt>
      <trkpt lat="58.375281964595" lon="15.621779787497">
        <ele>23.6</ele>
        <time>2019-08-22T16:56:20Z</time>
      </trkpt>
      <trkpt lat="58.375275007618" lon="15.62175355215">
        <ele>24.4</ele>
        <time>2019-08-22T16:56:23Z</time>
      </trkpt>
      <trkpt lat="58.375256315981" lon="15.621707619338">
        <ele>24.2</ele>
        <time>2019-08-22T16:56:25Z</time>
      </trkpt>
      <trkpt lat="58.375218262155" lon="15.621623716519">
        <ele>24.6</ele>
        <time>2019-08-22T16:56:28Z</time>
      </trkpt>
      <trkpt lat="58.375204348201" lon="15.62159261967">
        <ele>25.4</ele>
        <time>2019-08-22T16:56:30Z</time>
      </trkpt>
      <trkpt lat="58.37519688831" lon="15.621573425119">
        <ele>25.6</ele>
        <time>2019-08-22T16:56:31Z</time>
      </trkpt>
      <trkpt lat="58.375202923278" lon="15.621535203655">
        <ele>26.6</ele>
        <time>2019-08-22T16:56:33Z</time>
      </trkpt>
      <trkpt lat="58.375206862771" lon="15.621514500362">
        <ele>26.8</ele>
        <time>2019-08-22T16:56:34Z</time>
      </trkpt>
      <trkpt lat="58.375202420364" lon="15.621489773757">
        <ele>27.4</ele>
        <time>2019-08-22T16:56:36Z</time>
      </trkpt>
      <trkpt lat="58.375197223586" lon="15.621450462646">
        <ele>27.6</ele>
        <time>2019-08-22T16:56:37Z</time>
      </trkpt>
      <trkpt lat="58.375184231641" lon="15.621430262267">
        <ele>28</ele>
        <time>2019-08-22T16:56:38Z</time>
      </trkpt>
      <trkpt lat="58.375184566917" lon="15.621425568403">
        <ele>28.6</ele>
        <time>2019-08-22T16:56:41Z</time>
      </trkpt>
      <trkpt lat="58.375167970755" lon="15.621341581765">
        <ele>29</ele>
        <time>2019-08-22T16:56:49Z</time>
      </trkpt>
      <trkpt lat="58.375173921904" lon="15.621228090839">
        <ele>29.6</ele>
        <time>2019-08-22T16:56:53Z</time>
      </trkpt>
      <trkpt lat="58.375238378715" lon="15.621141421993">
        <ele>29.4</ele>
        <time>2019-08-22T16:56:57Z</time>
      </trkpt>
      <trkpt lat="58.375222956019" lon="15.621009155611">
        <ele>29.6</ele>
        <time>2019-08-22T16:57:01Z</time>
      </trkpt>
      <trkpt lat="58.375239300724" lon="15.620923827869">
        <ele>29.2</ele>
        <time>2019-08-22T16:57:06Z</time>
      </trkpt>
      <trkpt lat="58.375226308779" lon="15.620857024126">
        <ele>29</ele>
        <time>2019-08-22T16:57:11Z</time>
      </trkpt>
      <trkpt lat="58.375224297123" lon="15.620844367457">
        <ele>29</ele>
        <time>2019-08-22T16:57:12Z</time>
      </trkpt>
      <trkpt lat="58.375237205249" lon="15.620817713015">
        <ele>29.2</ele>
        <time>2019-08-22T16:57:14Z</time>
      </trkpt>
      <trkpt lat="58.375241228561" lon="15.620799189016">
        <ele>29.2</ele>
        <time>2019-08-22T16:57:15Z</time>
      </trkpt>
      <trkpt lat="58.375243491674" lon="15.62074604777">
        <ele>28.8</ele>
        <time>2019-08-22T16:57:18Z</time>
      </trkpt>
      <trkpt lat="58.375245670968" lon="15.620696091646">
        <ele>28.6</ele>
        <time>2019-08-22T16:57:21Z</time>
      </trkpt>
      <trkpt lat="58.37525807618" lon="15.620631048102">
        <ele>28.4</ele>
        <time>2019-08-22T16:57:24Z</time>
      </trkpt>
      <trkpt lat="58.375253382316" lon="15.620548737844">
        <ele>28.4</ele>
        <time>2019-08-22T16:57:27Z</time>
      </trkpt>
      <trkpt lat="58.37528238369" lon="15.620477743151">
        <ele>28.2</ele>
        <time>2019-08-22T16:57:31Z</time>
      </trkpt>
      <trkpt lat="58.375318006765" lon="15.620431391244">
        <ele>27.8</ele>
        <time>2019-08-22T16:57:34Z</time>
      </trkpt>
      <trkpt lat="58.375335692574" lon="15.620417561109">
        <ele>27.8</ele>
        <time>2019-08-22T16:57:35Z</time>
      </trkpt>
      <trkpt lat="58.375362598473" lon="15.620318151775">
        <ele>27</ele>
        <time>2019-08-22T16:57:39Z</time>
      </trkpt>
      <trkpt lat="58.375361005912" lon="15.620321755992">
        <ele>26.6</ele>
        <time>2019-08-22T16:57:40Z</time>
      </trkpt>
      <trkpt lat="58.375358491342" lon="15.620300549785">
        <ele>26</ele>
        <time>2019-08-22T16:57:44Z</time>
      </trkpt>
      <trkpt lat="58.375350444718" lon="15.620280517044">
        <ele>26</ele>
        <time>2019-08-22T16:57:45Z</time>
      </trkpt>
      <trkpt lat="58.375355809134" lon="15.620268028013">
        <ele>26.2</ele>
        <time>2019-08-22T16:57:50Z</time>
      </trkpt>
      <trkpt lat="58.375378188807" lon="15.620238188449">
        <ele>25.8</ele>
        <time>2019-08-22T16:58:00Z</time>
      </trkpt>
      <trkpt lat="58.375384559051" lon="15.620229974187">
        <ele>26</ele>
        <time>2019-08-22T16:58:08Z</time>
      </trkpt>
      <trkpt lat="58.375400233204" lon="15.620215222043">
        <ele>25.8</ele>
        <time>2019-08-22T16:58:15Z</time>
      </trkpt>
      <trkpt lat="58.375397886272" lon="15.620211031093">
        <ele>25.8</ele>
        <time>2019-08-22T16:58:22Z</time>
      </trkpt>
      <trkpt lat="58.375397048082" lon="15.620210779636">
        <ele>25.6</ele>
        <time>2019-08-22T16:58:24Z</time>
      </trkpt>
      <trkpt lat="58.375389755829" lon="15.620226286151">
        <ele>25.6</ele>
        <time>2019-08-22T16:58:30Z</time>
      </trkpt>
      <trkpt lat="58.375428061112" lon="15.620229303635">
        <ele>25.6</ele>
        <time>2019-08-22T16:58:36Z</time>
      </trkpt>
      <trkpt lat="58.37548103472" lon="15.620212372197">
        <ele>25</ele>
        <time>2019-08-22T16:58:42Z</time>
      </trkpt>
      <trkpt lat="58.375502660022" lon="15.620194099655">
        <ele>24.8</ele>
        <time>2019-08-22T16:58:44Z</time>
      </trkpt>
      <trkpt lat="58.375494864855" lon="15.620165601195">
        <ele>24.6</ele>
        <time>2019-08-22T16:58:46Z</time>
      </trkpt>
      <trkpt lat="58.375505174592" lon="15.620164846824">
        <ele>24.6</ele>
        <time>2019-08-22T16:58:47Z</time>
      </trkpt>
      <trkpt lat="58.375517663623" lon="15.620144981721">
        <ele>24</ele>
        <time>2019-08-22T16:58:50Z</time>
      </trkpt>
      <trkpt lat="58.375555717449" lon="15.620040543247">
        <ele>23.4</ele>
        <time>2019-08-22T16:58:55Z</time>
      </trkpt>
      <trkpt lat="58.375557729105" lon="15.62006040835">
        <ele>23.2</ele>
        <time>2019-08-22T16:59:00Z</time>
      </trkpt>
      <trkpt lat="58.375621263907" lon="15.620157135476">
        <ele>23.6</ele>
        <time>2019-08-22T16:59:05Z</time>
      </trkpt>
      <trkpt lat="58.37567465661" lon="15.620233494585">
        <ele>22.6</ele>
        <time>2019-08-22T16:59:10Z</time>
      </trkpt>
      <trkpt lat="58.375727127304" lon="15.620146071368">
        <ele>22.8</ele>
        <time>2019-08-22T16:59:13Z</time>
      </trkpt>
      <trkpt lat="58.37574757914" lon="15.620127547369">
        <ele>22.8</ele>
        <time>2019-08-22T16:59:14Z</time>
      </trkpt>
      <trkpt lat="58.375810611028" lon="15.620003830525">
        <ele>22.2</ele>
        <time>2019-08-22T16:59:19Z</time>
      </trkpt>
      <trkpt lat="58.375870625432" lon="15.619899559689">
        <ele>21.8</ele>
        <time>2019-08-22T16:59:23Z</time>
      </trkpt>
      <trkpt lat="58.375920749194" lon="15.619848681556">
        <ele>22</ele>
        <time>2019-08-22T16:59:25Z</time>
      </trkpt>
      <trkpt lat="58.376001047796" lon="15.619738962485">
        <ele>22.2</ele>
        <time>2019-08-22T16:59:29Z</time>
      </trkpt>
      <trkpt lat="58.376032060826" lon="15.619702333582">
        <ele>22</ele>
        <time>2019-08-22T16:59:31Z</time>
      </trkpt>
      <trkpt lat="58.376074808516" lon="15.619641564807">
        <ele>21.8</ele>
        <time>2019-08-22T16:59:34Z</time>
      </trkpt>
      <trkpt lat="58.376061984209" lon="15.6196287405">
        <ele>21.4</ele>
        <time>2019-08-22T16:59:36Z</time>
      </trkpt>
      <trkpt lat="58.376055278689" lon="15.619625471559">
        <ele>21.2</ele>
        <time>2019-08-22T16:59:38Z</time>
      </trkpt>
      <trkpt lat="58.376056955069" lon="15.619626645025">
        <ele>21</ele>
        <time>2019-08-22T16:59:39Z</time>
      </trkpt>
      <trkpt lat="58.37605435668" lon="15.619599152393">
        <ele>21</ele>
        <time>2019-08-22T16:59:46Z</time>
      </trkpt>
      <trkpt lat="58.376078999466" lon="15.619592027778">
        <ele>20.8</ele>
        <time>2019-08-22T16:59:51Z</time>
      </trkpt>
      <trkpt lat="58.376078161276" lon="15.619590099941">
        <ele>20.8</ele>
        <time>2019-08-22T16:59:59Z</time>
      </trkpt>
      <trkpt lat="58.376045220409" lon="15.619473759169">
        <ele>21</ele>
        <time>2019-08-22T17:00:07Z</time>
      </trkpt>
      <trkpt lat="58.376057960897" lon="15.619274353768">
        <ele>22</ele>
        <time>2019-08-22T17:00:12Z</time>
      </trkpt>
      <trkpt lat="58.376054943413" lon="15.619243256919">
        <ele>22.6</ele>
        <time>2019-08-22T17:00:13Z</time>
      </trkpt>
      <trkpt lat="58.376034994491" lon="15.619123060473">
        <ele>23.4</ele>
        <time>2019-08-22T17:00:17Z</time>
      </trkpt>
      <trkpt lat="58.376028288971" lon="15.619101854266">
        <ele>23.8</ele>
        <time>2019-08-22T17:00:18Z</time>
      </trkpt>
      <trkpt lat="58.376011189895" lon="15.618991883738">
        <ele>24.8</ele>
        <time>2019-08-22T17:00:22Z</time>
      </trkpt>
      <trkpt lat="58.376003394728" lon="15.618952069713">
        <ele>25</ele>
        <time>2019-08-22T17:00:23Z</time>
      </trkpt>
      <trkpt lat="58.37598311053" lon="15.618840506624">
        <ele>25.8</ele>
        <time>2019-08-22T17:00:26Z</time>
      </trkpt>
      <trkpt lat="58.375979171037" lon="15.618815947657">
        <ele>26.2</ele>
        <time>2019-08-22T17:00:27Z</time>
      </trkpt>
      <trkpt lat="58.375966262911" lon="15.618733218304">
        <ele>25.6</ele>
        <time>2019-08-22T17:00:31Z</time>
      </trkpt>
      <trkpt lat="58.375949499111" lon="15.618682340171">
        <ele>25.4</ele>
        <time>2019-08-22T17:00:32Z</time>
      </trkpt>
      <trkpt lat="58.375944386152" lon="15.618650405132">
        <ele>25.4</ele>
        <time>2019-08-22T17:00:33Z</time>
      </trkpt>
      <trkpt lat="58.375911361466" lon="15.618520234225">
        <ele>25.4</ele>
        <time>2019-08-22T17:00:36Z</time>
      </trkpt>
      <trkpt lat="58.375882695368" lon="15.618444545668">
        <ele>25.4</ele>
        <time>2019-08-22T17:00:38Z</time>
      </trkpt>
      <trkpt lat="58.375861824437" lon="15.618360475211">
        <ele>25</ele>
        <time>2019-08-22T17:00:41Z</time>
      </trkpt>
      <trkpt lat="58.37583810366" lon="15.618298449151">
        <ele>24.8</ele>
        <time>2019-08-22T17:00:43Z</time>
      </trkpt>
      <trkpt lat="58.375824022068" lon="15.618274476917">
        <ele>24.8</ele>
        <time>2019-08-22T17:00:44Z</time>
      </trkpt>
      <trkpt lat="58.375756380135" lon="15.618107258012">
        <ele>24.6</ele>
        <time>2019-08-22T17:00:49Z</time>
      </trkpt>
      <trkpt lat="58.375752859737" lon="15.618092841144">
        <ele>24</ele>
        <time>2019-08-22T17:00:53Z</time>
      </trkpt>
      <trkpt lat="58.375739029602" lon="15.618067443987">
        <ele>23.2</ele>
        <time>2019-08-22T17:00:54Z</time>
      </trkpt>
      <trkpt lat="58.375728049313" lon="15.618049171445">
        <ele>22.8</ele>
        <time>2019-08-22T17:00:55Z</time>
      </trkpt>
      <trkpt lat="58.375688486745" lon="15.617965017169">
        <ele>22.6</ele>
        <time>2019-08-22T17:00:58Z</time>
      </trkpt>
      <trkpt lat="58.375657976629" lon="15.617876420486">
        <ele>23</ele>
        <time>2019-08-22T17:01:02Z</time>
      </trkpt>
      <trkpt lat="58.375655042964" lon="15.617858315582">
        <ele>22.8</ele>
        <time>2019-08-22T17:01:03Z</time>
      </trkpt>
      <trkpt lat="58.375626712142" lon="15.61777969336">
        <ele>22.4</ele>
        <time>2019-08-22T17:01:06Z</time>
      </trkpt>
      <trkpt lat="58.375610870351" lon="15.61775706223">
        <ele>22.2</ele>
        <time>2019-08-22T17:01:07Z</time>
      </trkpt>
      <trkpt lat="58.375596537302" lon="15.617744824656">
        <ele>22.2</ele>
        <time>2019-08-22T17:01:08Z</time>
      </trkpt>
      <trkpt lat="58.375588155402" lon="15.617739376421">
        <ele>21.8</ele>
        <time>2019-08-22T17:01:09Z</time>
      </trkpt>
      <trkpt lat="58.375571307783" lon="15.617732167987">
        <ele>20.8</ele>
        <time>2019-08-22T17:01:12Z</time>
      </trkpt>
      <trkpt lat="58.375557729105" lon="15.617723115535">
        <ele>20.4</ele>
        <time>2019-08-22T17:01:13Z</time>
      </trkpt>
      <trkpt lat="58.375431497691" lon="15.617703669527">
        <ele>20.8</ele>
        <time>2019-08-22T17:01:19Z</time>
      </trkpt>
      <trkpt lat="58.375321946258" lon="15.617771143822">
        <ele>21.2</ele>
        <time>2019-08-22T17:01:24Z</time>
      </trkpt>
      <trkpt lat="58.375289005391" lon="15.617789835459">
        <ele>21.4</ele>
        <time>2019-08-22T17:01:27Z</time>
      </trkpt>
      <trkpt lat="58.375277941283" lon="15.617796624798">
        <ele>21.6</ele>
        <time>2019-08-22T17:01:29Z</time>
      </trkpt>
      <trkpt lat="58.375274756161" lon="15.617814813521">
        <ele>21.8</ele>
        <time>2019-08-22T17:01:30Z</time>
      </trkpt>
      <trkpt lat="58.375238043439" lon="15.617917407977">
        <ele>22.6</ele>
        <time>2019-08-22T17:01:34Z</time>
      </trkpt>
      <trkpt lat="58.375224297123" lon="15.617962334961">
        <ele>23.2</ele>
        <time>2019-08-22T17:01:35Z</time>
      </trkpt>
      <trkpt lat="58.375192864998" lon="15.618075909706">
        <ele>24.4</ele>
        <time>2019-08-22T17:01:38Z</time>
      </trkpt>
      <trkpt lat="58.375186243297" lon="15.618102061234">
        <ele>24.8</ele>
        <time>2019-08-22T17:01:39Z</time>
      </trkpt>
      <trkpt lat="58.37517090442" lon="15.618161321267">
        <ele>25.6</ele>
        <time>2019-08-22T17:01:41Z</time>
      </trkpt>
      <trkpt lat="58.375141483951" lon="15.61822477225">
        <ele>26.6</ele>
        <time>2019-08-22T17:01:43Z</time>
      </trkpt>
      <trkpt lat="58.375100077365" lon="15.61827757822">
        <ele>27.2</ele>
        <time>2019-08-22T17:01:45Z</time>
      </trkpt>
      <trkpt lat="58.375049115413" lon="15.618352931501">
        <ele>27.6</ele>
        <time>2019-08-22T17:01:48Z</time>
      </trkpt>
      <trkpt lat="58.375037799848" lon="15.618412275353">
        <ele>28</ele>
        <time>2019-08-22T17:01:51Z</time>
      </trkpt>
      <trkpt lat="58.37501500108" lon="15.61845359812">
        <ele>27.8</ele>
        <time>2019-08-22T17:01:55Z</time>
      </trkpt>
      <trkpt lat="58.375016426003" lon="15.618458878717">
        <ele>27.8</ele>
        <time>2019-08-22T17:01:56Z</time>
      </trkpt>
      <trkpt lat="58.375007960284" lon="15.618475977793">
        <ele>27.8</ele>
        <time>2019-08-22T17:01:58Z</time>
      </trkpt>
      <trkpt lat="58.374986670258" lon="15.618542949174">
        <ele>27.8</ele>
        <time>2019-08-22T17:02:02Z</time>
      </trkpt>
      <trkpt lat="58.374972169571" lon="15.618559880612">
        <ele>28</ele>
        <time>2019-08-22T17:02:03Z</time>
      </trkpt>
      <trkpt lat="58.374902348344" lon="15.618610088193">
        <ele>28.4</ele>
        <time>2019-08-22T17:02:06Z</time>
      </trkpt>
      <trkpt lat="58.374835879877" lon="15.618717292694">
        <ele>28.4</ele>
        <time>2019-08-22T17:02:10Z</time>
      </trkpt>
      <trkpt lat="58.374772093618" lon="15.618898509372">
        <ele>28.2</ele>
        <time>2019-08-22T17:02:16Z</time>
      </trkpt>
      <trkpt lat="58.37476270589" lon="15.618949219867">
        <ele>28.4</ele>
        <time>2019-08-22T17:02:17Z</time>
      </trkpt>
      <trkpt lat="58.374744517167" lon="15.619071176512">
        <ele>28.8</ele>
        <time>2019-08-22T17:02:20Z</time>
      </trkpt>
      <trkpt lat="58.374745522995" lon="15.619115097668">
        <ele>28.8</ele>
        <time>2019-08-22T17:02:21Z</time>
      </trkpt>
      <trkpt lat="58.374725490254" lon="15.619283490039">
        <ele>29.8</ele>
        <time>2019-08-22T17:02:25Z</time>
      </trkpt>
      <trkpt lat="58.374719036191" lon="15.619329590489">
        <ele>30</ele>
        <time>2019-08-22T17:02:26Z</time>
      </trkpt>
      <trkpt lat="58.374714593784" lon="15.619406117236">
        <ele>30</ele>
        <time>2019-08-22T17:02:28Z</time>
      </trkpt>
      <trkpt lat="58.374711827757" lon="15.619433526049">
        <ele>30</ele>
        <time>2019-08-22T17:02:29Z</time>
      </trkpt>
      <trkpt lat="58.374686765876" lon="15.619578030005">
        <ele>29.4</ele>
        <time>2019-08-22T17:02:35Z</time>
      </trkpt>
      <trkpt lat="58.374676037044" lon="15.619614407451">
        <ele>29.4</ele>
        <time>2019-08-22T17:02:37Z</time>
      </trkpt>
      <trkpt lat="58.374674779759" lon="15.619650365802">
        <ele>29.4</ele>
        <time>2019-08-22T17:02:39Z</time>
      </trkpt>
      <trkpt lat="58.374676875234" lon="15.619725299988">
        <ele>29.6</ele>
        <time>2019-08-22T17:02:43Z</time>
      </trkpt>
      <trkpt lat="58.374652316267" lon="15.619822446209">
        <ele>29.6</ele>
        <time>2019-08-22T17:02:48Z</time>
      </trkpt>
      <trkpt lat="58.374634043725" lon="15.619873659618">
        <ele>29.6</ele>
        <time>2019-08-22T17:02:50Z</time>
      </trkpt>
      <trkpt lat="58.374598504469" lon="15.619967955993">
        <ele>30</ele>
        <time>2019-08-22T17:02:54Z</time>
      </trkpt>
      <trkpt lat="58.374589032922" lon="15.619995532444">
        <ele>30.2</ele>
        <time>2019-08-22T17:02:55Z</time>
      </trkpt>
      <trkpt lat="58.374535472581" lon="15.620126373903">
        <ele>30</ele>
        <time>2019-08-22T17:03:00Z</time>
      </trkpt>
      <trkpt lat="58.374497334936" lon="15.620254281697">
        <ele>30.2</ele>
        <time>2019-08-22T17:03:05Z</time>
      </trkpt>
      <trkpt lat="58.374493227805" lon="15.620285965279">
        <ele>30.2</ele>
        <time>2019-08-22T17:03:06Z</time>
      </trkpt>
      <trkpt lat="58.374514182555" lon="15.620407167553">
        <ele>30</ele>
        <time>2019-08-22T17:03:11Z</time>
      </trkpt>
      <trkpt lat="58.374504627189" lon="15.620392918323">
        <ele>29.6</ele>
        <time>2019-08-22T17:03:16Z</time>
      </trkpt>
      <trkpt lat="58.374489204493" lon="15.620523256868">
        <ele>29.4</ele>
        <time>2019-08-22T17:03:25Z</time>
      </trkpt>
      <trkpt lat="58.374490629416" lon="15.620532560777">
        <ele>29.2</ele>
        <time>2019-08-22T17:03:34Z</time>
      </trkpt>
      <trkpt lat="58.37447772129" lon="15.620577990675">
        <ele>29.2</ele>
        <time>2019-08-22T17:03:38Z</time>
      </trkpt>
      <trkpt lat="58.374503286085" lon="15.6206848599">
        <ele>30</ele>
        <time>2019-08-22T17:03:43Z</time>
      </trkpt>
      <trkpt lat="58.374552823114" lon="15.620774630049">
        <ele>31.2</ele>
        <time>2019-08-22T17:03:47Z</time>
      </trkpt>
      <trkpt lat="58.374575873339" lon="15.62083070496">
        <ele>31.8</ele>
        <time>2019-08-22T17:03:49Z</time>
      </trkpt>
      <trkpt lat="58.374600180849" lon="15.62087429084">
        <ele>32.6</ele>
        <time>2019-08-22T17:03:51Z</time>
      </trkpt>
      <trkpt lat="58.374643012358" lon="15.620965150636">
        <ele>33.8</ele>
        <time>2019-08-22T17:03:55Z</time>
      </trkpt>
      <trkpt lat="58.374687017333" lon="15.621029439809">
        <ele>34.8</ele>
        <time>2019-08-22T17:04:00Z</time>
      </trkpt>
      <trkpt lat="58.374700512192" lon="15.621071349309">
        <ele>35.8</ele>
        <time>2019-08-22T17:04:05Z</time>
      </trkpt>
      <trkpt lat="58.374701182744" lon="15.621070846395">
        <ele>35.8</ele>
        <time>2019-08-22T17:04:06Z</time>
      </trkpt>
      <trkpt lat="58.374700344554" lon="15.621070930214">
        <ele>35.8</ele>
        <time>2019-08-22T17:04:12Z</time>
      </trkpt>
      <trkpt lat="58.374702104753" lon="15.621137901595">
        <ele>35.6</ele>
        <time>2019-08-22T17:04:17Z</time>
      </trkpt>
      <trkpt lat="58.374760694234" lon="15.621230353952">
        <ele>35.4</ele>
        <time>2019-08-22T17:04:22Z</time>
      </trkpt>
      <trkpt lat="58.374813751661" lon="15.621296235686">
        <ele>34.8</ele>
        <time>2019-08-22T17:04:26Z</time>
      </trkpt>
      <trkpt lat="58.37482557014" lon="15.621317441893">
        <ele>34.6</ele>
        <time>2019-08-22T17:04:27Z</time>
      </trkpt>
      <trkpt lat="58.374858008093" lon="15.621377791573">
        <ele>34</ele>
        <time>2019-08-22T17:04:30Z</time>
      </trkpt>
      <trkpt lat="58.374886841829" lon="15.621382485437">
        <ele>33.4</ele>
        <time>2019-08-22T17:04:32Z</time>
      </trkpt>
      <trkpt lat="58.374965212594" lon="15.621404529834">
        <ele>33</ele>
        <time>2019-08-22T17:04:37Z</time>
      </trkpt>
      <trkpt lat="58.374986083525" lon="15.621429004982">
        <ele>33.2</ele>
        <time>2019-08-22T17:04:39Z</time>
      </trkpt>
      <trkpt lat="58.374999326927" lon="15.62144426004">
        <ele>33.2</ele>
        <time>2019-08-22T17:04:41Z</time>
      </trkpt>
      <trkpt lat="58.375004272248" lon="15.621449121542">
        <ele>33</ele>
        <time>2019-08-22T17:04:45Z</time>
      </trkpt>
      <trkpt lat="58.375032100156" lon="15.621455407967">
        <ele>32.8</ele>
        <time>2019-08-22T17:04:51Z</time>
      </trkpt>
      <trkpt lat="58.375027071016" lon="15.621441577832">
        <ele>32.8</ele>
        <time>2019-08-22T17:04:56Z</time>
      </trkpt>
      <trkpt lat="58.375037045477" lon="15.621395225925">
        <ele>33</ele>
        <time>2019-08-22T17:05:00Z</time>
      </trkpt>
      <trkpt lat="58.375074261113" lon="15.621441913108">
        <ele>32.2</ele>
        <time>2019-08-22T17:05:05Z</time>
      </trkpt>
      <trkpt lat="58.375075434579" lon="15.621471752672">
        <ele>31.4</ele>
        <time>2019-08-22T17:05:08Z</time>
      </trkpt>
      <trkpt lat="58.375068393783" lon="15.621478877287">
        <ele>30.8</ele>
        <time>2019-08-22T17:05:09Z</time>
      </trkpt>
      <trkpt lat="58.375063699919" lon="15.621487510644">
        <ele>30.4</ele>
        <time>2019-08-22T17:05:10Z</time>
      </trkpt>
      <trkpt lat="58.375053306363" lon="15.621520116235">
        <ele>29.6</ele>
        <time>2019-08-22T17:05:12Z</time>
      </trkpt>
      <trkpt lat="58.375043164264" lon="15.621544507564">
        <ele>29.6</ele>
        <time>2019-08-22T17:05:13Z</time>
      </trkpt>
      <trkpt lat="58.375031932518" lon="15.621590524195">
        <ele>29.8</ele>
        <time>2019-08-22T17:05:15Z</time>
      </trkpt>
      <trkpt lat="58.375041906979" lon="15.621709295718">
        <ele>30.2</ele>
        <time>2019-08-22T17:05:21Z</time>
      </trkpt>
      <trkpt lat="58.375057497313" lon="15.62175606672">
        <ele>29.8</ele>
        <time>2019-08-22T17:05:24Z</time>
      </trkpt>
      <trkpt lat="58.375066633584" lon="15.621780458049">
        <ele>29.2</ele>
        <time>2019-08-22T17:05:26Z</time>
      </trkpt>
      <trkpt lat="58.375070656896" lon="15.621788253216">
        <ele>28.6</ele>
        <time>2019-08-22T17:05:28Z</time>
      </trkpt>
      <trkpt lat="58.375063867557" lon="15.621824965938">
        <ele>28.2</ele>
        <time>2019-08-22T17:05:33Z</time>
      </trkpt>
      <trkpt lat="58.375062694091" lon="15.621841813557">
        <ele>28.2</ele>
        <time>2019-08-22T17:05:40Z</time>
      </trkpt>
      <trkpt lat="58.375053054906" lon="15.621907276196">
        <ele>28</ele>
        <time>2019-08-22T17:05:48Z</time>
      </trkpt>
      <trkpt lat="58.375065208661" lon="15.622036189818">
        <ele>28.4</ele>
        <time>2019-08-22T17:05:54Z</time>
      </trkpt>
      <trkpt lat="58.375056407666" lon="15.622224698749">
        <ele>27.2</ele>
        <time>2019-08-22T17:06:00Z</time>
      </trkpt>
      <trkpt lat="58.375045678834" lon="15.622253197209">
        <ele>27</ele>
        <time>2019-08-22T17:06:01Z</time>
      </trkpt>
      <trkpt lat="58.375050037422" lon="15.622293597967">
        <ele>27</ele>
        <time>2019-08-22T17:06:02Z</time>
      </trkpt>
      <trkpt lat="58.375041320246" lon="15.622381188822">
        <ele>26.4</ele>
        <time>2019-08-22T17:06:05Z</time>
      </trkpt>
      <trkpt lat="58.375040482056" lon="15.622407927083">
        <ele>26.2</ele>
        <time>2019-08-22T17:06:06Z</time>
      </trkpt>
      <trkpt lat="58.375032770708" lon="15.622465678374">
        <ele>25.6</ele>
        <time>2019-08-22T17:06:08Z</time>
      </trkpt>
      <trkpt lat="58.375036207287" lon="15.622509264254">
        <ele>25.2</ele>
        <time>2019-08-22T17:06:10Z</time>
      </trkpt>
      <trkpt lat="58.375016258365" lon="15.62255318541">
        <ele>24.8</ele>
        <time>2019-08-22T17:06:12Z</time>
      </trkpt>
      <trkpt lat="58.375009720483" lon="15.62259844767">
        <ele>24.6</ele>
        <time>2019-08-22T17:06:13Z</time>
      </trkpt>
      <trkpt lat="58.375007122094" lon="15.622639351342">
        <ele>24.6</ele>
        <time>2019-08-22T17:06:14Z</time>
      </trkpt>
      <trkpt lat="58.375017599469" lon="15.622876140017">
        <ele>24.2</ele>
        <time>2019-08-22T17:06:20Z</time>
      </trkpt>
      <trkpt lat="58.375032686889" lon="15.622954343144">
        <ele>23.8</ele>
        <time>2019-08-22T17:06:22Z</time>
      </trkpt>
      <trkpt lat="58.375040314418" lon="15.623046795501">
        <ele>23.8</ele>
        <time>2019-08-22T17:06:25Z</time>
      </trkpt>
      <trkpt lat="58.375065208661" lon="15.623120053307">
        <ele>23.4</ele>
        <time>2019-08-22T17:06:28Z</time>
      </trkpt>
      <trkpt lat="58.37507283619" lon="15.623170763802">
        <ele>23.4</ele>
        <time>2019-08-22T17:06:30Z</time>
      </trkpt>
      <trkpt lat="58.375072584733" lon="15.623207644162">
        <ele>23.4</ele>
        <time>2019-08-22T17:06:32Z</time>
      </trkpt>
      <trkpt lat="58.375067220317" lon="15.623216528976">
        <ele>23.6</ele>
        <time>2019-08-22T17:06:33Z</time>
      </trkpt>
      <trkpt lat="58.374979210367" lon="15.623367570814">
        <ele>23.6</ele>
        <time>2019-08-22T17:06:39Z</time>
      </trkpt>
      <trkpt lat="58.37485909774" lon="15.623611148828">
        <ele>24.6</ele>
        <time>2019-08-22T17:06:45Z</time>
      </trkpt>
      <trkpt lat="58.374766729202" lon="15.623742325563">
        <ele>23.8</ele>
        <time>2019-08-22T17:06:50Z</time>
      </trkpt>
      <trkpt lat="58.374749127212" lon="15.623806028003">
        <ele>24</ele>
        <time>2019-08-22T17:06:52Z</time>
      </trkpt>
      <trkpt lat="58.374746696461" lon="15.623950280502">
        <ele>23.6</ele>
        <time>2019-08-22T17:06:55Z</time>
      </trkpt>
      <trkpt lat="58.374779721147" lon="15.623990597441">
        <ele>23.6</ele>
        <time>2019-08-22T17:06:57Z</time>
      </trkpt>
      <trkpt lat="58.374804950666" lon="15.62404767818">
        <ele>23.4</ele>
        <time>2019-08-22T17:07:00Z</time>
      </trkpt>
      <trkpt lat="58.374803693381" lon="15.624077350106">
        <ele>23.2</ele>
        <time>2019-08-22T17:07:02Z</time>
      </trkpt>
      <trkpt lat="58.374777290396" lon="15.624150188817">
        <ele>23</ele>
        <time>2019-08-22T17:07:06Z</time>
      </trkpt>
      <trkpt lat="58.374761783881" lon="15.624230990333">
        <ele>23</ele>
        <time>2019-08-22T17:07:11Z</time>
      </trkpt>
      <trkpt lat="58.374767148297" lon="15.624237025301">
        <ele>22.8</ele>
        <time>2019-08-22T17:07:13Z</time>
      </trkpt>
      <trkpt lat="58.374767064478" lon="15.624236522387">
        <ele>22.8</ele>
        <time>2019-08-22T17:07:14Z</time>
      </trkpt>
      <trkpt lat="58.374767567392" lon="15.624262506277">
        <ele>22.4</ele>
        <time>2019-08-22T17:07:19Z</time>
      </trkpt>
      <trkpt lat="58.374774524369" lon="15.624292345841">
        <ele>22.4</ele>
        <time>2019-08-22T17:07:24Z</time>
      </trkpt>
      <trkpt lat="58.374768489401" lon="15.624240126604">
        <ele>22.6</ele>
        <time>2019-08-22T17:07:28Z</time>
      </trkpt>
      <trkpt lat="58.374757006198" lon="15.624153709215">
        <ele>22.6</ele>
        <time>2019-08-22T17:07:36Z</time>
      </trkpt>
      <trkpt lat="58.374736386724" lon="15.624102579625">
        <ele>22.6</ele>
        <time>2019-08-22T17:07:38Z</time>
      </trkpt>
      <trkpt lat="58.374693639034" lon="15.624075757545">
        <ele>22.8</ele>
        <time>2019-08-22T17:07:40Z</time>
      </trkpt>
      <trkpt lat="58.37462524273" lon="15.624023203032">
        <ele>23.4</ele>
        <time>2019-08-22T17:07:44Z</time>
      </trkpt>
      <trkpt lat="58.374599929392" lon="15.624016413693">
        <ele>23.2</ele>
        <time>2019-08-22T17:07:46Z</time>
      </trkpt>
      <trkpt lat="58.374567072344" lon="15.624014234399">
        <ele>23.4</ele>
        <time>2019-08-22T17:07:48Z</time>
      </trkpt>
      <trkpt lat="58.374508063768" lon="15.624042229945">
        <ele>23.6</ele>
        <time>2019-08-22T17:07:52Z</time>
      </trkpt>
      <trkpt lat="58.374459784024" lon="15.624056730632">
        <ele>23.8</ele>
        <time>2019-08-22T17:07:56Z</time>
      </trkpt>
      <trkpt lat="58.374445618613" lon="15.624072320966">
        <ele>23.8</ele>
        <time>2019-08-22T17:07:57Z</time>
      </trkpt>
      <trkpt lat="58.374406558959" lon="15.624089336223">
        <ele>23.8</ele>
        <time>2019-08-22T17:08:00Z</time>
      </trkpt>
      <trkpt lat="58.374373701911" lon="15.624105680928">
        <ele>23.8</ele>
        <time>2019-08-22T17:08:02Z</time>
      </trkpt>
      <trkpt lat="58.374322823778" lon="15.624133508836">
        <ele>24</ele>
        <time>2019-08-22T17:08:04Z</time>
      </trkpt>
      <trkpt lat="58.374147725887" lon="15.62416502478">
        <ele>24.8</ele>
        <time>2019-08-22T17:08:12Z</time>
      </trkpt>
      <trkpt lat="58.374141104186" lon="15.624181285666">
        <ele>24.8</ele>
        <time>2019-08-22T17:08:13Z</time>
      </trkpt>
      <trkpt lat="58.374134147209" lon="15.624278850982">
        <ele>25.2</ele>
        <time>2019-08-22T17:08:15Z</time>
      </trkpt>
      <trkpt lat="58.374126435861" lon="15.624460151479">
        <ele>26</ele>
        <time>2019-08-22T17:08:19Z</time>
      </trkpt>
      <trkpt lat="58.374130123897" lon="15.624531565267">
        <ele>25.6</ele>
        <time>2019-08-22T17:08:21Z</time>
      </trkpt>
      <trkpt lat="58.374149653724" lon="15.624733820514">
        <ele>25.4</ele>
        <time>2019-08-22T17:08:26Z</time>
      </trkpt>
      <trkpt lat="58.374160717832" lon="15.624764246811">
        <ele>25.2</ele>
        <time>2019-08-22T17:08:27Z</time>
      </trkpt>
      <trkpt lat="58.374178738917" lon="15.624834990047">
        <ele>25.4</ele>
        <time>2019-08-22T17:08:30Z</time>
      </trkpt>
      <trkpt lat="58.374186114989" lon="15.624878995022">
        <ele>25.2</ele>
        <time>2019-08-22T17:08:32Z</time>
      </trkpt>
      <trkpt lat="58.374180750573" lon="15.624941356358">
        <ele>25.2</ele>
        <time>2019-08-22T17:08:36Z</time>
      </trkpt>
      <trkpt lat="58.374178068365" lon="15.624992234491">
        <ele>25</ele>
        <time>2019-08-22T17:08:40Z</time>
      </trkpt>
      <trkpt lat="58.374163567678" lon="15.625081501726">
        <ele>24.4</ele>
        <time>2019-08-22T17:08:46Z</time>
      </trkpt>
      <trkpt lat="58.374146803878" lon="15.625116705706">
        <ele>24.6</ele>
        <time>2019-08-22T17:08:52Z</time>
      </trkpt>
      <trkpt lat="58.37410975588" lon="15.625145371804">
        <ele>24.6</ele>
        <time>2019-08-22T17:08:57Z</time>
      </trkpt>
      <trkpt lat="58.374077820841" lon="15.62517672011">
        <ele>24.8</ele>
        <time>2019-08-22T17:09:03Z</time>
      </trkpt>
      <trkpt lat="58.374041611033" lon="15.625295323995">
        <ele>25</ele>
        <time>2019-08-22T17:09:08Z</time>
      </trkpt>
      <trkpt lat="58.374044293241" lon="15.625331198527">
        <ele>25.2</ele>
        <time>2019-08-22T17:09:09Z</time>
      </trkpt>
      <trkpt lat="58.374060637946" lon="15.625364642308">
        <ele>25.6</ele>
        <time>2019-08-22T17:09:14Z</time>
      </trkpt>
      <trkpt lat="58.373989475615" lon="15.625399259555">
        <ele>25.8</ele>
        <time>2019-08-22T17:09:18Z</time>
      </trkpt>
      <trkpt lat="58.373910182841" lon="15.625471260076">
        <ele>26.2</ele>
        <time>2019-08-22T17:09:21Z</time>
      </trkpt>
      <trkpt lat="58.37378872911" lon="15.625602185354">
        <ele>26.8</ele>
        <time>2019-08-22T17:09:26Z</time>
      </trkpt>
      <trkpt lat="58.373627964268" lon="15.62576345311">
        <ele>27.2</ele>
        <time>2019-08-22T17:09:33Z</time>
      </trkpt>
      <trkpt lat="58.373600387817" lon="15.625786335697">
        <ele>27.4</ele>
        <time>2019-08-22T17:09:34Z</time>
      </trkpt>
      <trkpt lat="58.373499721198" lon="15.625885996488">
        <ele>27.6</ele>
        <time>2019-08-22T17:09:39Z</time>
      </trkpt>
      <trkpt lat="58.373505504709" lon="15.625906867419">
        <ele>27.8</ele>
        <time>2019-08-22T17:09:45Z</time>
      </trkpt>
      <trkpt lat="58.373441886088" lon="15.625911561283">
        <ele>27.8</ele>
        <time>2019-08-22T17:09:52Z</time>
      </trkpt>
      <trkpt lat="58.373364102056" lon="15.626066794071">
        <ele>28.2</ele>
        <time>2019-08-22T17:09:57Z</time>
      </trkpt>
      <trkpt lat="58.37335035574" lon="15.626111134322">
        <ele>28.4</ele>
        <time>2019-08-22T17:09:58Z</time>
      </trkpt>
      <trkpt lat="58.373324204212" lon="15.626159749342">
        <ele>28</ele>
        <time>2019-08-22T17:10:00Z</time>
      </trkpt>
      <trkpt lat="58.373312050457" lon="15.626168969432">
        <ele>28.2</ele>
        <time>2019-08-22T17:10:01Z</time>
      </trkpt>
      <trkpt lat="58.37322295086" lon="15.6262504415">
        <ele>28.2</ele>
        <time>2019-08-22T17:10:07Z</time>
      </trkpt>
      <trkpt lat="58.373198056617" lon="15.626294697932">
        <ele>28.4</ele>
        <time>2019-08-22T17:10:09Z</time>
      </trkpt>
      <trkpt lat="58.373149776873" lon="15.626402908261">
        <ele>28.8</ele>
        <time>2019-08-22T17:10:12Z</time>
      </trkpt>
      <trkpt lat="58.373101916224" lon="15.626500305939">
        <ele>29.4</ele>
        <time>2019-08-22T17:10:15Z</time>
      </trkpt>
      <trkpt lat="58.373044835485" lon="15.626563589284">
        <ele>30.4</ele>
        <time>2019-08-22T17:10:18Z</time>
      </trkpt>
      <trkpt lat="58.373023796916" lon="15.626592003925">
        <ele>30.4</ele>
        <time>2019-08-22T17:10:19Z</time>
      </trkpt>
      <trkpt lat="58.372956825535" lon="15.626726449601">
        <ele>31.6</ele>
        <time>2019-08-22T17:10:23Z</time>
      </trkpt>
      <trkpt lat="58.372952886042" lon="15.626757630269">
        <ele>31.6</ele>
        <time>2019-08-22T17:10:24Z</time>
      </trkpt>
      <trkpt lat="58.372963531055" lon="15.626825272202">
        <ele>31.6</ele>
        <time>2019-08-22T17:10:27Z</time>
      </trkpt>
      <trkpt lat="58.372969398385" lon="15.626845221124">
        <ele>31.4</ele>
        <time>2019-08-22T17:10:28Z</time>
      </trkpt>
      <trkpt lat="58.372974511344" lon="15.626882939674">
        <ele>31.2</ele>
        <time>2019-08-22T17:10:30Z</time>
      </trkpt>
      <trkpt lat="58.372985156357" lon="15.626919233301">
        <ele>31</ele>
        <time>2019-08-22T17:10:33Z</time>
      </trkpt>
      <trkpt lat="58.37298909585" lon="15.626919568577">
        <ele>31</ele>
        <time>2019-08-22T17:10:34Z</time>
      </trkpt>
      <trkpt lat="58.37301340336" lon="15.626999028989">
        <ele>31</ele>
        <time>2019-08-22T17:10:40Z</time>
      </trkpt>
      <trkpt lat="58.373029077513" lon="15.627056025909">
        <ele>31</ele>
        <time>2019-08-22T17:10:44Z</time>
      </trkpt>
      <trkpt lat="58.373021282346" lon="15.62704420743">
        <ele>31</ele>
        <time>2019-08-22T17:10:46Z</time>
      </trkpt>
      <trkpt lat="58.373016253206" lon="15.627111094992">
        <ele>31</ele>
        <time>2019-08-22T17:10:51Z</time>
      </trkpt>
      <trkpt lat="58.373007787487" lon="15.62718586154">
        <ele>31</ele>
        <time>2019-08-22T17:10:56Z</time>
      </trkpt>
      <trkpt lat="58.373002674528" lon="15.627306979995">
        <ele>31</ele>
        <time>2019-08-22T17:11:02Z</time>
      </trkpt>
      <trkpt lat="58.373048104426" lon="15.627369760426">
        <ele>31.2</ele>
        <time>2019-08-22T17:11:07Z</time>
      </trkpt>
      <trkpt lat="58.373128570666" lon="15.627459698213">
        <ele>31.2</ele>
        <time>2019-08-22T17:11:12Z</time>
      </trkpt>
      <trkpt lat="58.373123541526" lon="15.627472354882">
        <ele>31.4</ele>
        <time>2019-08-22T17:11:13Z</time>
      </trkpt>
      <trkpt lat="58.373138712765" lon="15.627536560236">
        <ele>31.4</ele>
        <time>2019-08-22T17:11:17Z</time>
      </trkpt>
      <trkpt lat="58.373195206771" lon="15.627687434436">
        <ele>31.6</ele>
        <time>2019-08-22T17:11:21Z</time>
      </trkpt>
      <trkpt lat="58.373271314423" lon="15.627903016904">
        <ele>31.8</ele>
        <time>2019-08-22T17:11:27Z</time>
      </trkpt>
      <trkpt lat="58.373308781516" lon="15.627977699633">
        <ele>31.2</ele>
        <time>2019-08-22T17:11:31Z</time>
      </trkpt>
      <trkpt lat="58.373315906131" lon="15.628014077079">
        <ele>30.8</ele>
        <time>2019-08-22T17:11:32Z</time>
      </trkpt>
      <trkpt lat="58.373340968012" lon="15.628059674615">
        <ele>31</ele>
        <time>2019-08-22T17:11:36Z</time>
      </trkpt>
      <trkpt lat="58.373328646619" lon="15.628107367626">
        <ele>31</ele>
        <time>2019-08-22T17:11:42Z</time>
      </trkpt>
      <trkpt lat="58.373316660502" lon="15.628103931047">
        <ele>30.8</ele>
        <time>2019-08-22T17:11:49Z</time>
      </trkpt>
      <trkpt lat="58.373279696323" lon="15.628129747299">
        <ele>30.8</ele>
        <time>2019-08-22T17:11:56Z</time>
      </trkpt>
      <trkpt lat="58.373199146264" lon="15.628234353411">
        <ele>31</ele>
        <time>2019-08-22T17:12:00Z</time>
      </trkpt>
      <trkpt lat="58.3731860705" lon="15.628266959002">
        <ele>31.2</ele>
        <time>2019-08-22T17:12:01Z</time>
      </trkpt>
      <trkpt lat="58.37317852679" lon="15.628535766535">
        <ele>31</ele>
        <time>2019-08-22T17:12:06Z</time>
      </trkpt>
      <trkpt lat="58.373190345269" lon="15.628675241351">
        <ele>30.4</ele>
        <time>2019-08-22T17:12:09Z</time>
      </trkpt>
      <trkpt lat="58.373187327785" lon="15.628746319863">
        <ele>29.8</ele>
        <time>2019-08-22T17:12:11Z</time>
      </trkpt>
      <trkpt lat="58.373169055243" lon="15.628874479114">
        <ele>30</ele>
        <time>2019-08-22T17:12:14Z</time>
      </trkpt>
      <trkpt lat="58.373162182085" lon="15.628931727491">
        <ele>30.4</ele>
        <time>2019-08-22T17:12:16Z</time>
      </trkpt>
      <trkpt lat="58.373167295044" lon="15.629004650021">
        <ele>29.8</ele>
        <time>2019-08-22T17:12:18Z</time>
      </trkpt>
      <trkpt lat="58.373176179858" lon="15.629067765728">
        <ele>30.2</ele>
        <time>2019-08-22T17:12:21Z</time>
      </trkpt>
      <trkpt lat="58.373175509306" lon="15.629149908348">
        <ele>30.2</ele>
        <time>2019-08-22T17:12:24Z</time>
      </trkpt>
      <trkpt lat="58.373174084383" lon="15.629213275512">
        <ele>30.2</ele>
        <time>2019-08-22T17:12:27Z</time>
      </trkpt>
      <trkpt lat="58.373166456854" lon="15.62925535265">
        <ele>30.2</ele>
        <time>2019-08-22T17:12:28Z</time>
      </trkpt>
      <trkpt lat="58.373186573414" lon="15.629423912659">
        <ele>30.2</ele>
        <time>2019-08-22T17:12:32Z</time>
      </trkpt>
      <trkpt lat="58.373197134608" lon="15.629452914033">
        <ele>30.2</ele>
        <time>2019-08-22T17:12:33Z</time>
      </trkpt>
      <trkpt lat="58.373278355219" lon="15.629557855421">
        <ele>29.8</ele>
        <time>2019-08-22T17:12:38Z</time>
      </trkpt>
      <trkpt lat="58.373284809282" lon="15.629603620595">
        <ele>29.6</ele>
        <time>2019-08-22T17:12:39Z</time>
      </trkpt>
      <trkpt lat="58.373307272774" lon="15.629699174255">
        <ele>29.2</ele>
        <time>2019-08-22T17:12:42Z</time>
      </trkpt>
      <trkpt lat="58.373303081824" lon="15.629727840353">
        <ele>29</ele>
        <time>2019-08-22T17:12:43Z</time>
      </trkpt>
      <trkpt lat="58.373298304141" lon="15.629757260822">
        <ele>28.8</ele>
        <time>2019-08-22T17:12:44Z</time>
      </trkpt>
      <trkpt lat="58.373274164269" lon="15.629864632961">
        <ele>28.6</ele>
        <time>2019-08-22T17:12:50Z</time>
      </trkpt>
      <trkpt lat="58.373246587818" lon="15.630050292046">
        <ele>29.2</ele>
        <time>2019-08-22T17:12:55Z</time>
      </trkpt>
      <trkpt lat="58.373211719114" lon="15.630152551226">
        <ele>30</ele>
        <time>2019-08-22T17:12:58Z</time>
      </trkpt>
      <trkpt lat="58.37317936498" lon="15.630223043005">
        <ele>30.2</ele>
        <time>2019-08-22T17:13:00Z</time>
      </trkpt>
      <trkpt lat="58.373119937309" lon="15.630318848122">
        <ele>30</ele>
        <time>2019-08-22T17:13:03Z</time>
      </trkpt>
      <trkpt lat="58.373094623971" lon="15.630339299958">
        <ele>30.2</ele>
        <time>2019-08-22T17:13:04Z</time>
      </trkpt>
      <trkpt lat="58.373000411415" lon="15.630471985435">
        <ele>29.6</ele>
        <time>2019-08-22T17:13:09Z</time>
      </trkpt>
      <trkpt lat="58.372998567397" lon="15.630475002919">
        <ele>29.6</ele>
        <time>2019-08-22T17:13:10Z</time>
      </trkpt>
      <trkpt lat="58.372972499688" lon="15.630502244094">
        <ele>29.4</ele>
        <time>2019-08-22T17:13:12Z</time>
      </trkpt>
      <trkpt lat="58.37294802454" lon="15.63052437231">
        <ele>29.4</ele>
        <time>2019-08-22T17:13:15Z</time>
      </trkpt>
      <trkpt lat="58.372936792794" lon="15.630531329287">
        <ele>29.4</ele>
        <time>2019-08-22T17:13:17Z</time>
      </trkpt>
      <trkpt lat="58.372913323474" lon="15.630580028126">
        <ele>29.4</ele>
        <time>2019-08-22T17:13:20Z</time>
      </trkpt>
      <trkpt lat="58.372909551619" lon="15.630592852433">
        <ele>29.4</ele>
        <time>2019-08-22T17:13:21Z</time>
      </trkpt>
      <trkpt lat="58.372906617954" lon="15.630601150514">
        <ele>29.4</ele>
        <time>2019-08-22T17:13:22Z</time>
      </trkpt>
      <trkpt lat="58.372913994026" lon="15.630608694224">
        <ele>29.4</ele>
        <time>2019-08-22T17:13:26Z</time>
      </trkpt>
      <trkpt lat="58.372901253538" lon="15.630635683942">
        <ele>29.2</ele>
        <time>2019-08-22T17:13:29Z</time>
      </trkpt>
      <trkpt lat="58.372895721484" lon="15.630684131324">
        <ele>29.2</ele>
        <time>2019-08-22T17:13:33Z</time>
      </trkpt>
      <trkpt lat="58.372906785592" lon="15.630781026088">
        <ele>30.2</ele>
        <time>2019-08-22T17:13:37Z</time>
      </trkpt>
      <trkpt lat="58.372895721484" lon="15.630817571172">
        <ele>30.8</ele>
        <time>2019-08-22T17:13:39Z</time>
      </trkpt>
      <trkpt lat="58.372899241882" lon="15.630826455986">
        <ele>31.2</ele>
        <time>2019-08-22T17:13:40Z</time>
      </trkpt>
      <trkpt lat="58.372921621555" lon="15.630878591404">
        <ele>31.6</ele>
        <time>2019-08-22T17:13:43Z</time>
      </trkpt>
      <trkpt lat="58.372927572704" lon="15.630907760416">
        <ele>31.8</ele>
        <time>2019-08-22T17:13:44Z</time>
      </trkpt>
      <trkpt lat="58.372906701773" lon="15.63097950948">
        <ele>32.2</ele>
        <time>2019-08-22T17:13:48Z</time>
      </trkpt>
      <trkpt lat="58.372902510823" lon="15.631030974346">
        <ele>32.8</ele>
        <time>2019-08-22T17:13:52Z</time>
      </trkpt>
      <trkpt lat="58.372903265194" lon="15.631115212441">
        <ele>33</ele>
        <time>2019-08-22T17:13:54Z</time>
      </trkpt>
      <trkpt lat="58.372906617954" lon="15.631152763353">
        <ele>33</ele>
        <time>2019-08-22T17:13:55Z</time>
      </trkpt>
      <trkpt lat="58.372893793647" lon="15.631216465793">
        <ele>33.2</ele>
        <time>2019-08-22T17:13:57Z</time>
      </trkpt>
      <trkpt lat="58.37288599848" lon="15.631241611493">
        <ele>33.2</ele>
        <time>2019-08-22T17:13:58Z</time>
      </trkpt>
      <trkpt lat="58.372877029847" lon="15.631274300903">
        <ele>33.4</ele>
        <time>2019-08-22T17:14:00Z</time>
      </trkpt>
      <trkpt lat="58.372873006535" lon="15.631279162405">
        <ele>33.4</ele>
        <time>2019-08-22T17:14:01Z</time>
      </trkpt>
      <trkpt lat="58.372869653775" lon="15.631290058875">
        <ele>33.4</ele>
        <time>2019-08-22T17:14:06Z</time>
      </trkpt>
      <trkpt lat="58.372826067895" lon="15.631307828503">
        <ele>33.4</ele>
        <time>2019-08-22T17:14:14Z</time>
      </trkpt>
      <trkpt lat="58.37282145785" lon="15.63131897643">
        <ele>32.8</ele>
        <time>2019-08-22T17:14:21Z</time>
      </trkpt>
      <trkpt lat="58.372844843351" lon="15.631323418837">
        <ele>32.8</ele>
        <time>2019-08-22T17:14:26Z</time>
      </trkpt>
      <trkpt lat="58.372879879693" lon="15.631347055795">
        <ele>33.4</ele>
        <time>2019-08-22T17:14:31Z</time>
      </trkpt>
      <trkpt lat="58.372894464199" lon="15.631333980031">
        <ele>33.6</ele>
        <time>2019-08-22T17:14:35Z</time>
      </trkpt>
      <trkpt lat="58.372943079219" lon="15.631340517913">
        <ele>33.6</ele>
        <time>2019-08-22T17:14:40Z</time>
      </trkpt>
      <trkpt lat="58.372962692865" lon="15.631320988086">
        <ele>34.2</ele>
        <time>2019-08-22T17:14:44Z</time>
      </trkpt>
      <trkpt lat="58.372962357589" lon="15.631321658638">
        <ele>34.6</ele>
        <time>2019-08-22T17:14:47Z</time>
      </trkpt>
      <trkpt lat="58.372986832737" lon="15.631333980031">
        <ele>34.8</ele>
        <time>2019-08-22T17:14:56Z</time>
      </trkpt>
      <trkpt lat="58.373018935414" lon="15.631219986191">
        <ele>34.2</ele>
        <time>2019-08-22T17:15:03Z</time>
      </trkpt>
      <trkpt lat="58.373033352282" lon="15.631146141652">
        <ele>33.8</ele>
        <time>2019-08-22T17:15:07Z</time>
      </trkpt>
      <trkpt lat="58.373056318688" lon="15.631102974867">
        <ele>33.6</ele>
        <time>2019-08-22T17:15:10Z</time>
      </trkpt>
      <trkpt lat="58.373056486326" lon="15.631092748949">
        <ele>33.6</ele>
        <time>2019-08-22T17:15:11Z</time>
      </trkpt>
      <trkpt lat="58.373066879882" lon="15.63098370043">
        <ele>33.4</ele>
        <time>2019-08-22T17:15:15Z</time>
      </trkpt>
      <trkpt lat="58.373081045293" lon="15.630964589698">
        <ele>33</ele>
        <time>2019-08-22T17:15:17Z</time>
      </trkpt>
      <trkpt lat="58.373111555409" lon="15.630982275507">
        <ele>31.8</ele>
        <time>2019-08-22T17:15:20Z</time>
      </trkpt>
      <trkpt lat="58.373120356404" lon="15.630994261624">
        <ele>31.8</ele>
        <time>2019-08-22T17:15:21Z</time>
      </trkpt>
      <trkpt lat="58.373120272585" lon="15.630981604955">
        <ele>31.4</ele>
        <time>2019-08-22T17:15:22Z</time>
      </trkpt>
      <trkpt lat="58.373116752187" lon="15.631026867215">
        <ele>31</ele>
        <time>2019-08-22T17:15:24Z</time>
      </trkpt>
      <trkpt lat="58.373119685852" lon="15.631048324879">
        <ele>30.8</ele>
        <time>2019-08-22T17:15:25Z</time>
      </trkpt>
      <trkpt lat="58.37312236806" lon="15.631073302941">
        <ele>30.8</ele>
        <time>2019-08-22T17:15:26Z</time>
      </trkpt>
      <trkpt lat="58.373131923426" lon="15.6310951797">
        <ele>30.6</ele>
        <time>2019-08-22T17:15:27Z</time>
      </trkpt>
      <trkpt lat="58.373162349723" lon="15.631183357288">
        <ele>30.2</ele>
        <time>2019-08-22T17:15:31Z</time>
      </trkpt>
      <trkpt lat="58.373173246193" lon="15.631220740562">
        <ele>29.6</ele>
        <time>2019-08-22T17:15:35Z</time>
      </trkpt>
      <trkpt lat="58.373178442971" lon="15.631241611493">
        <ele>29.2</ele>
        <time>2019-08-22T17:15:36Z</time>
      </trkpt>
      <trkpt lat="58.373197888979" lon="15.631246975909">
        <ele>29</ele>
        <time>2019-08-22T17:15:37Z</time>
      </trkpt>
      <trkpt lat="58.373220855385" lon="15.63124689209">
        <ele>28.4</ele>
        <time>2019-08-22T17:15:39Z</time>
      </trkpt>
      <trkpt lat="58.373229237285" lon="15.631237085267">
        <ele>28.2</ele>
        <time>2019-08-22T17:15:40Z</time>
      </trkpt>
      <trkpt lat="58.373256897555" lon="15.63117229318">
        <ele>28.2</ele>
        <time>2019-08-22T17:15:43Z</time>
      </trkpt>
      <trkpt lat="58.373273996631" lon="15.631191823007">
        <ele>28.4</ele>
        <time>2019-08-22T17:15:50Z</time>
      </trkpt>
      <trkpt lat="58.373298304141" lon="15.631200372545">
        <ele>28.4</ele>
        <time>2019-08-22T17:15:54Z</time>
      </trkpt>
      <trkpt lat="58.373285228377" lon="15.631171622628">
        <ele>28.4</ele>
        <time>2019-08-22T17:15:57Z</time>
      </trkpt>
      <trkpt lat="58.373283468178" lon="15.631152260439">
        <ele>28.4</ele>
        <time>2019-08-22T17:15:58Z</time>
      </trkpt>
      <trkpt lat="58.373288497318" lon="15.631067770887">
        <ele>29.4</ele>
        <time>2019-08-22T17:16:01Z</time>
      </trkpt>
      <trkpt lat="58.373290508974" lon="15.631043463377">
        <ele>29.8</ele>
        <time>2019-08-22T17:16:02Z</time>
      </trkpt>
      <trkpt lat="58.373276427382" lon="15.631004571361">
        <ele>30.4</ele>
        <time>2019-08-22T17:16:05Z</time>
      </trkpt>
      <trkpt lat="58.373261842876" lon="15.631003230257">
        <ele>31</ele>
        <time>2019-08-22T17:16:07Z</time>
      </trkpt>
      <trkpt lat="58.373255556451" lon="15.631004738999">
        <ele>30.8</ele>
        <time>2019-08-22T17:16:08Z</time>
      </trkpt>
      <trkpt lat="58.373268380758" lon="15.630978587471">
        <ele>29.8</ele>
        <time>2019-08-22T17:16:12Z</time>
      </trkpt>
      <trkpt lat="58.373279528685" lon="15.63098537681">
        <ele>29.4</ele>
        <time>2019-08-22T17:16:13Z</time>
      </trkpt>
      <trkpt lat="58.373311379905" lon="15.631013372356">
        <ele>29</ele>
        <time>2019-08-22T17:16:16Z</time>
      </trkpt>
      <trkpt lat="58.373338537261" lon="15.631069363448">
        <ele>28.4</ele>
        <time>2019-08-22T17:16:18Z</time>
      </trkpt>
      <trkpt lat="58.373356642165" lon="15.631083696497">
        <ele>28.4</ele>
        <time>2019-08-22T17:16:19Z</time>
      </trkpt>
      <trkpt lat="58.373368879739" lon="15.631086378705">
        <ele>28</ele>
        <time>2019-08-22T17:16:20Z</time>
      </trkpt>
      <trkpt lat="58.373372483956" lon="15.631061233005">
        <ele>27.2</ele>
        <time>2019-08-22T17:16:24Z</time>
      </trkpt>
      <trkpt lat="58.373373741241" lon="15.631087300714">
        <ele>27</ele>
        <time>2019-08-22T17:16:26Z</time>
      </trkpt>
      <trkpt lat="58.373437695138" lon="15.631019658781">
        <ele>27</ele>
        <time>2019-08-22T17:16:33Z</time>
      </trkpt>
      <trkpt lat="58.373421266614" lon="15.630947155346">
        <ele>27</ele>
        <time>2019-08-22T17:16:39Z</time>
      </trkpt>
      <trkpt lat="58.373417327121" lon="15.630939024903">
        <ele>27.2</ele>
        <time>2019-08-22T17:16:45Z</time>
      </trkpt>
      <trkpt lat="58.373428894143" lon="15.63095604016">
        <ele>27</ele>
        <time>2019-08-22T17:16:51Z</time>
      </trkpt>
      <trkpt lat="58.373431492532" lon="15.630956375436">
        <ele>27.2</ele>
        <time>2019-08-22T17:16:56Z</time>
      </trkpt>
      <trkpt lat="58.373448675427" lon="15.631120157762">
        <ele>27.6</ele>
        <time>2019-08-22T17:17:02Z</time>
      </trkpt>
      <trkpt lat="58.373453788386" lon="15.631353761315">
        <ele>27.4</ele>
        <time>2019-08-22T17:17:07Z</time>
      </trkpt>
      <trkpt lat="58.373459152802" lon="15.631446465129">
        <ele>27.2</ele>
        <time>2019-08-22T17:17:09Z</time>
      </trkpt>
      <trkpt lat="58.373477592982" lon="15.631524919713">
        <ele>27</ele>
        <time>2019-08-22T17:17:11Z</time>
      </trkpt>
      <trkpt lat="58.373464433399" lon="15.631565069014">
        <ele>26.6</ele>
        <time>2019-08-22T17:17:15Z</time>
      </trkpt>
      <trkpt lat="58.373451944368" lon="15.631615025138">
        <ele>26.2</ele>
        <time>2019-08-22T17:17:18Z</time>
      </trkpt>
      <trkpt lat="58.37345177673" lon="15.631618713174">
        <ele>26</ele>
        <time>2019-08-22T17:17:19Z</time>
      </trkpt>
      <trkpt lat="58.373440544984" lon="15.631632627128">
        <ele>26</ele>
        <time>2019-08-22T17:17:21Z</time>
      </trkpt>
      <trkpt lat="58.373428558867" lon="15.631730024806">
        <ele>26.2</ele>
        <time>2019-08-22T17:17:25Z</time>
      </trkpt>
      <trkpt lat="58.373423194451" lon="15.631924820162">
        <ele>26.8</ele>
        <time>2019-08-22T17:17:31Z</time>
      </trkpt>
      <trkpt lat="58.373442891916" lon="15.631949211491">
        <ele>26.6</ele>
        <time>2019-08-22T17:17:32Z</time>
      </trkpt>
      <trkpt lat="58.373437946595" lon="15.631980140702">
        <ele>26.2</ele>
        <time>2019-08-22T17:17:34Z</time>
      </trkpt>
      <trkpt lat="58.373422775356" lon="15.631966562024">
        <ele>25.6</ele>
        <time>2019-08-22T17:17:37Z</time>
      </trkpt>
      <trkpt lat="58.373428139772" lon="15.631952480432">
        <ele>25.4</ele>
        <time>2019-08-22T17:17:39Z</time>
      </trkpt>
      <trkpt lat="58.373402742615" lon="15.631951139328">
        <ele>25.4</ele>
        <time>2019-08-22T17:17:45Z</time>
      </trkpt>
      <trkpt lat="58.373394193077" lon="15.631986678584">
        <ele>25.2</ele>
        <time>2019-08-22T17:17:50Z</time>
      </trkpt>
      <trkpt lat="58.373353121767" lon="15.632020290003">
        <ele>25.6</ele>
        <time>2019-08-22T17:17:54Z</time>
      </trkpt>
      <trkpt lat="58.373336525605" lon="15.632010986094">
        <ele>25.6</ele>
        <time>2019-08-22T17:17:55Z</time>
      </trkpt>
      <trkpt lat="58.373254718261" lon="15.631991372448">
        <ele>25.4</ele>
        <time>2019-08-22T17:17:59Z</time>
      </trkpt>
      <trkpt lat="58.373198140436" lon="15.632028252808">
        <ele>25.4</ele>
        <time>2019-08-22T17:18:02Z</time>
      </trkpt>
      <trkpt lat="58.373158913144" lon="15.63205323087">
        <ele>25.6</ele>
        <time>2019-08-22T17:18:04Z</time>
      </trkpt>
      <trkpt lat="58.373095210704" lon="15.632080220588">
        <ele>25.6</ele>
        <time>2019-08-22T17:18:08Z</time>
      </trkpt>
      <trkpt lat="58.372995633732" lon="15.632162614665">
        <ele>25.2</ele>
        <time>2019-08-22T17:18:18Z</time>
      </trkpt>
      <trkpt lat="58.372961267942" lon="15.632251546624">
        <ele>25</ele>
        <time>2019-08-22T17:18:25Z</time>
      </trkpt>
      <trkpt lat="58.372904187203" lon="15.632366965387">
        <ele>25.6</ele>
        <time>2019-08-22T17:18:29Z</time>
      </trkpt>
      <trkpt lat="58.37288180753" lon="15.632393871286">
        <ele>25.6</ele>
        <time>2019-08-22T17:18:30Z</time>
      </trkpt>
      <trkpt lat="58.372827828094" lon="15.632453718052">
        <ele>26.2</ele>
        <time>2019-08-22T17:18:33Z</time>
      </trkpt>
      <trkpt lat="58.372829504474" lon="15.63246226759">
        <ele>26.8</ele>
        <time>2019-08-22T17:18:35Z</time>
      </trkpt>
      <trkpt lat="58.372833024872" lon="15.632486994195">
        <ele>26.2</ele>
        <time>2019-08-22T17:18:37Z</time>
      </trkpt>
      <trkpt lat="58.372768232785" lon="15.632524628926">
        <ele>26.4</ele>
        <time>2019-08-22T17:18:41Z</time>
      </trkpt>
      <trkpt lat="58.372703105422" lon="15.632552037739">
        <ele>27</ele>
        <time>2019-08-22T17:18:43Z</time>
      </trkpt>
      <trkpt lat="58.372634876756" lon="15.632566957521">
        <ele>27.4</ele>
        <time>2019-08-22T17:18:46Z</time>
      </trkpt>
      <trkpt lat="58.372554578154" lon="15.632606268632">
        <ele>28.4</ele>
        <time>2019-08-22T17:18:49Z</time>
      </trkpt>
      <trkpt lat="58.372521302011" lon="15.632612890333">
        <ele>29.2</ele>
        <time>2019-08-22T17:18:51Z</time>
      </trkpt>
      <trkpt lat="58.372474111914" lon="15.632617835654">
        <ele>29.4</ele>
        <time>2019-08-22T17:18:54Z</time>
      </trkpt>
      <trkpt lat="58.372420048659" lon="15.632633761264">
        <ele>29.6</ele>
        <time>2019-08-22T17:18:58Z</time>
      </trkpt>
      <trkpt lat="58.372406134705" lon="15.632638036033">
        <ele>29.6</ele>
        <time>2019-08-22T17:18:59Z</time>
      </trkpt>
      <trkpt lat="58.372350478889" lon="15.632607525917">
        <ele>30.4</ele>
        <time>2019-08-22T17:19:03Z</time>
      </trkpt>
      <trkpt lat="58.372296415634" lon="15.632558072707">
        <ele>30.8</ele>
        <time>2019-08-22T17:19:08Z</time>
      </trkpt>
      <trkpt lat="58.372313849986" lon="15.632576764344">
        <ele>30.4</ele>
        <time>2019-08-22T17:19:12Z</time>
      </trkpt>
      <trkpt lat="58.372316699832" lon="15.632577015801">
        <ele>30.4</ele>
        <time>2019-08-22T17:19:13Z</time>
      </trkpt>
      <trkpt lat="58.372313263253" lon="15.632637868395">
        <ele>30.4</ele>
        <time>2019-08-22T17:19:17Z</time>
      </trkpt>
      <trkpt lat="58.372293230512" lon="15.632776672659">
        <ele>30.4</ele>
        <time>2019-08-22T17:19:21Z</time>
      </trkpt>
      <trkpt lat="58.372292979055" lon="15.632791424803">
        <ele>30.4</ele>
        <time>2019-08-22T17:19:22Z</time>
      </trkpt>
      <trkpt lat="58.372310664864" lon="15.6327799416">
        <ele>30.4</ele>
        <time>2019-08-22T17:19:25Z</time>
      </trkpt>
      <trkpt lat="58.372300271308" lon="15.632726884173">
        <ele>30.6</ele>
        <time>2019-08-22T17:19:30Z</time>
      </trkpt>
      <trkpt lat="58.372313682348" lon="15.632702744301">
        <ele>30.6</ele>
        <time>2019-08-22T17:19:32Z</time>
      </trkpt>
      <trkpt lat="58.372328853587" lon="15.632701403197">
        <ele>30.8</ele>
        <time>2019-08-22T17:19:35Z</time>
      </trkpt>
      <trkpt lat="58.372416025347" lon="15.632667707959">
        <ele>30.8</ele>
        <time>2019-08-22T17:19:40Z</time>
      </trkpt>
      <trkpt lat="58.372454749725" lon="15.632637700757">
        <ele>30.6</ele>
        <time>2019-08-22T17:19:42Z</time>
      </trkpt>
      <trkpt lat="58.372522810753" lon="15.632609034659">
        <ele>29.8</ele>
        <time>2019-08-22T17:19:45Z</time>
      </trkpt>
      <trkpt lat="58.372556422172" lon="15.632603586424">
        <ele>29.2</ele>
        <time>2019-08-22T17:19:47Z</time>
      </trkpt>
      <trkpt lat="58.372600930061" lon="15.632639041861">
        <ele>28.4</ele>
        <time>2019-08-22T17:19:50Z</time>
      </trkpt>
      <trkpt lat="58.372609060504" lon="15.632640969698">
        <ele>28</ele>
        <time>2019-08-22T17:19:51Z</time>
      </trkpt>
      <trkpt lat="58.372606294477" lon="15.632640885879">
        <ele>28</ele>
        <time>2019-08-22T17:19:52Z</time>
      </trkpt>
      <trkpt lat="58.372639738258" lon="15.632617416559">
        <ele>27.8</ele>
        <time>2019-08-22T17:19:54Z</time>
      </trkpt>
      <trkpt lat="58.37266806908" lon="15.632580871475">
        <ele>27.2</ele>
        <time>2019-08-22T17:19:58Z</time>
      </trkpt>
      <trkpt lat="58.37266974546" lon="15.632575004145">
        <ele>26.6</ele>
        <time>2019-08-22T17:19:59Z</time>
      </trkpt>
      <trkpt lat="58.372714337168" lon="15.632587074081">
        <ele>26.4</ele>
        <time>2019-08-22T17:20:05Z</time>
      </trkpt>
      <trkpt lat="58.372759347971" lon="15.632726884173">
        <ele>26.4</ele>
        <time>2019-08-22T17:20:09Z</time>
      </trkpt>
      <trkpt lat="58.372779883626" lon="15.63284783499">
        <ele>26.6</ele>
        <time>2019-08-22T17:20:11Z</time>
      </trkpt>
      <trkpt lat="58.372803688222" lon="15.633044558183">
        <ele>27</ele>
        <time>2019-08-22T17:20:14Z</time>
      </trkpt>
      <trkpt lat="58.372827911913" lon="15.633300122314">
        <ele>26.8</ele>
        <time>2019-08-22T17:20:19Z</time>
      </trkpt>
      <trkpt lat="58.372842161143" lon="15.633412942688">
        <ele>26.8</ele>
        <time>2019-08-22T17:20:22Z</time>
      </trkpt>
      <trkpt lat="58.372842915514" lon="15.633440100044">
        <ele>27</ele>
        <time>2019-08-22T17:20:23Z</time>
      </trkpt>
      <trkpt lat="58.372847860835" lon="15.633514531316">
        <ele>26.6</ele>
        <time>2019-08-22T17:20:25Z</time>
      </trkpt>
      <trkpt lat="58.372856745649" lon="15.633588543493">
        <ele>26.6</ele>
        <time>2019-08-22T17:20:27Z</time>
      </trkpt>
      <trkpt lat="58.372853979622" lon="15.633723994997">
        <ele>27</ele>
        <time>2019-08-22T17:20:32Z</time>
      </trkpt>
      <trkpt lat="58.372825145886" lon="15.63382935548">
        <ele>26</ele>
        <time>2019-08-22T17:20:38Z</time>
      </trkpt>
      <trkpt lat="58.372804526412" lon="15.633977966567">
        <ele>26.8</ele>
        <time>2019-08-22T17:20:42Z</time>
      </trkpt>
      <trkpt lat="58.372796060693" lon="15.634062707576">
        <ele>27.4</ele>
        <time>2019-08-22T17:20:44Z</time>
      </trkpt>
      <trkpt lat="58.372799078177" lon="15.63408919438">
        <ele>27.2</ele>
        <time>2019-08-22T17:20:45Z</time>
      </trkpt>
      <trkpt lat="58.372803185308" lon="15.63411434008">
        <ele>27.2</ele>
        <time>2019-08-22T17:20:46Z</time>
      </trkpt>
      <trkpt lat="58.372788516983" lon="15.634233949793">
        <ele>27</ele>
        <time>2019-08-22T17:20:49Z</time>
      </trkpt>
      <trkpt lat="58.372789774268" lon="15.634332604756">
        <ele>26.8</ele>
        <time>2019-08-22T17:20:51Z</time>
      </trkpt>
      <trkpt lat="58.372778374884" lon="15.634379711034">
        <ele>26.8</ele>
        <time>2019-08-22T17:20:52Z</time>
      </trkpt>
      <trkpt lat="58.372716097367" lon="15.634529076492">
        <ele>26.6</ele>
        <time>2019-08-22T17:20:55Z</time>
      </trkpt>
      <trkpt lat="58.372659770999" lon="15.634661342874">
        <ele>26.2</ele>
        <time>2019-08-22T17:20:59Z</time>
      </trkpt>
      <trkpt lat="58.372553907602" lon="15.634838368602">
        <ele>26.6</ele>
        <time>2019-08-22T17:21:04Z</time>
      </trkpt>
      <trkpt lat="58.37253395868" lon="15.634884804328">
        <ele>26.4</ele>
        <time>2019-08-22T17:21:05Z</time>
      </trkpt>
      <trkpt lat="58.372440165219" lon="15.635207423659">
        <ele>26.8</ele>
        <time>2019-08-22T17:21:11Z</time>
      </trkpt>
      <trkpt lat="58.37239984828" lon="15.635313873789">
        <ele>26.2</ele>
        <time>2019-08-22T17:21:13Z</time>
      </trkpt>
      <trkpt lat="58.372334637098" lon="15.635468519844">
        <ele>26.4</ele>
        <time>2019-08-22T17:21:17Z</time>
      </trkpt>
      <trkpt lat="58.372306306276" lon="15.635542112926">
        <ele>26.2</ele>
        <time>2019-08-22T17:21:19Z</time>
      </trkpt>
      <trkpt lat="58.372249141718" lon="15.635650993807">
        <ele>26</ele>
        <time>2019-08-22T17:21:22Z</time>
      </trkpt>
      <trkpt lat="58.37218778621" lon="15.635782841094">
        <ele>25.8</ele>
        <time>2019-08-22T17:21:26Z</time>
      </trkpt>
      <trkpt lat="58.372106649418" lon="15.635952323112">
        <ele>25.8</ele>
        <time>2019-08-22T17:21:31Z</time>
      </trkpt>
      <trkpt lat="58.3720461321" lon="15.636181232801">
        <ele>25.8</ele>
        <time>2019-08-22T17:21:36Z</time>
      </trkpt>
      <trkpt lat="58.371961391091" lon="15.636361359832">
        <ele>26</ele>
        <time>2019-08-22T17:21:41Z</time>
      </trkpt>
      <trkpt lat="58.371881930679" lon="15.636539894302">
        <ele>25.8</ele>
        <time>2019-08-22T17:21:47Z</time>
      </trkpt>
      <trkpt lat="58.371872710589" lon="15.636565542916">
        <ele>25.6</ele>
        <time>2019-08-22T17:21:48Z</time>
      </trkpt>
      <trkpt lat="58.371862400852" lon="15.636581552345">
        <ele>25.8</ele>
        <time>2019-08-22T17:21:49Z</time>
      </trkpt>
      <trkpt lat="58.371865418336" lon="15.636600160163">
        <ele>25.6</ele>
        <time>2019-08-22T17:21:51Z</time>
      </trkpt>
      <trkpt lat="58.371882517412" lon="15.636623713302">
        <ele>25.8</ele>
        <time>2019-08-22T17:21:56Z</time>
      </trkpt>
      <trkpt lat="58.371853683676" lon="15.636713064356">
        <ele>25.8</ele>
        <time>2019-08-22T17:22:02Z</time>
      </trkpt>
      <trkpt lat="58.371891653683" lon="15.636897466156">
        <ele>26.2</ele>
        <time>2019-08-22T17:22:07Z</time>
      </trkpt>
      <trkpt lat="58.37194806387" lon="15.637131488804">
        <ele>25.8</ele>
        <time>2019-08-22T17:22:13Z</time>
      </trkpt>
      <trkpt lat="58.372009838473" lon="15.637346987453">
        <ele>25.6</ele>
        <time>2019-08-22T17:22:19Z</time>
      </trkpt>
      <trkpt lat="58.372054597819" lon="15.637623422515">
        <ele>25.8</ele>
        <time>2019-08-22T17:22:24Z</time>
      </trkpt>
      <trkpt lat="58.372106733237" lon="15.637900109034">
        <ele>25.4</ele>
        <time>2019-08-22T17:22:29Z</time>
      </trkpt>
      <trkpt lat="58.372152749868" lon="15.638138071175">
        <ele>25</ele>
        <time>2019-08-22T17:22:34Z</time>
      </trkpt>
      <trkpt lat="58.372227516416" lon="15.63848047179">
        <ele>25.6</ele>
        <time>2019-08-22T17:22:41Z</time>
      </trkpt>
      <trkpt lat="58.372289374838" lon="15.638790937366">
        <ele>25.6</ele>
        <time>2019-08-22T17:22:47Z</time>
      </trkpt>
      <trkpt lat="58.372342096989" lon="15.639155047102">
        <ele>25.8</ele>
        <time>2019-08-22T17:22:54Z</time>
      </trkpt>
      <trkpt lat="58.372398842452" lon="15.63948043246">
        <ele>25.6</ele>
        <time>2019-08-22T17:23:01Z</time>
      </trkpt>
      <trkpt lat="58.372452570431" lon="15.639767847811">
        <ele>25.8</ele>
        <time>2019-08-22T17:23:07Z</time>
      </trkpt>
      <trkpt lat="58.372496156311" lon="15.640055179343">
        <ele>25.8</ele>
        <time>2019-08-22T17:23:13Z</time>
      </trkpt>
      <trkpt lat="58.372548962281" lon="15.640365644919">
        <ele>26</ele>
        <time>2019-08-22T17:23:20Z</time>
      </trkpt>
      <trkpt lat="58.372591709971" lon="15.640630764416">
        <ele>25.8</ele>
        <time>2019-08-22T17:23:26Z</time>
      </trkpt>
      <trkpt lat="58.372607887038" lon="15.640923292726">
        <ele>26</ele>
        <time>2019-08-22T17:23:32Z</time>
      </trkpt>
      <trkpt lat="58.372640827905" lon="15.64129846657">
        <ele>25.8</ele>
        <time>2019-08-22T17:23:40Z</time>
      </trkpt>
      <trkpt lat="58.372660944465" lon="15.641556126176">
        <ele>26</ele>
        <time>2019-08-22T17:23:46Z</time>
      </trkpt>
      <trkpt lat="58.372680809568" lon="15.641753855197">
        <ele>25.8</ele>
        <time>2019-08-22T17:23:50Z</time>
      </trkpt>
      <trkpt lat="58.372685419613" lon="15.641787801892">
        <ele>26</ele>
        <time>2019-08-22T17:23:51Z</time>
      </trkpt>
      <trkpt lat="58.372689694382" lon="15.641921157921">
        <ele>26.4</ele>
        <time>2019-08-22T17:23:54Z</time>
      </trkpt>
    </trkseg>
  </trk>
</gpx>